<?xml version='1.0' encoding='UTF-8'?><gpx version="1.1" creator="JPX - https://github.com/jenetics/jpx" xmlns="http://www.topografix.com/GPX/1/1"><trk><trkseg><trkpt lat="45.7047551" lon="12.0429922"><ele>51.5</ele><time>2026-04-11T14:41:35.068Z</time></trkpt><trkpt lat="45.7048278" lon="12.0434946"><ele>52.0</ele><time>2026-04-11T14:41:37.071Z</time></trkpt><trkpt lat="45.7048611" lon="12.0437487"><ele>52.0</ele><time>2026-04-11T14:41:38.068Z</time></trkpt><trkpt lat="45.704895" lon="12.0440035"><ele>52.0</ele><time>2026-04-11T14:41:39.077Z</time></trkpt><trkpt lat="45.7049321" lon="12.0442634"><ele>52.0</ele><time>2026-04-11T14:41:40.074Z</time></trkpt><trkpt lat="45.704973" lon="12.0445228"><ele>52.33333333333333</ele><time>2026-04-11T14:41:41.074Z</time></trkpt><trkpt lat="45.705012" lon="12.044788"><ele>52.66666666666667</ele><time>2026-04-11T14:41:42.076Z</time></trkpt><trkpt lat="45.7050516" lon="12.0450541"><ele>53.0</ele><time>2026-04-11T14:41:43.073Z</time></trkpt><trkpt lat="45.7050922" lon="12.0453262"><ele>53.0</ele><time>2026-04-11T14:41:44.072Z</time></trkpt><trkpt lat="45.7051308" lon="12.0456012"><ele>53.0</ele><time>2026-04-11T14:41:45.072Z</time></trkpt><trkpt lat="45.705171" lon="12.0458758"><ele>53.0</ele><time>2026-04-11T14:41:46.077Z</time></trkpt><trkpt lat="45.7052094" lon="12.0461547"><ele>53.333333333333336</ele><time>2026-04-11T14:41:47.072Z</time></trkpt><trkpt lat="45.7052474" lon="12.0464368"><ele>53.66666666666667</ele><time>2026-04-11T14:41:48.073Z</time></trkpt><trkpt lat="45.7052856" lon="12.0467205"><ele>54.0</ele><time>2026-04-11T14:41:49.066Z</time></trkpt><trkpt lat="45.7053251" lon="12.0470034"><ele>54.33333333333333</ele><time>2026-04-11T14:41:50.071Z</time></trkpt><trkpt lat="45.7053665" lon="12.0472871"><ele>54.666666666666664</ele><time>2026-04-11T14:41:51.072Z</time></trkpt><trkpt lat="45.7054062" lon="12.047571"><ele>55.0</ele><time>2026-04-11T14:41:52.073Z</time></trkpt><trkpt lat="45.7054464" lon="12.0478553"><ele>55.0</ele><time>2026-04-11T14:41:53.079Z</time></trkpt><trkpt lat="45.7054868" lon="12.0481361"><ele>55.0</ele><time>2026-04-11T14:41:54.068Z</time></trkpt><trkpt lat="45.7055279" lon="12.0484167"><ele>55.0</ele><time>2026-04-11T14:41:55.07Z</time></trkpt><trkpt lat="45.7055689" lon="12.0486944"><ele>55.0</ele><time>2026-04-11T14:41:56.071Z</time></trkpt><trkpt lat="45.7056093" lon="12.0489711"><ele>55.0</ele><time>2026-04-11T14:41:57.069Z</time></trkpt><trkpt lat="45.7056495" lon="12.0492471"><ele>55.0</ele><time>2026-04-11T14:41:58.071Z</time></trkpt><trkpt lat="45.7056893" lon="12.0495224"><ele>54.666666666666664</ele><time>2026-04-11T14:41:59.076Z</time></trkpt><trkpt lat="45.7057279" lon="12.0497968"><ele>54.33333333333333</ele><time>2026-04-11T14:42:00.067Z</time></trkpt><trkpt lat="45.7057673" lon="12.0500715"><ele>54.0</ele><time>2026-04-11T14:42:01.074Z</time></trkpt><trkpt lat="45.7058079" lon="12.050345"><ele>53.66666666666667</ele><time>2026-04-11T14:42:02.076Z</time></trkpt><trkpt lat="45.7058482" lon="12.0506181"><ele>53.333333333333336</ele><time>2026-04-11T14:42:03.069Z</time></trkpt><trkpt lat="45.705888" lon="12.0508905"><ele>53.0</ele><time>2026-04-11T14:42:04.074Z</time></trkpt><trkpt lat="45.7059276" lon="12.0511636"><ele>53.0</ele><time>2026-04-11T14:42:05.075Z</time></trkpt><trkpt lat="45.7059668" lon="12.0514356"><ele>53.0</ele><time>2026-04-11T14:42:06.07Z</time></trkpt><trkpt lat="45.7060041" lon="12.0517087"><ele>53.0</ele><time>2026-04-11T14:42:07.073Z</time></trkpt><trkpt lat="45.7060416" lon="12.0519792"><ele>53.0</ele><time>2026-04-11T14:42:08.07Z</time></trkpt><trkpt lat="45.7060817" lon="12.0522483"><ele>53.0</ele><time>2026-04-11T14:42:09.077Z</time></trkpt><trkpt lat="45.7061202" lon="12.0525162"><ele>53.0</ele><time>2026-04-11T14:42:10.074Z</time></trkpt><trkpt lat="45.70616" lon="12.052785"><ele>53.0</ele><time>2026-04-11T14:42:11.071Z</time></trkpt><trkpt lat="45.7061993" lon="12.0530538"><ele>53.0</ele><time>2026-04-11T14:42:12.072Z</time></trkpt><trkpt lat="45.7062374" lon="12.0533227"><ele>53.0</ele><time>2026-04-11T14:42:13.073Z</time></trkpt><trkpt lat="45.7062753" lon="12.0535896"><ele>53.333333333333336</ele><time>2026-04-11T14:42:14.074Z</time></trkpt><trkpt lat="45.7063132" lon="12.0538577"><ele>53.66666666666667</ele><time>2026-04-11T14:42:15.077Z</time></trkpt><trkpt lat="45.706352" lon="12.0541284"><ele>54.0</ele><time>2026-04-11T14:42:16.081Z</time></trkpt><trkpt lat="45.7063913" lon="12.0543987"><ele>54.0</ele><time>2026-04-11T14:42:17.071Z</time></trkpt><trkpt lat="45.7064297" lon="12.0546681"><ele>54.0</ele><time>2026-04-11T14:42:18.075Z</time></trkpt><trkpt lat="45.7064662" lon="12.0549274"><ele>54.0</ele><time>2026-04-11T14:42:19.073Z</time></trkpt><trkpt lat="45.7065033" lon="12.0551724"><ele>54.0</ele><time>2026-04-11T14:42:20.067Z</time></trkpt><trkpt lat="45.7065388" lon="12.0554182"><ele>54.0</ele><time>2026-04-11T14:42:21.068Z</time></trkpt><trkpt lat="45.7065735" lon="12.0556713"><ele>54.0</ele><time>2026-04-11T14:42:22.071Z</time></trkpt><trkpt lat="45.706612" lon="12.0559298"><ele>54.0</ele><time>2026-04-11T14:42:23.072Z</time></trkpt><trkpt lat="45.7066493" lon="12.0561909"><ele>54.0</ele><time>2026-04-11T14:42:24.08Z</time></trkpt><trkpt lat="45.7066868" lon="12.0564581"><ele>54.0</ele><time>2026-04-11T14:42:25.079Z</time></trkpt><trkpt lat="45.7067255" lon="12.0567247"><ele>54.0</ele><time>2026-04-11T14:42:26.072Z</time></trkpt><trkpt lat="45.7067639" lon="12.0569911"><ele>54.0</ele><time>2026-04-11T14:42:27.072Z</time></trkpt><trkpt lat="45.706801" lon="12.0572445"><ele>54.0</ele><time>2026-04-11T14:42:28.075Z</time></trkpt><trkpt lat="45.7068376" lon="12.0574972"><ele>54.0</ele><time>2026-04-11T14:42:29.071Z</time></trkpt><trkpt lat="45.7068746" lon="12.0577426"><ele>54.0</ele><time>2026-04-11T14:42:30.074Z</time></trkpt><trkpt lat="45.7069079" lon="12.0579744"><ele>54.0</ele><time>2026-04-11T14:42:31.073Z</time></trkpt><trkpt lat="45.7069422" lon="12.0582115"><ele>54.33333333333333</ele><time>2026-04-11T14:42:32.073Z</time></trkpt><trkpt lat="45.7069757" lon="12.0584491"><ele>54.666666666666664</ele><time>2026-04-11T14:42:33.074Z</time></trkpt><trkpt lat="45.7070092" lon="12.0586898"><ele>55.0</ele><time>2026-04-11T14:42:34.08Z</time></trkpt><trkpt lat="45.7070438" lon="12.0589322"><ele>54.666666666666664</ele><time>2026-04-11T14:42:35.075Z</time></trkpt><trkpt lat="45.7070786" lon="12.0591774"><ele>54.33333333333333</ele><time>2026-04-11T14:42:36.071Z</time></trkpt><trkpt lat="45.7071149" lon="12.059423"><ele>54.0</ele><time>2026-04-11T14:42:37.069Z</time></trkpt><trkpt lat="45.7071517" lon="12.0596705"><ele>54.0</ele><time>2026-04-11T14:42:38.074Z</time></trkpt><trkpt lat="45.7071878" lon="12.0599179"><ele>54.0</ele><time>2026-04-11T14:42:39.07Z</time></trkpt><trkpt lat="45.7072231" lon="12.0601632"><ele>54.0</ele><time>2026-04-11T14:42:40.076Z</time></trkpt><trkpt lat="45.7072571" lon="12.060401"><ele>54.33333333333333</ele><time>2026-04-11T14:42:41.07Z</time></trkpt><trkpt lat="45.7072882" lon="12.0606259"><ele>54.666666666666664</ele><time>2026-04-11T14:42:42.071Z</time></trkpt><trkpt lat="45.7073195" lon="12.0608401"><ele>55.0</ele><time>2026-04-11T14:42:43.07Z</time></trkpt><trkpt lat="45.7073495" lon="12.0610427"><ele>55.25</ele><time>2026-04-11T14:42:44.069Z</time></trkpt><trkpt lat="45.7073765" lon="12.0612376"><ele>55.5</ele><time>2026-04-11T14:42:45.074Z</time></trkpt><trkpt lat="45.7074011" lon="12.0614281"><ele>55.75</ele><time>2026-04-11T14:42:46.071Z</time></trkpt><trkpt lat="45.707423" lon="12.0616036"><ele>56.0</ele><time>2026-04-11T14:42:47.071Z</time></trkpt><trkpt lat="45.7074381" lon="12.0617609"><ele>56.0</ele><time>2026-04-11T14:42:48.074Z</time></trkpt><trkpt lat="45.7074509" lon="12.061905"><ele>55.99999999999999</ele><time>2026-04-11T14:42:49.074Z</time></trkpt><trkpt lat="45.7074553" lon="12.0620396"><ele>55.99999999999999</ele><time>2026-04-11T14:42:50.072Z</time></trkpt><trkpt lat="45.7074517" lon="12.0621694"><ele>56.0</ele><time>2026-04-11T14:42:51.07Z</time></trkpt><trkpt lat="45.7074373" lon="12.0622938"><ele>56.0</ele><time>2026-04-11T14:42:52.072Z</time></trkpt><trkpt lat="45.7074152" lon="12.0624137"><ele>55.833333333333336</ele><time>2026-04-11T14:42:53.077Z</time></trkpt><trkpt lat="45.7073929" lon="12.0625376"><ele>55.66666666666667</ele><time>2026-04-11T14:42:54.072Z</time></trkpt><trkpt lat="45.7073869" lon="12.0626457"><ele>55.5</ele><time>2026-04-11T14:42:55.073Z</time></trkpt><trkpt lat="45.7073988" lon="12.0627364"><ele>55.33333333333333</ele><time>2026-04-11T14:42:56.081Z</time></trkpt><trkpt lat="45.7074846" lon="12.0628459"><ele>55.166666666666664</ele><time>2026-04-11T14:42:58.074Z</time></trkpt><trkpt lat="45.7075555" lon="12.0628577"><ele>55.0</ele><time>2026-04-11T14:42:59.077Z</time></trkpt><trkpt lat="45.707637" lon="12.0628348"><ele>55.0</ele><time>2026-04-11T14:43:00.07Z</time></trkpt><trkpt lat="45.7077327" lon="12.0628008"><ele>55.0</ele><time>2026-04-11T14:43:01.069Z</time></trkpt><trkpt lat="45.7078385" lon="12.0627988"><ele>55.0</ele><time>2026-04-11T14:43:02.074Z</time></trkpt><trkpt lat="45.7079408" lon="12.0628434"><ele>55.0</ele><time>2026-04-11T14:43:03.076Z</time></trkpt><trkpt lat="45.7080552" lon="12.0629264"><ele>55.0</ele><time>2026-04-11T14:43:04.076Z</time></trkpt><trkpt lat="45.7081658" lon="12.0630232"><ele>55.33333333333333</ele><time>2026-04-11T14:43:05.081Z</time></trkpt><trkpt lat="45.7082915" lon="12.0631262"><ele>55.66666666666667</ele><time>2026-04-11T14:43:06.079Z</time></trkpt><trkpt lat="45.7084302" lon="12.0632332"><ele>56.0</ele><time>2026-04-11T14:43:07.074Z</time></trkpt><trkpt lat="45.7085778" lon="12.0633461"><ele>56.0</ele><time>2026-04-11T14:43:08.071Z</time></trkpt><trkpt lat="45.7087298" lon="12.0634582"><ele>56.0</ele><time>2026-04-11T14:43:09.073Z</time></trkpt><trkpt lat="45.7088902" lon="12.0635797"><ele>56.0</ele><time>2026-04-11T14:43:10.066Z</time></trkpt><trkpt lat="45.7090561" lon="12.0637062"><ele>56.0</ele><time>2026-04-11T14:43:11.077Z</time></trkpt><trkpt lat="45.7092277" lon="12.0638386"><ele>56.0</ele><time>2026-04-11T14:43:12.073Z</time></trkpt><trkpt lat="45.709404" lon="12.0639744"><ele>56.0</ele><time>2026-04-11T14:43:13.073Z</time></trkpt><trkpt lat="45.7095855" lon="12.0641114"><ele>56.0</ele><time>2026-04-11T14:43:14.07Z</time></trkpt><trkpt lat="45.7097713" lon="12.0642496"><ele>56.0</ele><time>2026-04-11T14:43:15.074Z</time></trkpt><trkpt lat="45.7099584" lon="12.0643895"><ele>56.0</ele><time>2026-04-11T14:43:16.073Z</time></trkpt><trkpt lat="45.7101481" lon="12.0645298"><ele>56.333333333333336</ele><time>2026-04-11T14:43:17.076Z</time></trkpt><trkpt lat="45.7103388" lon="12.0646696"><ele>56.66666666666667</ele><time>2026-04-11T14:43:18.072Z</time></trkpt><trkpt lat="45.7105295" lon="12.0648119"><ele>57.0</ele><time>2026-04-11T14:43:19.073Z</time></trkpt><trkpt lat="45.7107197" lon="12.0649569"><ele>57.0</ele><time>2026-04-11T14:43:20.067Z</time></trkpt><trkpt lat="45.7109111" lon="12.0651018"><ele>57.0</ele><time>2026-04-11T14:43:21.076Z</time></trkpt><trkpt lat="45.7111029" lon="12.0652484"><ele>57.0</ele><time>2026-04-11T14:43:22.072Z</time></trkpt><trkpt lat="45.711298" lon="12.0653937"><ele>57.0</ele><time>2026-04-11T14:43:23.083Z</time></trkpt><trkpt lat="45.7114945" lon="12.0655388"><ele>57.0</ele><time>2026-04-11T14:43:24.076Z</time></trkpt><trkpt lat="45.7116911" lon="12.0656848"><ele>57.0</ele><time>2026-04-11T14:43:25.077Z</time></trkpt><trkpt lat="45.7118891" lon="12.0658325"><ele>57.33333333333333</ele><time>2026-04-11T14:43:26.068Z</time></trkpt><trkpt lat="45.712088" lon="12.0659807"><ele>57.666666666666664</ele><time>2026-04-11T14:43:27.071Z</time></trkpt><trkpt lat="45.7122863" lon="12.0661284"><ele>58.0</ele><time>2026-04-11T14:43:28.074Z</time></trkpt><trkpt lat="45.7124847" lon="12.0662765"><ele>58.0</ele><time>2026-04-11T14:43:29.072Z</time></trkpt><trkpt lat="45.7126819" lon="12.0664253"><ele>58.0</ele><time>2026-04-11T14:43:30.077Z</time></trkpt><trkpt lat="45.7128787" lon="12.0665763"><ele>58.0</ele><time>2026-04-11T14:43:31.073Z</time></trkpt><trkpt lat="45.713075" lon="12.066725"><ele>58.33333333333333</ele><time>2026-04-11T14:43:32.072Z</time></trkpt><trkpt lat="45.7132725" lon="12.0668719"><ele>58.66666666666667</ele><time>2026-04-11T14:43:33.075Z</time></trkpt><trkpt lat="45.7134651" lon="12.0670171"><ele>59.0</ele><time>2026-04-11T14:43:34.072Z</time></trkpt><trkpt lat="45.7136563" lon="12.0671613"><ele>59.0</ele><time>2026-04-11T14:43:35.07Z</time></trkpt><trkpt lat="45.7138457" lon="12.067305"><ele>59.0</ele><time>2026-04-11T14:43:36.069Z</time></trkpt><trkpt lat="45.7140361" lon="12.0674481"><ele>59.0</ele><time>2026-04-11T14:43:37.072Z</time></trkpt><trkpt lat="45.7142264" lon="12.0675948"><ele>59.0</ele><time>2026-04-11T14:43:38.07Z</time></trkpt><trkpt lat="45.7144173" lon="12.0677393"><ele>59.0</ele><time>2026-04-11T14:43:39.071Z</time></trkpt><trkpt lat="45.7146062" lon="12.0678845"><ele>59.0</ele><time>2026-04-11T14:43:40.074Z</time></trkpt><trkpt lat="45.7147965" lon="12.0680285"><ele>59.0</ele><time>2026-04-11T14:43:41.072Z</time></trkpt><trkpt lat="45.7149884" lon="12.0681739"><ele>59.0</ele><time>2026-04-11T14:43:42.071Z</time></trkpt><trkpt lat="45.7151791" lon="12.0683172"><ele>59.0</ele><time>2026-04-11T14:43:43.074Z</time></trkpt><trkpt lat="45.7153625" lon="12.0684559"><ele>59.333333333333336</ele><time>2026-04-11T14:43:44.071Z</time></trkpt><trkpt lat="45.7155381" lon="12.0685887"><ele>59.66666666666667</ele><time>2026-04-11T14:43:45.071Z</time></trkpt><trkpt lat="45.7157136" lon="12.0687166"><ele>60.0</ele><time>2026-04-11T14:43:46.071Z</time></trkpt><trkpt lat="45.7158892" lon="12.0688346"><ele>60.0</ele><time>2026-04-11T14:43:47.075Z</time></trkpt><trkpt lat="45.7160657" lon="12.0689362"><ele>60.0</ele><time>2026-04-11T14:43:48.07Z</time></trkpt><trkpt lat="45.7162448" lon="12.0690208"><ele>60.0</ele><time>2026-04-11T14:43:49.074Z</time></trkpt><trkpt lat="45.71643" lon="12.0690917"><ele>59.66666666666667</ele><time>2026-04-11T14:43:50.072Z</time></trkpt><trkpt lat="45.7166179" lon="12.0691488"><ele>59.333333333333336</ele><time>2026-04-11T14:43:51.072Z</time></trkpt><trkpt lat="45.7168071" lon="12.0691875"><ele>59.0</ele><time>2026-04-11T14:43:52.076Z</time></trkpt><trkpt lat="45.7169966" lon="12.0692078"><ele>60.333333333333336</ele><time>2026-04-11T14:43:53.072Z</time></trkpt><trkpt lat="45.7171863" lon="12.0692077"><ele>61.66666666666667</ele><time>2026-04-11T14:43:54.079Z</time></trkpt><trkpt lat="45.7173768" lon="12.0691952"><ele>63.0</ele><time>2026-04-11T14:43:55.074Z</time></trkpt><trkpt lat="45.7175697" lon="12.0691775"><ele>63.33333333333333</ele><time>2026-04-11T14:43:56.072Z</time></trkpt><trkpt lat="45.7177622" lon="12.0691582"><ele>63.666666666666664</ele><time>2026-04-11T14:43:57.079Z</time></trkpt><trkpt lat="45.717956" lon="12.0691354"><ele>64.0</ele><time>2026-04-11T14:43:58.073Z</time></trkpt><trkpt lat="45.7181469" lon="12.0691117"><ele>63.666666666666664</ele><time>2026-04-11T14:43:59.076Z</time></trkpt><trkpt lat="45.7183363" lon="12.0690805"><ele>63.33333333333333</ele><time>2026-04-11T14:44:00.068Z</time></trkpt><trkpt lat="45.718526" lon="12.0690406"><ele>63.0</ele><time>2026-04-11T14:44:01.07Z</time></trkpt><trkpt lat="45.7187168" lon="12.0689911"><ele>63.0</ele><time>2026-04-11T14:44:02.073Z</time></trkpt><trkpt lat="45.7189086" lon="12.0689288"><ele>63.0</ele><time>2026-04-11T14:44:03.07Z</time></trkpt><trkpt lat="45.7191013" lon="12.0688623"><ele>63.0</ele><time>2026-04-11T14:44:04.071Z</time></trkpt><trkpt lat="45.7192944" lon="12.0687944"><ele>63.33333333333333</ele><time>2026-04-11T14:44:05.072Z</time></trkpt><trkpt lat="45.7194864" lon="12.0687278"><ele>63.666666666666664</ele><time>2026-04-11T14:44:06.074Z</time></trkpt><trkpt lat="45.7196701" lon="12.0686656"><ele>64.0</ele><time>2026-04-11T14:44:07.093Z</time></trkpt><trkpt lat="45.7198578" lon="12.0686016"><ele>64.0</ele><time>2026-04-11T14:44:08.071Z</time></trkpt><trkpt lat="45.7200442" lon="12.0685361"><ele>64.0</ele><time>2026-04-11T14:44:09.07Z</time></trkpt><trkpt lat="45.7202294" lon="12.0684715"><ele>64.0</ele><time>2026-04-11T14:44:10.071Z</time></trkpt><trkpt lat="45.7204111" lon="12.0684062"><ele>63.666666666666664</ele><time>2026-04-11T14:44:11.07Z</time></trkpt><trkpt lat="45.7205779" lon="12.0683444"><ele>63.33333333333333</ele><time>2026-04-11T14:44:12.068Z</time></trkpt><trkpt lat="45.7207319" lon="12.068289"><ele>63.0</ele><time>2026-04-11T14:44:13.078Z</time></trkpt><trkpt lat="45.7208733" lon="12.0682387"><ele>63.0</ele><time>2026-04-11T14:44:14.076Z</time></trkpt><trkpt lat="45.7209978" lon="12.0681929"><ele>63.0</ele><time>2026-04-11T14:44:15.068Z</time></trkpt><trkpt lat="45.7210994" lon="12.0681578"><ele>63.0</ele><time>2026-04-11T14:44:16.069Z</time></trkpt><trkpt lat="45.7211717" lon="12.0681426"><ele>63.0</ele><time>2026-04-11T14:44:17.071Z</time></trkpt><trkpt lat="45.7212644" lon="12.0682139"><ele>63.0</ele><time>2026-04-11T14:44:19.072Z</time></trkpt><trkpt lat="45.7212901" lon="12.0683098"><ele>63.0</ele><time>2026-04-11T14:44:20.075Z</time></trkpt><trkpt lat="45.7213051" lon="12.0684514"><ele>63.0</ele><time>2026-04-11T14:44:21.072Z</time></trkpt><trkpt lat="45.7213138" lon="12.0686297"><ele>63.0</ele><time>2026-04-11T14:44:22.07Z</time></trkpt><trkpt lat="45.7213245" lon="12.0688243"><ele>63.0</ele><time>2026-04-11T14:44:23.076Z</time></trkpt><trkpt lat="45.7213384" lon="12.0690409"><ele>63.0</ele><time>2026-04-11T14:44:24.075Z</time></trkpt><trkpt lat="45.7213505" lon="12.0692761"><ele>63.0</ele><time>2026-04-11T14:44:25.075Z</time></trkpt><trkpt lat="45.7213632" lon="12.0695159"><ele>63.0</ele><time>2026-04-11T14:44:26.073Z</time></trkpt><trkpt lat="45.7213771" lon="12.0697752"><ele>63.33333333333333</ele><time>2026-04-11T14:44:27.065Z</time></trkpt><trkpt lat="45.7213922" lon="12.0700487"><ele>63.666666666666664</ele><time>2026-04-11T14:44:28.084Z</time></trkpt><trkpt lat="45.7214068" lon="12.0703325"><ele>64.0</ele><time>2026-04-11T14:44:29.074Z</time></trkpt><trkpt lat="45.7214203" lon="12.0705977"><ele>64.33333333333333</ele><time>2026-04-11T14:44:30.073Z</time></trkpt><trkpt lat="45.7214317" lon="12.0708473"><ele>64.66666666666667</ele><time>2026-04-11T14:44:31.069Z</time></trkpt><trkpt lat="45.7214434" lon="12.071082"><ele>65.0</ele><time>2026-04-11T14:44:32.076Z</time></trkpt><trkpt lat="45.721454" lon="12.0712942"><ele>65.0</ele><time>2026-04-11T14:44:33.072Z</time></trkpt><trkpt lat="45.7214645" lon="12.0714665"><ele>65.0</ele><time>2026-04-11T14:44:34.077Z</time></trkpt><trkpt lat="45.7214809" lon="12.0716085"><ele>65.0</ele><time>2026-04-11T14:44:35.072Z</time></trkpt><trkpt lat="45.7215117" lon="12.0717143"><ele>65.0</ele><time>2026-04-11T14:44:36.069Z</time></trkpt><trkpt lat="45.7215578" lon="12.0717915"><ele>65.0</ele><time>2026-04-11T14:44:37.069Z</time></trkpt><trkpt lat="45.7216235" lon="12.0718374"><ele>65.0</ele><time>2026-04-11T14:44:38.075Z</time></trkpt><trkpt lat="45.7217055" lon="12.0718536"><ele>64.75</ele><time>2026-04-11T14:44:39.078Z</time></trkpt><trkpt lat="45.7218026" lon="12.0718342"><ele>64.5</ele><time>2026-04-11T14:44:40.079Z</time></trkpt><trkpt lat="45.7219176" lon="12.0717916"><ele>64.25</ele><time>2026-04-11T14:44:41.076Z</time></trkpt><trkpt lat="45.7220551" lon="12.0717426"><ele>64.0</ele><time>2026-04-11T14:44:42.073Z</time></trkpt><trkpt lat="45.7222128" lon="12.0716824"><ele>64.0</ele><time>2026-04-11T14:44:43.067Z</time></trkpt><trkpt lat="45.7223846" lon="12.0716129"><ele>64.0</ele><time>2026-04-11T14:44:44.074Z</time></trkpt><trkpt lat="45.7225607" lon="12.0715383"><ele>64.0</ele><time>2026-04-11T14:44:45.071Z</time></trkpt><trkpt lat="45.722749" lon="12.0714605"><ele>63.666666666666664</ele><time>2026-04-11T14:44:46.076Z</time></trkpt><trkpt lat="45.7229418" lon="12.0713835"><ele>63.33333333333333</ele><time>2026-04-11T14:44:47.068Z</time></trkpt><trkpt lat="45.723136" lon="12.0713078"><ele>63.0</ele><time>2026-04-11T14:44:48.071Z</time></trkpt><trkpt lat="45.7233327" lon="12.0712354"><ele>63.0</ele><time>2026-04-11T14:44:49.07Z</time></trkpt><trkpt lat="45.7235322" lon="12.0711628"><ele>63.0</ele><time>2026-04-11T14:44:50.071Z</time></trkpt><trkpt lat="45.7237353" lon="12.0710841"><ele>63.0</ele><time>2026-04-11T14:44:51.069Z</time></trkpt><trkpt lat="45.7239406" lon="12.0710062"><ele>64.0</ele><time>2026-04-11T14:44:52.071Z</time></trkpt><trkpt lat="45.7241484" lon="12.0709253"><ele>65.0</ele><time>2026-04-11T14:44:53.071Z</time></trkpt><trkpt lat="45.7243576" lon="12.0708452"><ele>66.0</ele><time>2026-04-11T14:44:54.07Z</time></trkpt><trkpt lat="45.7245667" lon="12.0707659"><ele>66.33333333333333</ele><time>2026-04-11T14:44:55.078Z</time></trkpt><trkpt lat="45.724776" lon="12.0706868"><ele>66.66666666666666</ele><time>2026-04-11T14:44:56.072Z</time></trkpt><trkpt lat="45.7249857" lon="12.0706071"><ele>67.0</ele><time>2026-04-11T14:44:57.073Z</time></trkpt><trkpt lat="45.7251946" lon="12.0705298"><ele>67.33333333333333</ele><time>2026-04-11T14:44:58.072Z</time></trkpt><trkpt lat="45.7254019" lon="12.0704498"><ele>67.66666666666667</ele><time>2026-04-11T14:44:59.075Z</time></trkpt><trkpt lat="45.7256077" lon="12.0703708"><ele>68.0</ele><time>2026-04-11T14:45:00.068Z</time></trkpt><trkpt lat="45.7258141" lon="12.0702917"><ele>68.0</ele><time>2026-04-11T14:45:01.07Z</time></trkpt><trkpt lat="45.7260219" lon="12.0702143"><ele>68.0</ele><time>2026-04-11T14:45:02.078Z</time></trkpt><trkpt lat="45.7262283" lon="12.0701364"><ele>68.0</ele><time>2026-04-11T14:45:03.072Z</time></trkpt><trkpt lat="45.7264375" lon="12.0700558"><ele>68.0</ele><time>2026-04-11T14:45:04.075Z</time></trkpt><trkpt lat="45.726647" lon="12.0699768"><ele>68.0</ele><time>2026-04-11T14:45:05.074Z</time></trkpt><trkpt lat="45.7268569" lon="12.0698978"><ele>68.0</ele><time>2026-04-11T14:45:06.076Z</time></trkpt><trkpt lat="45.7270673" lon="12.0698184"><ele>68.0</ele><time>2026-04-11T14:45:07.075Z</time></trkpt><trkpt lat="45.7272777" lon="12.0697403"><ele>68.0</ele><time>2026-04-11T14:45:08.073Z</time></trkpt><trkpt lat="45.727487" lon="12.0696603"><ele>68.0</ele><time>2026-04-11T14:45:09.07Z</time></trkpt><trkpt lat="45.7276954" lon="12.06958"><ele>68.33333333333334</ele><time>2026-04-11T14:45:10.073Z</time></trkpt><trkpt lat="45.7279018" lon="12.0695014"><ele>68.66666666666667</ele><time>2026-04-11T14:45:11.073Z</time></trkpt><trkpt lat="45.7281069" lon="12.0694233"><ele>69.0</ele><time>2026-04-11T14:45:12.074Z</time></trkpt><trkpt lat="45.7283106" lon="12.0693444"><ele>69.0</ele><time>2026-04-11T14:45:13.077Z</time></trkpt><trkpt lat="45.7285131" lon="12.0692657"><ele>69.0</ele><time>2026-04-11T14:45:14.075Z</time></trkpt><trkpt lat="45.7287153" lon="12.0691866"><ele>69.0</ele><time>2026-04-11T14:45:15.072Z</time></trkpt><trkpt lat="45.7289123" lon="12.0691089"><ele>69.33333333333333</ele><time>2026-04-11T14:45:16.074Z</time></trkpt><trkpt lat="45.7290966" lon="12.0690384"><ele>69.66666666666666</ele><time>2026-04-11T14:45:17.07Z</time></trkpt><trkpt lat="45.7292805" lon="12.0689678"><ele>70.0</ele><time>2026-04-11T14:45:18.069Z</time></trkpt><trkpt lat="45.7294559" lon="12.0689009"><ele>69.33333333333333</ele><time>2026-04-11T14:45:19.078Z</time></trkpt><trkpt lat="45.729628" lon="12.0688348"><ele>68.66666666666667</ele><time>2026-04-11T14:45:20.073Z</time></trkpt><trkpt lat="45.7297977" lon="12.0687715"><ele>68.0</ele><time>2026-04-11T14:45:21.07Z</time></trkpt><trkpt lat="45.7299665" lon="12.0687137"><ele>68.0</ele><time>2026-04-11T14:45:22.07Z</time></trkpt><trkpt lat="45.7301253" lon="12.0686717"><ele>68.0</ele><time>2026-04-11T14:45:23.074Z</time></trkpt><trkpt lat="45.7302808" lon="12.0686439"><ele>68.0</ele><time>2026-04-11T14:45:24.072Z</time></trkpt><trkpt lat="45.7304223" lon="12.0686349"><ele>68.25</ele><time>2026-04-11T14:45:25.077Z</time></trkpt><trkpt lat="45.7305493" lon="12.0686466"><ele>68.5</ele><time>2026-04-11T14:45:26.07Z</time></trkpt><trkpt lat="45.7306618" lon="12.0686864"><ele>68.75</ele><time>2026-04-11T14:45:27.071Z</time></trkpt><trkpt lat="45.7307593" lon="12.0687555"><ele>69.0</ele><time>2026-04-11T14:45:28.072Z</time></trkpt><trkpt lat="45.7308442" lon="12.0688567"><ele>69.0</ele><time>2026-04-11T14:45:29.069Z</time></trkpt><trkpt lat="45.7309115" lon="12.068986"><ele>69.0</ele><time>2026-04-11T14:45:30.073Z</time></trkpt><trkpt lat="45.7309686" lon="12.0691404"><ele>69.0</ele><time>2026-04-11T14:45:31.081Z</time></trkpt><trkpt lat="45.7310186" lon="12.0693149"><ele>69.0</ele><time>2026-04-11T14:45:32.076Z</time></trkpt><trkpt lat="45.7310667" lon="12.0694986"><ele>69.33333333333333</ele><time>2026-04-11T14:45:33.07Z</time></trkpt><trkpt lat="45.7311072" lon="12.0696654"><ele>69.66666666666667</ele><time>2026-04-11T14:45:34.072Z</time></trkpt><trkpt lat="45.731134" lon="12.0697947"><ele>70.0</ele><time>2026-04-11T14:45:35.075Z</time></trkpt><trkpt lat="45.7311527" lon="12.0698879"><ele>70.33333333333334</ele><time>2026-04-11T14:45:36.07Z</time></trkpt><trkpt lat="45.7311807" lon="12.069985"><ele>70.66666666666667</ele><time>2026-04-11T14:45:39.072Z</time></trkpt><trkpt lat="45.7312406" lon="12.0700278"><ele>71.0</ele><time>2026-04-11T14:45:41.074Z</time></trkpt><trkpt lat="45.7313897" lon="12.0700013"><ele>71.0</ele><time>2026-04-11T14:45:43.074Z</time></trkpt><trkpt lat="45.7314981" lon="12.0699621"><ele>71.0</ele><time>2026-04-11T14:45:44.071Z</time></trkpt><trkpt lat="45.731614" lon="12.0699195"><ele>71.0</ele><time>2026-04-11T14:45:45.075Z</time></trkpt><trkpt lat="45.7317441" lon="12.06987"><ele>71.0</ele><time>2026-04-11T14:45:46.069Z</time></trkpt><trkpt lat="45.7318883" lon="12.0698132"><ele>71.66666666666667</ele><time>2026-04-11T14:45:47.073Z</time></trkpt><trkpt lat="45.7320432" lon="12.0697547"><ele>72.33333333333333</ele><time>2026-04-11T14:45:48.073Z</time></trkpt><trkpt lat="45.7322044" lon="12.0696929"><ele>73.0</ele><time>2026-04-11T14:45:49.07Z</time></trkpt><trkpt lat="45.7323667" lon="12.0696318"><ele>73.0</ele><time>2026-04-11T14:45:50.076Z</time></trkpt><trkpt lat="45.7325266" lon="12.0695724"><ele>73.0</ele><time>2026-04-11T14:45:51.071Z</time></trkpt><trkpt lat="45.7326733" lon="12.0695177"><ele>73.0</ele><time>2026-04-11T14:45:52.074Z</time></trkpt><trkpt lat="45.73281" lon="12.0694656"><ele>72.75</ele><time>2026-04-11T14:45:53.071Z</time></trkpt><trkpt lat="45.7329368" lon="12.069416"><ele>72.5</ele><time>2026-04-11T14:45:54.068Z</time></trkpt><trkpt lat="45.733052" lon="12.0693699"><ele>72.25</ele><time>2026-04-11T14:45:55.072Z</time></trkpt><trkpt lat="45.7331601" lon="12.0693266"><ele>72.0</ele><time>2026-04-11T14:45:56.076Z</time></trkpt><trkpt lat="45.7332729" lon="12.0692799"><ele>72.0</ele><time>2026-04-11T14:45:57.075Z</time></trkpt><trkpt lat="45.7333773" lon="12.0692346"><ele>72.0</ele><time>2026-04-11T14:45:58.07Z</time></trkpt><trkpt lat="45.7334728" lon="12.0691951"><ele>72.0</ele><time>2026-04-11T14:45:59.075Z</time></trkpt><trkpt lat="45.7335461" lon="12.0691708"><ele>72.0</ele><time>2026-04-11T14:46:00.07Z</time></trkpt><trkpt lat="45.7336136" lon="12.0691466"><ele>72.0</ele><time>2026-04-11T14:46:02.072Z</time></trkpt><trkpt lat="45.7337258" lon="12.0690533"><ele>72.4</ele><time>2026-04-11T14:48:01.075Z</time></trkpt><trkpt lat="45.7338068" lon="12.0690199"><ele>72.80000000000001</ele><time>2026-04-11T14:48:02.068Z</time></trkpt><trkpt lat="45.7339026" lon="12.0689791"><ele>73.2</ele><time>2026-04-11T14:48:03.064Z</time></trkpt><trkpt lat="45.7340163" lon="12.0689276"><ele>73.60000000000001</ele><time>2026-04-11T14:48:04.07Z</time></trkpt><trkpt lat="45.7341394" lon="12.0688686"><ele>74.0</ele><time>2026-04-11T14:48:05.071Z</time></trkpt><trkpt lat="45.7342742" lon="12.0688052"><ele>74.0</ele><time>2026-04-11T14:48:06.075Z</time></trkpt><trkpt lat="45.7344164" lon="12.0687394"><ele>74.0</ele><time>2026-04-11T14:48:07.072Z</time></trkpt><trkpt lat="45.7345673" lon="12.0686731"><ele>74.0</ele><time>2026-04-11T14:48:08.074Z</time></trkpt><trkpt lat="45.7347246" lon="12.0686006"><ele>74.0</ele><time>2026-04-11T14:48:09.074Z</time></trkpt><trkpt lat="45.7348763" lon="12.0685283"><ele>74.0</ele><time>2026-04-11T14:48:10.074Z</time></trkpt><trkpt lat="45.7350216" lon="12.0684502"><ele>74.0</ele><time>2026-04-11T14:48:11.075Z</time></trkpt><trkpt lat="45.7351615" lon="12.068363"><ele>74.0</ele><time>2026-04-11T14:48:12.075Z</time></trkpt><trkpt lat="45.7352964" lon="12.0682655"><ele>74.0</ele><time>2026-04-11T14:48:13.076Z</time></trkpt><trkpt lat="45.7354311" lon="12.0681627"><ele>74.0</ele><time>2026-04-11T14:48:14.073Z</time></trkpt><trkpt lat="45.7355647" lon="12.0680608"><ele>74.0</ele><time>2026-04-11T14:48:15.068Z</time></trkpt><trkpt lat="45.735698" lon="12.0679572"><ele>74.0</ele><time>2026-04-11T14:48:16.075Z</time></trkpt><trkpt lat="45.7358325" lon="12.0678548"><ele>74.0</ele><time>2026-04-11T14:48:17.077Z</time></trkpt><trkpt lat="45.735962" lon="12.0677566"><ele>74.25</ele><time>2026-04-11T14:48:18.074Z</time></trkpt><trkpt lat="45.7360954" lon="12.0676571"><ele>74.5</ele><time>2026-04-11T14:48:19.083Z</time></trkpt><trkpt lat="45.7362264" lon="12.0675668"><ele>74.75</ele><time>2026-04-11T14:48:20.073Z</time></trkpt><trkpt lat="45.7363561" lon="12.067476"><ele>75.0</ele><time>2026-04-11T14:48:21.075Z</time></trkpt><trkpt lat="45.7364803" lon="12.067406"><ele>75.2</ele><time>2026-04-11T14:48:22.068Z</time></trkpt><trkpt lat="45.7365965" lon="12.0673573"><ele>75.4</ele><time>2026-04-11T14:48:23.068Z</time></trkpt><trkpt lat="45.7367061" lon="12.0673153"><ele>75.6</ele><time>2026-04-11T14:48:24.071Z</time></trkpt><trkpt lat="45.7368088" lon="12.0672785"><ele>75.8</ele><time>2026-04-11T14:48:25.067Z</time></trkpt><trkpt lat="45.7368971" lon="12.0672523"><ele>76.0</ele><time>2026-04-11T14:48:26.073Z</time></trkpt><trkpt lat="45.736979" lon="12.0672371"><ele>76.0</ele><time>2026-04-11T14:48:27.076Z</time></trkpt><trkpt lat="45.7370427" lon="12.0672436"><ele>76.0</ele><time>2026-04-11T14:48:28.072Z</time></trkpt><trkpt lat="45.7371572" lon="12.0672986"><ele>76.0</ele><time>2026-04-11T14:48:30.072Z</time></trkpt><trkpt lat="45.7372266" lon="12.0673632"><ele>76.0</ele><time>2026-04-11T14:48:31.07Z</time></trkpt><trkpt lat="45.7373021" lon="12.0674502"><ele>76.0</ele><time>2026-04-11T14:48:32.077Z</time></trkpt><trkpt lat="45.7373842" lon="12.067555"><ele>76.0</ele><time>2026-04-11T14:48:33.076Z</time></trkpt><trkpt lat="45.7374664" lon="12.0676741"><ele>76.0</ele><time>2026-04-11T14:48:34.073Z</time></trkpt><trkpt lat="45.7375549" lon="12.0678156"><ele>76.0</ele><time>2026-04-11T14:48:35.079Z</time></trkpt><trkpt lat="45.7376453" lon="12.0679711"><ele>76.0</ele><time>2026-04-11T14:48:36.072Z</time></trkpt><trkpt lat="45.7377389" lon="12.0681435"><ele>76.0</ele><time>2026-04-11T14:48:37.073Z</time></trkpt><trkpt lat="45.7378275" lon="12.0683229"><ele>76.0</ele><time>2026-04-11T14:48:38.068Z</time></trkpt><trkpt lat="45.7379099" lon="12.068515"><ele>76.0</ele><time>2026-04-11T14:48:39.068Z</time></trkpt><trkpt lat="45.7379868" lon="12.0687198"><ele>76.0</ele><time>2026-04-11T14:48:40.072Z</time></trkpt><trkpt lat="45.7380559" lon="12.0689353"><ele>76.0</ele><time>2026-04-11T14:48:41.077Z</time></trkpt><trkpt lat="45.738119" lon="12.0691587"><ele>76.0</ele><time>2026-04-11T14:48:42.073Z</time></trkpt><trkpt lat="45.7381783" lon="12.0693875"><ele>76.33333333333333</ele><time>2026-04-11T14:48:43.075Z</time></trkpt><trkpt lat="45.7382392" lon="12.0696165"><ele>76.66666666666667</ele><time>2026-04-11T14:48:44.073Z</time></trkpt><trkpt lat="45.7383002" lon="12.0698488"><ele>77.0</ele><time>2026-04-11T14:48:45.076Z</time></trkpt><trkpt lat="45.7383571" lon="12.0700761"><ele>77.0</ele><time>2026-04-11T14:48:46.068Z</time></trkpt><trkpt lat="45.7384133" lon="12.0702973"><ele>77.0</ele><time>2026-04-11T14:48:47.076Z</time></trkpt><trkpt lat="45.7384654" lon="12.0705044"><ele>77.0</ele><time>2026-04-11T14:48:48.077Z</time></trkpt><trkpt lat="45.7385135" lon="12.0706967"><ele>77.5</ele><time>2026-04-11T14:48:49.072Z</time></trkpt><trkpt lat="45.7385572" lon="12.0708735"><ele>78.0</ele><time>2026-04-11T14:48:50.07Z</time></trkpt><trkpt lat="45.738596" lon="12.0710303"><ele>78.5</ele><time>2026-04-11T14:48:51.074Z</time></trkpt><trkpt lat="45.73863" lon="12.0711751"><ele>79.0</ele><time>2026-04-11T14:48:52.076Z</time></trkpt><trkpt lat="45.7386638" lon="12.0713294"><ele>79.0</ele><time>2026-04-11T14:48:53.081Z</time></trkpt><trkpt lat="45.7386981" lon="12.0714947"><ele>79.0</ele><time>2026-04-11T14:48:54.072Z</time></trkpt><trkpt lat="45.7387295" lon="12.0716716"><ele>79.0</ele><time>2026-04-11T14:48:55.075Z</time></trkpt><trkpt lat="45.7387575" lon="12.0718548"><ele>79.0</ele><time>2026-04-11T14:48:56.074Z</time></trkpt><trkpt lat="45.7387818" lon="12.072034"><ele>78.75</ele><time>2026-04-11T14:48:57.082Z</time></trkpt><trkpt lat="45.7388023" lon="12.0722201"><ele>78.5</ele><time>2026-04-11T14:48:58.072Z</time></trkpt><trkpt lat="45.7388219" lon="12.0724075"><ele>78.25</ele><time>2026-04-11T14:48:59.078Z</time></trkpt><trkpt lat="45.7388427" lon="12.0725956"><ele>78.0</ele><time>2026-04-11T14:49:00.071Z</time></trkpt><trkpt lat="45.7388648" lon="12.0727908"><ele>78.0</ele><time>2026-04-11T14:49:01.067Z</time></trkpt><trkpt lat="45.7388877" lon="12.0729912"><ele>78.0</ele><time>2026-04-11T14:49:02.08Z</time></trkpt><trkpt lat="45.7389132" lon="12.0731957"><ele>78.0</ele><time>2026-04-11T14:49:03.074Z</time></trkpt><trkpt lat="45.7389376" lon="12.0733884"><ele>78.0</ele><time>2026-04-11T14:49:04.071Z</time></trkpt><trkpt lat="45.7389596" lon="12.0735674"><ele>78.0</ele><time>2026-04-11T14:49:05.072Z</time></trkpt><trkpt lat="45.7389809" lon="12.0737535"><ele>78.0</ele><time>2026-04-11T14:49:06.081Z</time></trkpt><trkpt lat="45.7390031" lon="12.0739457"><ele>78.0</ele><time>2026-04-11T14:49:07.071Z</time></trkpt><trkpt lat="45.7390283" lon="12.0741392"><ele>78.0</ele><time>2026-04-11T14:49:08.072Z</time></trkpt><trkpt lat="45.7390554" lon="12.0743319"><ele>77.5</ele><time>2026-04-11T14:49:09.07Z</time></trkpt><trkpt lat="45.7390868" lon="12.0745268"><ele>77.0</ele><time>2026-04-11T14:49:10.068Z</time></trkpt><trkpt lat="45.739122" lon="12.0747244"><ele>76.5</ele><time>2026-04-11T14:49:11.07Z</time></trkpt><trkpt lat="45.7391625" lon="12.0749207"><ele>76.0</ele><time>2026-04-11T14:49:12.076Z</time></trkpt><trkpt lat="45.7392062" lon="12.0751099"><ele>76.0</ele><time>2026-04-11T14:49:13.075Z</time></trkpt><trkpt lat="45.7392506" lon="12.0752967"><ele>76.0</ele><time>2026-04-11T14:49:14.075Z</time></trkpt><trkpt lat="45.7392977" lon="12.0754825"><ele>76.0</ele><time>2026-04-11T14:49:15.073Z</time></trkpt><trkpt lat="45.7393415" lon="12.0756541"><ele>76.0</ele><time>2026-04-11T14:49:16.071Z</time></trkpt><trkpt lat="45.7393817" lon="12.075817"><ele>75.75</ele><time>2026-04-11T14:49:17.074Z</time></trkpt><trkpt lat="45.739424" lon="12.0759836"><ele>75.5</ele><time>2026-04-11T14:49:18.072Z</time></trkpt><trkpt lat="45.739465" lon="12.0761434"><ele>75.25</ele><time>2026-04-11T14:49:19.068Z</time></trkpt><trkpt lat="45.739504" lon="12.0762978"><ele>75.0</ele><time>2026-04-11T14:49:20.073Z</time></trkpt><trkpt lat="45.7395424" lon="12.0764535"><ele>75.25</ele><time>2026-04-11T14:49:21.07Z</time></trkpt><trkpt lat="45.7395844" lon="12.0766235"><ele>75.5</ele><time>2026-04-11T14:49:22.074Z</time></trkpt><trkpt lat="45.7396279" lon="12.0768128"><ele>75.75</ele><time>2026-04-11T14:49:23.077Z</time></trkpt><trkpt lat="45.7396698" lon="12.0770145"><ele>76.0</ele><time>2026-04-11T14:49:24.07Z</time></trkpt><trkpt lat="45.7397018" lon="12.0772137"><ele>76.0</ele><time>2026-04-11T14:49:25.071Z</time></trkpt><trkpt lat="45.7397211" lon="12.0774143"><ele>76.0</ele><time>2026-04-11T14:49:26.078Z</time></trkpt><trkpt lat="45.739728" lon="12.077603"><ele>76.0</ele><time>2026-04-11T14:49:27.073Z</time></trkpt><trkpt lat="45.7397277" lon="12.0777904"><ele>76.0</ele><time>2026-04-11T14:49:28.079Z</time></trkpt><trkpt lat="45.7397216" lon="12.0779825"><ele>76.25</ele><time>2026-04-11T14:49:29.068Z</time></trkpt><trkpt lat="45.7397168" lon="12.0781639"><ele>76.5</ele><time>2026-04-11T14:49:30.077Z</time></trkpt><trkpt lat="45.7397143" lon="12.0783495"><ele>76.75</ele><time>2026-04-11T14:49:31.073Z</time></trkpt><trkpt lat="45.7397124" lon="12.0785383"><ele>77.0</ele><time>2026-04-11T14:49:32.072Z</time></trkpt><trkpt lat="45.7397109" lon="12.0787144"><ele>77.25</ele><time>2026-04-11T14:49:33.072Z</time></trkpt><trkpt lat="45.7397115" lon="12.0788876"><ele>77.5</ele><time>2026-04-11T14:49:34.073Z</time></trkpt><trkpt lat="45.7397113" lon="12.0790647"><ele>77.75</ele><time>2026-04-11T14:49:35.07Z</time></trkpt><trkpt lat="45.7397116" lon="12.0792475"><ele>78.0</ele><time>2026-04-11T14:49:36.071Z</time></trkpt><trkpt lat="45.7397153" lon="12.0794199"><ele>78.0</ele><time>2026-04-11T14:49:37.073Z</time></trkpt><trkpt lat="45.7397247" lon="12.079587"><ele>78.0</ele><time>2026-04-11T14:49:38.073Z</time></trkpt><trkpt lat="45.7397439" lon="12.0797607"><ele>78.0</ele><time>2026-04-11T14:49:39.076Z</time></trkpt><trkpt lat="45.7397712" lon="12.0799379"><ele>78.0</ele><time>2026-04-11T14:49:40.072Z</time></trkpt><trkpt lat="45.7397998" lon="12.0801036"><ele>78.0</ele><time>2026-04-11T14:49:41.068Z</time></trkpt><trkpt lat="45.739829" lon="12.0802674"><ele>78.0</ele><time>2026-04-11T14:49:42.069Z</time></trkpt><trkpt lat="45.739861" lon="12.0804357"><ele>78.0</ele><time>2026-04-11T14:49:43.074Z</time></trkpt><trkpt lat="45.7398961" lon="12.0806041"><ele>78.0</ele><time>2026-04-11T14:49:44.072Z</time></trkpt><trkpt lat="45.7399314" lon="12.0807662"><ele>78.0</ele><time>2026-04-11T14:49:45.071Z</time></trkpt><trkpt lat="45.7399667" lon="12.0809325"><ele>78.0</ele><time>2026-04-11T14:49:46.079Z</time></trkpt><trkpt lat="45.7400026" lon="12.0811001"><ele>78.0</ele><time>2026-04-11T14:49:47.074Z</time></trkpt><trkpt lat="45.7400406" lon="12.081273"><ele>78.0</ele><time>2026-04-11T14:49:48.071Z</time></trkpt><trkpt lat="45.7400782" lon="12.0814456"><ele>78.25</ele><time>2026-04-11T14:49:49.073Z</time></trkpt><trkpt lat="45.7401152" lon="12.0816209"><ele>78.5</ele><time>2026-04-11T14:49:50.072Z</time></trkpt><trkpt lat="45.7401546" lon="12.081798"><ele>78.75</ele><time>2026-04-11T14:49:51.068Z</time></trkpt><trkpt lat="45.7401964" lon="12.081971"><ele>79.0</ele><time>2026-04-11T14:49:52.074Z</time></trkpt><trkpt lat="45.7402325" lon="12.0821519"><ele>79.0</ele><time>2026-04-11T14:49:53.072Z</time></trkpt><trkpt lat="45.7402646" lon="12.08233"><ele>79.0</ele><time>2026-04-11T14:49:54.081Z</time></trkpt><trkpt lat="45.7403013" lon="12.0824941"><ele>79.0</ele><time>2026-04-11T14:49:55.068Z</time></trkpt><trkpt lat="45.7403344" lon="12.0826594"><ele>79.0</ele><time>2026-04-11T14:49:56.074Z</time></trkpt><trkpt lat="45.7403751" lon="12.0828251"><ele>78.75</ele><time>2026-04-11T14:49:57.07Z</time></trkpt><trkpt lat="45.7404164" lon="12.0829816"><ele>78.5</ele><time>2026-04-11T14:49:58.07Z</time></trkpt><trkpt lat="45.740459" lon="12.083133"><ele>78.25</ele><time>2026-04-11T14:49:59.075Z</time></trkpt><trkpt lat="45.7405063" lon="12.0832849"><ele>78.0</ele><time>2026-04-11T14:50:00.065Z</time></trkpt><trkpt lat="45.7405578" lon="12.0834369"><ele>78.0</ele><time>2026-04-11T14:50:01.074Z</time></trkpt><trkpt lat="45.7406104" lon="12.0835833"><ele>78.0</ele><time>2026-04-11T14:50:02.074Z</time></trkpt><trkpt lat="45.7406671" lon="12.0837322"><ele>78.0</ele><time>2026-04-11T14:50:03.072Z</time></trkpt><trkpt lat="45.7407264" lon="12.0838823"><ele>78.0</ele><time>2026-04-11T14:50:04.073Z</time></trkpt><trkpt lat="45.7407907" lon="12.0840312"><ele>78.25</ele><time>2026-04-11T14:50:05.077Z</time></trkpt><trkpt lat="45.7408575" lon="12.0841798"><ele>78.5</ele><time>2026-04-11T14:50:06.071Z</time></trkpt><trkpt lat="45.7409244" lon="12.0843296"><ele>78.75</ele><time>2026-04-11T14:50:07.071Z</time></trkpt><trkpt lat="45.7409915" lon="12.0844783"><ele>79.0</ele><time>2026-04-11T14:50:08.072Z</time></trkpt><trkpt lat="45.7410544" lon="12.0846215"><ele>79.0</ele><time>2026-04-11T14:50:09.072Z</time></trkpt><trkpt lat="45.7411164" lon="12.0847632"><ele>79.0</ele><time>2026-04-11T14:50:10.07Z</time></trkpt><trkpt lat="45.7411808" lon="12.0849065"><ele>79.0</ele><time>2026-04-11T14:50:11.075Z</time></trkpt><trkpt lat="45.7412494" lon="12.085054"><ele>79.0</ele><time>2026-04-11T14:50:12.075Z</time></trkpt><trkpt lat="45.7413183" lon="12.0852"><ele>79.25</ele><time>2026-04-11T14:50:13.074Z</time></trkpt><trkpt lat="45.7413859" lon="12.085343"><ele>79.5</ele><time>2026-04-11T14:50:14.074Z</time></trkpt><trkpt lat="45.7414537" lon="12.0854894"><ele>79.75</ele><time>2026-04-11T14:50:15.07Z</time></trkpt><trkpt lat="45.7415213" lon="12.0856372"><ele>80.0</ele><time>2026-04-11T14:50:16.067Z</time></trkpt><trkpt lat="45.7415909" lon="12.0857844"><ele>80.0</ele><time>2026-04-11T14:50:17.075Z</time></trkpt><trkpt lat="45.741662" lon="12.0859304"><ele>80.0</ele><time>2026-04-11T14:50:18.073Z</time></trkpt><trkpt lat="45.7417344" lon="12.0860724"><ele>80.0</ele><time>2026-04-11T14:50:19.069Z</time></trkpt><trkpt lat="45.7418072" lon="12.0862184"><ele>80.0</ele><time>2026-04-11T14:50:20.067Z</time></trkpt><trkpt lat="45.741878" lon="12.0863688"><ele>80.5</ele><time>2026-04-11T14:50:21.072Z</time></trkpt><trkpt lat="45.7419421" lon="12.086525"><ele>81.0</ele><time>2026-04-11T14:50:22.074Z</time></trkpt><trkpt lat="45.7419989" lon="12.0866806"><ele>81.5</ele><time>2026-04-11T14:50:23.07Z</time></trkpt><trkpt lat="45.7420503" lon="12.0868373"><ele>82.0</ele><time>2026-04-11T14:50:24.072Z</time></trkpt><trkpt lat="45.7420974" lon="12.0869894"><ele>82.19999999999999</ele><time>2026-04-11T14:50:25.073Z</time></trkpt><trkpt lat="45.7421413" lon="12.0871359"><ele>82.4</ele><time>2026-04-11T14:50:26.073Z</time></trkpt><trkpt lat="45.7421796" lon="12.0872785"><ele>82.6</ele><time>2026-04-11T14:50:27.067Z</time></trkpt><trkpt lat="45.7422164" lon="12.0874249"><ele>82.80000000000001</ele><time>2026-04-11T14:50:28.075Z</time></trkpt><trkpt lat="45.7422489" lon="12.0875616"><ele>83.0</ele><time>2026-04-11T14:50:29.071Z</time></trkpt><trkpt lat="45.7422779" lon="12.0877097"><ele>82.5</ele><time>2026-04-11T14:50:30.075Z</time></trkpt><trkpt lat="45.7423033" lon="12.0878692"><ele>82.0</ele><time>2026-04-11T14:50:31.076Z</time></trkpt><trkpt lat="45.7423247" lon="12.0880326"><ele>81.5</ele><time>2026-04-11T14:50:32.073Z</time></trkpt><trkpt lat="45.742345" lon="12.0881961"><ele>81.0</ele><time>2026-04-11T14:50:33.077Z</time></trkpt><trkpt lat="45.7423647" lon="12.0883563"><ele>80.75</ele><time>2026-04-11T14:50:34.082Z</time></trkpt><trkpt lat="45.7423829" lon="12.0885163"><ele>80.5</ele><time>2026-04-11T14:50:35.069Z</time></trkpt><trkpt lat="45.7424037" lon="12.0886832"><ele>80.25</ele><time>2026-04-11T14:50:36.072Z</time></trkpt><trkpt lat="45.7424255" lon="12.0888556"><ele>80.0</ele><time>2026-04-11T14:50:37.077Z</time></trkpt><trkpt lat="45.7424497" lon="12.0890333"><ele>80.0</ele><time>2026-04-11T14:50:38.072Z</time></trkpt><trkpt lat="45.7424742" lon="12.0891943"><ele>80.0</ele><time>2026-04-11T14:50:39.077Z</time></trkpt><trkpt lat="45.7425053" lon="12.0893583"><ele>80.0</ele><time>2026-04-11T14:50:40.071Z</time></trkpt><trkpt lat="45.7425362" lon="12.089509"><ele>80.0</ele><time>2026-04-11T14:50:41.078Z</time></trkpt><trkpt lat="45.7425666" lon="12.0896379"><ele>80.0</ele><time>2026-04-11T14:50:42.079Z</time></trkpt><trkpt lat="45.742594" lon="12.0897393"><ele>80.0</ele><time>2026-04-11T14:50:43.073Z</time></trkpt><trkpt lat="45.742633" lon="12.0898881"><ele>80.0</ele><time>2026-04-11T14:50:45.071Z</time></trkpt><trkpt lat="45.7426685" lon="12.0900291"><ele>80.0</ele><time>2026-04-11T14:50:47.068Z</time></trkpt><trkpt lat="45.7427038" lon="12.0901616"><ele>80.0</ele><time>2026-04-11T14:50:48.068Z</time></trkpt><trkpt lat="45.742751" lon="12.0903349"><ele>80.0</ele><time>2026-04-11T14:50:49.079Z</time></trkpt><trkpt lat="45.7428097" lon="12.0905448"><ele>79.66666666666667</ele><time>2026-04-11T14:50:50.073Z</time></trkpt><trkpt lat="45.7428747" lon="12.0907819"><ele>79.33333333333333</ele><time>2026-04-11T14:50:51.068Z</time></trkpt><trkpt lat="45.7429478" lon="12.0910406"><ele>79.0</ele><time>2026-04-11T14:50:52.072Z</time></trkpt><trkpt lat="45.7430189" lon="12.0912843"><ele>79.0</ele><time>2026-04-11T14:50:53.073Z</time></trkpt><trkpt lat="45.7430793" lon="12.0915012"><ele>79.0</ele><time>2026-04-11T14:50:54.075Z</time></trkpt><trkpt lat="45.7431275" lon="12.0916685"><ele>79.0</ele><time>2026-04-11T14:50:55.069Z</time></trkpt><trkpt lat="45.7431607" lon="12.0917834"><ele>79.0</ele><time>2026-04-11T14:50:56.073Z</time></trkpt><trkpt lat="45.7431861" lon="12.091878"><ele>79.0</ele><time>2026-04-11T14:50:58.068Z</time></trkpt><trkpt lat="45.7432222" lon="12.0919843"><ele>79.16666666666666</ele><time>2026-04-11T14:51:06.081Z</time></trkpt><trkpt lat="45.7432623" lon="12.0920792"><ele>79.33333333333333</ele><time>2026-04-11T14:51:07.078Z</time></trkpt><trkpt lat="45.7433041" lon="12.092184"><ele>79.5</ele><time>2026-04-11T14:51:08.077Z</time></trkpt><trkpt lat="45.7433427" lon="12.092292"><ele>79.66666666666667</ele><time>2026-04-11T14:51:09.078Z</time></trkpt><trkpt lat="45.7433724" lon="12.0923902"><ele>79.83333333333334</ele><time>2026-04-11T14:51:10.069Z</time></trkpt><trkpt lat="45.7434063" lon="12.0924972"><ele>80.0</ele><time>2026-04-11T14:51:11.073Z</time></trkpt><trkpt lat="45.7434399" lon="12.0926105"><ele>80.0</ele><time>2026-04-11T14:51:12.077Z</time></trkpt><trkpt lat="45.7434762" lon="12.0927488"><ele>80.0</ele><time>2026-04-11T14:51:13.074Z</time></trkpt><trkpt lat="45.7435127" lon="12.0929262"><ele>80.0</ele><time>2026-04-11T14:51:14.077Z</time></trkpt><trkpt lat="45.7435443" lon="12.0931283"><ele>80.0</ele><time>2026-04-11T14:51:15.078Z</time></trkpt><trkpt lat="45.7435835" lon="12.0933366"><ele>80.33333333333334</ele><time>2026-04-11T14:51:16.067Z</time></trkpt><trkpt lat="45.7436322" lon="12.0935572"><ele>80.66666666666667</ele><time>2026-04-11T14:51:17.073Z</time></trkpt><trkpt lat="45.7436865" lon="12.0937785"><ele>81.0</ele><time>2026-04-11T14:51:18.079Z</time></trkpt><trkpt lat="45.7437447" lon="12.0940097"><ele>80.66666666666667</ele><time>2026-04-11T14:51:19.066Z</time></trkpt><trkpt lat="45.7438044" lon="12.0942417"><ele>80.33333333333334</ele><time>2026-04-11T14:51:20.079Z</time></trkpt><trkpt lat="45.7438684" lon="12.0944647"><ele>80.0</ele><time>2026-04-11T14:51:21.077Z</time></trkpt><trkpt lat="45.7439339" lon="12.094667"><ele>80.0</ele><time>2026-04-11T14:51:22.071Z</time></trkpt><trkpt lat="45.744004" lon="12.0948726"><ele>80.0</ele><time>2026-04-11T14:51:23.075Z</time></trkpt><trkpt lat="45.7440775" lon="12.0950743"><ele>80.0</ele><time>2026-04-11T14:51:24.076Z</time></trkpt><trkpt lat="45.7441563" lon="12.0952713"><ele>80.0</ele><time>2026-04-11T14:51:25.074Z</time></trkpt><trkpt lat="45.7442448" lon="12.0954682"><ele>80.0</ele><time>2026-04-11T14:51:26.075Z</time></trkpt><trkpt lat="45.7443377" lon="12.0956613"><ele>80.0</ele><time>2026-04-11T14:51:27.071Z</time></trkpt><trkpt lat="45.7444314" lon="12.0958471"><ele>80.33333333333334</ele><time>2026-04-11T14:51:28.069Z</time></trkpt><trkpt lat="45.7445284" lon="12.0960386"><ele>80.66666666666667</ele><time>2026-04-11T14:51:29.075Z</time></trkpt><trkpt lat="45.744626" lon="12.0962331"><ele>81.0</ele><time>2026-04-11T14:51:30.079Z</time></trkpt><trkpt lat="45.7447251" lon="12.0964283"><ele>80.66666666666667</ele><time>2026-04-11T14:51:31.071Z</time></trkpt><trkpt lat="45.7448227" lon="12.0966266"><ele>80.33333333333334</ele><time>2026-04-11T14:51:32.075Z</time></trkpt><trkpt lat="45.7449219" lon="12.0968281"><ele>80.0</ele><time>2026-04-11T14:51:33.074Z</time></trkpt><trkpt lat="45.7450212" lon="12.0970319"><ele>80.0</ele><time>2026-04-11T14:51:34.071Z</time></trkpt><trkpt lat="45.7451149" lon="12.0972494"><ele>80.0</ele><time>2026-04-11T14:51:35.071Z</time></trkpt><trkpt lat="45.7452024" lon="12.0974754"><ele>80.0</ele><time>2026-04-11T14:51:36.074Z</time></trkpt><trkpt lat="45.7452819" lon="12.0977131"><ele>80.0</ele><time>2026-04-11T14:51:37.073Z</time></trkpt><trkpt lat="45.7453622" lon="12.0979558"><ele>80.0</ele><time>2026-04-11T14:51:38.077Z</time></trkpt><trkpt lat="45.7454441" lon="12.0982022"><ele>80.0</ele><time>2026-04-11T14:51:39.072Z</time></trkpt><trkpt lat="45.7455271" lon="12.0984483"><ele>80.0</ele><time>2026-04-11T14:51:40.07Z</time></trkpt><trkpt lat="45.7456064" lon="12.0987004"><ele>80.0</ele><time>2026-04-11T14:51:41.079Z</time></trkpt><trkpt lat="45.7456912" lon="12.0989535"><ele>80.0</ele><time>2026-04-11T14:51:42.07Z</time></trkpt><trkpt lat="45.7457759" lon="12.0992114"><ele>80.33333333333334</ele><time>2026-04-11T14:51:43.076Z</time></trkpt><trkpt lat="45.7458595" lon="12.0994661"><ele>80.66666666666667</ele><time>2026-04-11T14:51:44.068Z</time></trkpt><trkpt lat="45.7459447" lon="12.0997181"><ele>81.0</ele><time>2026-04-11T14:51:45.076Z</time></trkpt><trkpt lat="45.7460288" lon="12.0999723"><ele>81.0</ele><time>2026-04-11T14:51:46.074Z</time></trkpt><trkpt lat="45.7461091" lon="12.1002267"><ele>81.0</ele><time>2026-04-11T14:51:47.071Z</time></trkpt><trkpt lat="45.7461825" lon="12.1004846"><ele>81.0</ele><time>2026-04-11T14:51:48.074Z</time></trkpt><trkpt lat="45.7462493" lon="12.1007437"><ele>81.33333333333333</ele><time>2026-04-11T14:51:49.071Z</time></trkpt><trkpt lat="45.746309" lon="12.1009898"><ele>81.66666666666666</ele><time>2026-04-11T14:51:50.079Z</time></trkpt><trkpt lat="45.7463665" lon="12.1012293"><ele>82.0</ele><time>2026-04-11T14:51:51.077Z</time></trkpt><trkpt lat="45.7464248" lon="12.1014729"><ele>80.66666666666666</ele><time>2026-04-11T14:51:52.076Z</time></trkpt><trkpt lat="45.746485" lon="12.1017176"><ele>79.33333333333333</ele><time>2026-04-11T14:51:53.078Z</time></trkpt><trkpt lat="45.7465457" lon="12.1019608"><ele>78.0</ele><time>2026-04-11T14:51:54.069Z</time></trkpt><trkpt lat="45.7466076" lon="12.1021994"><ele>78.33333333333333</ele><time>2026-04-11T14:51:55.074Z</time></trkpt><trkpt lat="45.746667" lon="12.1024305"><ele>78.66666666666666</ele><time>2026-04-11T14:51:56.072Z</time></trkpt><trkpt lat="45.7467274" lon="12.1026382"><ele>79.0</ele><time>2026-04-11T14:51:57.078Z</time></trkpt><trkpt lat="45.7467858" lon="12.1028163"><ele>79.0</ele><time>2026-04-11T14:51:58.07Z</time></trkpt><trkpt lat="45.7468442" lon="12.1029811"><ele>79.0</ele><time>2026-04-11T14:51:59.07Z</time></trkpt><trkpt lat="45.7469013" lon="12.1031304"><ele>79.0</ele><time>2026-04-11T14:52:00.066Z</time></trkpt><trkpt lat="45.7469513" lon="12.1032597"><ele>79.0</ele><time>2026-04-11T14:52:01.074Z</time></trkpt><trkpt lat="45.7469951" lon="12.1033781"><ele>79.0</ele><time>2026-04-11T14:52:02.072Z</time></trkpt><trkpt lat="45.7470347" lon="12.1034889"><ele>79.16666666666666</ele><time>2026-04-11T14:52:03.068Z</time></trkpt><trkpt lat="45.7470706" lon="12.103583"><ele>79.33333333333333</ele><time>2026-04-11T14:52:04.068Z</time></trkpt><trkpt lat="45.7471048" lon="12.1036629"><ele>79.5</ele><time>2026-04-11T14:52:05.074Z</time></trkpt><trkpt lat="45.7471661" lon="12.1038152"><ele>79.66666666666667</ele><time>2026-04-11T14:52:07.074Z</time></trkpt><trkpt lat="45.7472042" lon="12.1039168"><ele>79.83333333333334</ele><time>2026-04-11T14:52:08.071Z</time></trkpt><trkpt lat="45.747243" lon="12.1040179"><ele>80.0</ele><time>2026-04-11T14:52:09.073Z</time></trkpt><trkpt lat="45.7472835" lon="12.1041207"><ele>80.0</ele><time>2026-04-11T14:52:10.073Z</time></trkpt><trkpt lat="45.7473225" lon="12.1042233"><ele>80.0</ele><time>2026-04-11T14:52:11.071Z</time></trkpt><trkpt lat="45.7473626" lon="12.1043278"><ele>80.0</ele><time>2026-04-11T14:52:12.071Z</time></trkpt><trkpt lat="45.7474057" lon="12.1044437"><ele>80.0</ele><time>2026-04-11T14:52:13.071Z</time></trkpt><trkpt lat="45.7474489" lon="12.1045646"><ele>80.0</ele><time>2026-04-11T14:52:14.071Z</time></trkpt><trkpt lat="45.7474914" lon="12.1046904"><ele>80.0</ele><time>2026-04-11T14:52:15.07Z</time></trkpt><trkpt lat="45.7475384" lon="12.1048135"><ele>80.0</ele><time>2026-04-11T14:52:16.074Z</time></trkpt><trkpt lat="45.7475853" lon="12.1049316"><ele>80.0</ele><time>2026-04-11T14:52:17.078Z</time></trkpt><trkpt lat="45.7476348" lon="12.1050495"><ele>80.0</ele><time>2026-04-11T14:52:18.071Z</time></trkpt><trkpt lat="45.7476902" lon="12.1051719"><ele>80.0</ele><time>2026-04-11T14:52:19.068Z</time></trkpt><trkpt lat="45.7477462" lon="12.1052908"><ele>80.0</ele><time>2026-04-11T14:52:20.079Z</time></trkpt><trkpt lat="45.7477986" lon="12.1054032"><ele>80.0</ele><time>2026-04-11T14:52:21.065Z</time></trkpt><trkpt lat="45.7478502" lon="12.1055074"><ele>80.0</ele><time>2026-04-11T14:52:22.07Z</time></trkpt><trkpt lat="45.7478981" lon="12.1056028"><ele>80.0</ele><time>2026-04-11T14:52:23.072Z</time></trkpt><trkpt lat="45.7479448" lon="12.1056982"><ele>80.0</ele><time>2026-04-11T14:52:24.081Z</time></trkpt><trkpt lat="45.7479897" lon="12.1057835"><ele>80.0</ele><time>2026-04-11T14:52:25.075Z</time></trkpt><trkpt lat="45.7480364" lon="12.1058675"><ele>80.0</ele><time>2026-04-11T14:52:26.077Z</time></trkpt><trkpt lat="45.7480919" lon="12.1059628"><ele>80.25</ele><time>2026-04-11T14:52:27.074Z</time></trkpt><trkpt lat="45.7481595" lon="12.1060783"><ele>80.5</ele><time>2026-04-11T14:52:28.069Z</time></trkpt><trkpt lat="45.7482316" lon="12.1062175"><ele>80.75</ele><time>2026-04-11T14:52:29.066Z</time></trkpt><trkpt lat="45.7483077" lon="12.1063751"><ele>81.0</ele><time>2026-04-11T14:52:30.07Z</time></trkpt><trkpt lat="45.7483949" lon="12.1065482"><ele>81.0</ele><time>2026-04-11T14:52:31.071Z</time></trkpt><trkpt lat="45.7484883" lon="12.1067241"><ele>81.0</ele><time>2026-04-11T14:52:32.074Z</time></trkpt><trkpt lat="45.7485829" lon="12.1069033"><ele>81.0</ele><time>2026-04-11T14:52:33.07Z</time></trkpt><trkpt lat="45.7486757" lon="12.1070803"><ele>81.0</ele><time>2026-04-11T14:52:34.076Z</time></trkpt><trkpt lat="45.7487604" lon="12.1072429"><ele>81.0</ele><time>2026-04-11T14:52:35.068Z</time></trkpt><trkpt lat="45.7488466" lon="12.107406"><ele>81.0</ele><time>2026-04-11T14:52:36.072Z</time></trkpt><trkpt lat="45.7489246" lon="12.1075509"><ele>81.0</ele><time>2026-04-11T14:52:37.072Z</time></trkpt><trkpt lat="45.7489993" lon="12.1076865"><ele>81.0</ele><time>2026-04-11T14:52:38.07Z</time></trkpt><trkpt lat="45.7490723" lon="12.1078173"><ele>81.0</ele><time>2026-04-11T14:52:39.074Z</time></trkpt><trkpt lat="45.749153" lon="12.1079562"><ele>81.0</ele><time>2026-04-11T14:52:40.068Z</time></trkpt><trkpt lat="45.749242" lon="12.1080921"><ele>81.0</ele><time>2026-04-11T14:52:41.07Z</time></trkpt><trkpt lat="45.7493446" lon="12.1082225"><ele>81.0</ele><time>2026-04-11T14:52:42.069Z</time></trkpt><trkpt lat="45.7494609" lon="12.1083499"><ele>81.0</ele><time>2026-04-11T14:52:43.067Z</time></trkpt><trkpt lat="45.74959" lon="12.1084686"><ele>81.0</ele><time>2026-04-11T14:52:44.072Z</time></trkpt><trkpt lat="45.7497297" lon="12.1085766"><ele>81.0</ele><time>2026-04-11T14:52:45.072Z</time></trkpt><trkpt lat="45.7498592" lon="12.1086718"><ele>81.0</ele><time>2026-04-11T14:52:46.067Z</time></trkpt><trkpt lat="45.7499761" lon="12.1087781"><ele>81.0</ele><time>2026-04-11T14:52:47.072Z</time></trkpt><trkpt lat="45.7500829" lon="12.1089074"><ele>81.0</ele><time>2026-04-11T14:52:48.069Z</time></trkpt><trkpt lat="45.7501761" lon="12.1090528"><ele>81.0</ele><time>2026-04-11T14:52:49.07Z</time></trkpt><trkpt lat="45.750263" lon="12.1092265"><ele>81.0</ele><time>2026-04-11T14:52:50.069Z</time></trkpt><trkpt lat="45.7503511" lon="12.1094155"><ele>81.0</ele><time>2026-04-11T14:52:51.069Z</time></trkpt><trkpt lat="45.7504418" lon="12.1096075"><ele>81.0</ele><time>2026-04-11T14:52:52.075Z</time></trkpt><trkpt lat="45.7505393" lon="12.1098128"><ele>81.0</ele><time>2026-04-11T14:52:53.081Z</time></trkpt><trkpt lat="45.7506357" lon="12.1100251"><ele>81.0</ele><time>2026-04-11T14:52:54.08Z</time></trkpt><trkpt lat="45.7507335" lon="12.1102358"><ele>81.0</ele><time>2026-04-11T14:52:55.076Z</time></trkpt><trkpt lat="45.7508321" lon="12.1104503"><ele>81.0</ele><time>2026-04-11T14:52:56.072Z</time></trkpt><trkpt lat="45.7509303" lon="12.1106657"><ele>81.0</ele><time>2026-04-11T14:52:57.074Z</time></trkpt><trkpt lat="45.7510301" lon="12.1108835"><ele>81.0</ele><time>2026-04-11T14:52:58.075Z</time></trkpt><trkpt lat="45.7511311" lon="12.1111035"><ele>81.0</ele><time>2026-04-11T14:52:59.071Z</time></trkpt><trkpt lat="45.7512321" lon="12.1113229"><ele>81.0</ele><time>2026-04-11T14:53:00.064Z</time></trkpt><trkpt lat="45.7513338" lon="12.1115441"><ele>80.33333333333333</ele><time>2026-04-11T14:53:01.078Z</time></trkpt><trkpt lat="45.7514355" lon="12.1117652"><ele>79.66666666666666</ele><time>2026-04-11T14:53:02.073Z</time></trkpt><trkpt lat="45.7515373" lon="12.1119887"><ele>79.0</ele><time>2026-04-11T14:53:03.076Z</time></trkpt><trkpt lat="45.7516386" lon="12.112213"><ele>79.0</ele><time>2026-04-11T14:53:04.072Z</time></trkpt><trkpt lat="45.7517392" lon="12.1124391"><ele>79.0</ele><time>2026-04-11T14:53:05.075Z</time></trkpt><trkpt lat="45.75184" lon="12.1126667"><ele>79.0</ele><time>2026-04-11T14:53:06.072Z</time></trkpt><trkpt lat="45.7519399" lon="12.1128918"><ele>79.0</ele><time>2026-04-11T14:53:07.07Z</time></trkpt><trkpt lat="45.7520439" lon="12.1131169"><ele>79.0</ele><time>2026-04-11T14:53:08.071Z</time></trkpt><trkpt lat="45.7521484" lon="12.1133406"><ele>79.0</ele><time>2026-04-11T14:53:09.073Z</time></trkpt><trkpt lat="45.7522556" lon="12.1135631"><ele>78.66666666666666</ele><time>2026-04-11T14:53:10.069Z</time></trkpt><trkpt lat="45.7523653" lon="12.1137812"><ele>78.33333333333333</ele><time>2026-04-11T14:53:11.074Z</time></trkpt><trkpt lat="45.7524723" lon="12.1139873"><ele>78.0</ele><time>2026-04-11T14:53:12.075Z</time></trkpt><trkpt lat="45.7525731" lon="12.1141777"><ele>77.66666666666667</ele><time>2026-04-11T14:53:13.078Z</time></trkpt><trkpt lat="45.7526749" lon="12.1143646"><ele>77.33333333333334</ele><time>2026-04-11T14:53:14.075Z</time></trkpt><trkpt lat="45.7527744" lon="12.1145401"><ele>77.0</ele><time>2026-04-11T14:53:15.069Z</time></trkpt><trkpt lat="45.7528724" lon="12.1147106"><ele>77.75</ele><time>2026-04-11T14:53:16.065Z</time></trkpt><trkpt lat="45.7529663" lon="12.114868"><ele>78.5</ele><time>2026-04-11T14:53:17.072Z</time></trkpt><trkpt lat="45.753052" lon="12.1150121"><ele>79.25</ele><time>2026-04-11T14:53:18.076Z</time></trkpt><trkpt lat="45.7531223" lon="12.1151396"><ele>80.0</ele><time>2026-04-11T14:53:19.073Z</time></trkpt><trkpt lat="45.7531753" lon="12.1152543"><ele>80.16666666666667</ele><time>2026-04-11T14:53:20.084Z</time></trkpt><trkpt lat="45.7532065" lon="12.1153684"><ele>80.33333333333334</ele><time>2026-04-11T14:53:21.075Z</time></trkpt><trkpt lat="45.7532182" lon="12.1155014"><ele>80.5</ele><time>2026-04-11T14:53:22.071Z</time></trkpt><trkpt lat="45.7532265" lon="12.115646"><ele>80.66666666666667</ele><time>2026-04-11T14:53:23.072Z</time></trkpt><trkpt lat="45.7532537" lon="12.1157644"><ele>80.83333333333333</ele><time>2026-04-11T14:53:24.075Z</time></trkpt><trkpt lat="45.7532994" lon="12.1158564"><ele>81.0</ele><time>2026-04-11T14:53:25.079Z</time></trkpt><trkpt lat="45.7533645" lon="12.1159194"><ele>80.39999999999999</ele><time>2026-04-11T14:53:26.074Z</time></trkpt><trkpt lat="45.7534498" lon="12.1159671"><ele>79.8</ele><time>2026-04-11T14:53:27.073Z</time></trkpt><trkpt lat="45.7535577" lon="12.1160085"><ele>79.19999999999999</ele><time>2026-04-11T14:53:28.077Z</time></trkpt><trkpt lat="45.7536688" lon="12.116075"><ele>78.6</ele><time>2026-04-11T14:53:29.076Z</time></trkpt><trkpt lat="45.7537651" lon="12.1161875"><ele>78.0</ele><time>2026-04-11T14:53:30.072Z</time></trkpt><trkpt lat="45.753856" lon="12.1163148"><ele>78.0</ele><time>2026-04-11T14:53:31.078Z</time></trkpt><trkpt lat="45.7539438" lon="12.1164552"><ele>78.0</ele><time>2026-04-11T14:53:32.069Z</time></trkpt><trkpt lat="45.7540325" lon="12.1165983"><ele>78.0</ele><time>2026-04-11T14:53:33.07Z</time></trkpt><trkpt lat="45.7541223" lon="12.1167462"><ele>78.0</ele><time>2026-04-11T14:53:34.071Z</time></trkpt><trkpt lat="45.7542149" lon="12.1168989"><ele>78.0</ele><time>2026-04-11T14:53:35.074Z</time></trkpt><trkpt lat="45.7543107" lon="12.1170561"><ele>78.0</ele><time>2026-04-11T14:53:36.073Z</time></trkpt><trkpt lat="45.7544084" lon="12.1172193"><ele>78.0</ele><time>2026-04-11T14:53:37.073Z</time></trkpt><trkpt lat="45.7545095" lon="12.117387"><ele>78.33333333333333</ele><time>2026-04-11T14:53:38.071Z</time></trkpt><trkpt lat="45.7546134" lon="12.1175588"><ele>78.66666666666666</ele><time>2026-04-11T14:53:39.072Z</time></trkpt><trkpt lat="45.7547149" lon="12.1177241"><ele>79.0</ele><time>2026-04-11T14:53:40.07Z</time></trkpt><trkpt lat="45.7548207" lon="12.1178943"><ele>79.0</ele><time>2026-04-11T14:53:41.068Z</time></trkpt><trkpt lat="45.7549276" lon="12.1180669"><ele>79.0</ele><time>2026-04-11T14:53:42.073Z</time></trkpt><trkpt lat="45.755036" lon="12.1182425"><ele>79.0</ele><time>2026-04-11T14:53:43.08Z</time></trkpt><trkpt lat="45.7551472" lon="12.118421"><ele>79.33333333333333</ele><time>2026-04-11T14:53:44.066Z</time></trkpt><trkpt lat="45.7552606" lon="12.1185994"><ele>79.66666666666667</ele><time>2026-04-11T14:53:45.078Z</time></trkpt><trkpt lat="45.7553781" lon="12.1187764"><ele>80.0</ele><time>2026-04-11T14:53:46.066Z</time></trkpt><trkpt lat="45.7554989" lon="12.1189472"><ele>79.33333333333334</ele><time>2026-04-11T14:53:47.071Z</time></trkpt><trkpt lat="45.7556264" lon="12.1191067"><ele>78.66666666666667</ele><time>2026-04-11T14:53:48.068Z</time></trkpt><trkpt lat="45.7557595" lon="12.1192555"><ele>78.0</ele><time>2026-04-11T14:53:49.072Z</time></trkpt><trkpt lat="45.7558922" lon="12.1193999"><ele>78.0</ele><time>2026-04-11T14:53:50.07Z</time></trkpt><trkpt lat="45.7560232" lon="12.1195413"><ele>78.0</ele><time>2026-04-11T14:53:51.075Z</time></trkpt><trkpt lat="45.756147" lon="12.1196759"><ele>78.0</ele><time>2026-04-11T14:53:52.07Z</time></trkpt><trkpt lat="45.7562704" lon="12.1198089"><ele>78.0</ele><time>2026-04-11T14:53:53.075Z</time></trkpt><trkpt lat="45.756395" lon="12.119941"><ele>78.0</ele><time>2026-04-11T14:53:54.072Z</time></trkpt><trkpt lat="45.7565213" lon="12.1200745"><ele>78.0</ele><time>2026-04-11T14:53:55.072Z</time></trkpt><trkpt lat="45.7566525" lon="12.1201991"><ele>78.0</ele><time>2026-04-11T14:53:56.068Z</time></trkpt><trkpt lat="45.7567902" lon="12.1203142"><ele>78.0</ele><time>2026-04-11T14:53:57.073Z</time></trkpt><trkpt lat="45.7569309" lon="12.1204148"><ele>78.0</ele><time>2026-04-11T14:53:58.067Z</time></trkpt><trkpt lat="45.7570781" lon="12.1205045"><ele>77.8</ele><time>2026-04-11T14:53:59.069Z</time></trkpt><trkpt lat="45.757204" lon="12.1205875"><ele>77.6</ele><time>2026-04-11T14:54:00.065Z</time></trkpt><trkpt lat="45.7573107" lon="12.1206574"><ele>77.4</ele><time>2026-04-11T14:54:01.07Z</time></trkpt><trkpt lat="45.7573892" lon="12.1207091"><ele>77.2</ele><time>2026-04-11T14:54:02.07Z</time></trkpt><trkpt lat="45.7574495" lon="12.1207504"><ele>77.0</ele><time>2026-04-11T14:54:03.071Z</time></trkpt><trkpt lat="45.7575646" lon="12.1208151"><ele>77.0</ele><time>2026-04-11T14:54:05.071Z</time></trkpt><trkpt lat="45.7576374" lon="12.1208603"><ele>77.0</ele><time>2026-04-11T14:54:06.069Z</time></trkpt><trkpt lat="45.7577142" lon="12.1209086"><ele>77.0</ele><time>2026-04-11T14:54:07.071Z</time></trkpt><trkpt lat="45.7577981" lon="12.1209638"><ele>77.0</ele><time>2026-04-11T14:54:08.073Z</time></trkpt><trkpt lat="45.7578928" lon="12.121034"><ele>77.0</ele><time>2026-04-11T14:54:09.071Z</time></trkpt><trkpt lat="45.757999" lon="12.1211182"><ele>77.25</ele><time>2026-04-11T14:54:10.067Z</time></trkpt><trkpt lat="45.758112" lon="12.1212162"><ele>77.5</ele><time>2026-04-11T14:54:11.07Z</time></trkpt><trkpt lat="45.7582256" lon="12.1213308"><ele>77.75</ele><time>2026-04-11T14:54:12.065Z</time></trkpt><trkpt lat="45.7583452" lon="12.1214616"><ele>78.0</ele><time>2026-04-11T14:54:13.071Z</time></trkpt><trkpt lat="45.7584633" lon="12.1216037"><ele>78.0</ele><time>2026-04-11T14:54:14.065Z</time></trkpt><trkpt lat="45.758581" lon="12.1217498"><ele>78.0</ele><time>2026-04-11T14:54:15.067Z</time></trkpt><trkpt lat="45.7587003" lon="12.1219041"><ele>78.0</ele><time>2026-04-11T14:54:16.075Z</time></trkpt><trkpt lat="45.7588195" lon="12.1220683"><ele>78.0</ele><time>2026-04-11T14:54:17.071Z</time></trkpt><trkpt lat="45.7589378" lon="12.1222432"><ele>78.0</ele><time>2026-04-11T14:54:18.067Z</time></trkpt><trkpt lat="45.7590457" lon="12.1224083"><ele>78.0</ele><time>2026-04-11T14:54:19.073Z</time></trkpt><trkpt lat="45.7591474" lon="12.122572"><ele>78.33333333333333</ele><time>2026-04-11T14:54:20.071Z</time></trkpt><trkpt lat="45.7592509" lon="12.1227376"><ele>78.66666666666666</ele><time>2026-04-11T14:54:21.071Z</time></trkpt><trkpt lat="45.759357" lon="12.1229065"><ele>79.0</ele><time>2026-04-11T14:54:22.071Z</time></trkpt><trkpt lat="45.7594696" lon="12.1230798"><ele>79.0</ele><time>2026-04-11T14:54:23.071Z</time></trkpt><trkpt lat="45.7595806" lon="12.1232474"><ele>79.0</ele><time>2026-04-11T14:54:24.067Z</time></trkpt><trkpt lat="45.7596927" lon="12.1234185"><ele>79.0</ele><time>2026-04-11T14:54:25.071Z</time></trkpt><trkpt lat="45.7598082" lon="12.1235923"><ele>79.0</ele><time>2026-04-11T14:54:26.068Z</time></trkpt><trkpt lat="45.7599275" lon="12.1237664"><ele>79.0</ele><time>2026-04-11T14:54:27.075Z</time></trkpt><trkpt lat="45.7600556" lon="12.1239418"><ele>79.0</ele><time>2026-04-11T14:54:28.071Z</time></trkpt><trkpt lat="45.7601901" lon="12.1241174"><ele>78.33333333333333</ele><time>2026-04-11T14:54:29.07Z</time></trkpt><trkpt lat="45.7603308" lon="12.1242945"><ele>77.66666666666667</ele><time>2026-04-11T14:54:30.067Z</time></trkpt><trkpt lat="45.7604705" lon="12.1244695"><ele>77.0</ele><time>2026-04-11T14:54:31.068Z</time></trkpt><trkpt lat="45.7606099" lon="12.1246476"><ele>77.0</ele><time>2026-04-11T14:54:32.064Z</time></trkpt><trkpt lat="45.7607549" lon="12.1248177"><ele>77.0</ele><time>2026-04-11T14:54:33.069Z</time></trkpt><trkpt lat="45.7608948" lon="12.1249891"><ele>77.0</ele><time>2026-04-11T14:54:34.067Z</time></trkpt><trkpt lat="45.7610345" lon="12.1251571"><ele>77.33333333333334</ele><time>2026-04-11T14:54:35.069Z</time></trkpt><trkpt lat="45.7611736" lon="12.1253275"><ele>77.66666666666667</ele><time>2026-04-11T14:54:36.07Z</time></trkpt><trkpt lat="45.7613135" lon="12.1254997"><ele>78.0</ele><time>2026-04-11T14:54:37.07Z</time></trkpt><trkpt lat="45.7614556" lon="12.1256658"><ele>78.0</ele><time>2026-04-11T14:54:38.067Z</time></trkpt><trkpt lat="45.7616061" lon="12.1258187"><ele>78.0</ele><time>2026-04-11T14:54:39.069Z</time></trkpt><trkpt lat="45.761763" lon="12.1259556"><ele>78.0</ele><time>2026-04-11T14:54:40.072Z</time></trkpt><trkpt lat="45.7619231" lon="12.1260796"><ele>78.0</ele><time>2026-04-11T14:54:41.067Z</time></trkpt><trkpt lat="45.7620827" lon="12.1262003"><ele>78.0</ele><time>2026-04-11T14:54:42.067Z</time></trkpt><trkpt lat="45.762238" lon="12.1263316"><ele>78.0</ele><time>2026-04-11T14:54:43.071Z</time></trkpt><trkpt lat="45.7623899" lon="12.1264695"><ele>78.33333333333333</ele><time>2026-04-11T14:54:44.066Z</time></trkpt><trkpt lat="45.7625388" lon="12.1266095"><ele>78.66666666666666</ele><time>2026-04-11T14:54:45.068Z</time></trkpt><trkpt lat="45.7626876" lon="12.126752"><ele>79.0</ele><time>2026-04-11T14:54:46.067Z</time></trkpt><trkpt lat="45.7628361" lon="12.1269009"><ele>78.0</ele><time>2026-04-11T14:54:47.073Z</time></trkpt><trkpt lat="45.7629848" lon="12.127058"><ele>77.0</ele><time>2026-04-11T14:54:48.069Z</time></trkpt><trkpt lat="45.7631368" lon="12.1272206"><ele>76.0</ele><time>2026-04-11T14:54:49.067Z</time></trkpt><trkpt lat="45.7632903" lon="12.1273892"><ele>76.66666666666666</ele><time>2026-04-11T14:54:50.07Z</time></trkpt><trkpt lat="45.7634464" lon="12.1275643"><ele>77.33333333333333</ele><time>2026-04-11T14:54:51.078Z</time></trkpt><trkpt lat="45.7636056" lon="12.1277432"><ele>78.0</ele><time>2026-04-11T14:54:52.069Z</time></trkpt><trkpt lat="45.7637624" lon="12.1279255"><ele>78.0</ele><time>2026-04-11T14:54:53.071Z</time></trkpt><trkpt lat="45.7639172" lon="12.1281114"><ele>78.0</ele><time>2026-04-11T14:54:54.071Z</time></trkpt><trkpt lat="45.7640727" lon="12.1282977"><ele>78.0</ele><time>2026-04-11T14:54:55.068Z</time></trkpt><trkpt lat="45.7642265" lon="12.1284833"><ele>78.0</ele><time>2026-04-11T14:54:56.07Z</time></trkpt><trkpt lat="45.7643766" lon="12.1286672"><ele>78.0</ele><time>2026-04-11T14:54:57.075Z</time></trkpt><trkpt lat="45.7645221" lon="12.1288462"><ele>78.0</ele><time>2026-04-11T14:54:58.066Z</time></trkpt><trkpt lat="45.7646571" lon="12.1290136"><ele>78.0</ele><time>2026-04-11T14:54:59.075Z</time></trkpt><trkpt lat="45.7647857" lon="12.1291745"><ele>78.0</ele><time>2026-04-11T14:55:00.065Z</time></trkpt><trkpt lat="45.7649013" lon="12.1293204"><ele>78.0</ele><time>2026-04-11T14:55:01.076Z</time></trkpt><trkpt lat="45.7649967" lon="12.1294419"><ele>78.0</ele><time>2026-04-11T14:55:02.069Z</time></trkpt><trkpt lat="45.7650826" lon="12.129554"><ele>78.0</ele><time>2026-04-11T14:55:03.066Z</time></trkpt><trkpt lat="45.7651577" lon="12.1296622"><ele>78.0</ele><time>2026-04-11T14:55:04.065Z</time></trkpt><trkpt lat="45.7652281" lon="12.1297723"><ele>78.0</ele><time>2026-04-11T14:55:05.068Z</time></trkpt><trkpt lat="45.7653006" lon="12.1298986"><ele>78.0</ele><time>2026-04-11T14:55:06.069Z</time></trkpt><trkpt lat="45.7653577" lon="12.1300207"><ele>78.16666666666667</ele><time>2026-04-11T14:55:07.075Z</time></trkpt><trkpt lat="45.7653998" lon="12.1301392"><ele>78.33333333333333</ele><time>2026-04-11T14:55:08.073Z</time></trkpt><trkpt lat="45.7654275" lon="12.1302526"><ele>78.5</ele><time>2026-04-11T14:55:09.069Z</time></trkpt><trkpt lat="45.765449" lon="12.1303542"><ele>78.66666666666666</ele><time>2026-04-11T14:55:10.067Z</time></trkpt><trkpt lat="45.7655082" lon="12.1304715"><ele>78.83333333333333</ele><time>2026-04-11T14:55:12.078Z</time></trkpt><trkpt lat="45.7655862" lon="12.1304554"><ele>79.0</ele><time>2026-04-11T14:55:14.068Z</time></trkpt><trkpt lat="45.7656602" lon="12.1302874"><ele>79.0</ele><time>2026-04-11T14:55:16.067Z</time></trkpt><trkpt lat="45.7657043" lon="12.1301927"><ele>79.0</ele><time>2026-04-11T14:55:17.08Z</time></trkpt><trkpt lat="45.7657738" lon="12.1301023"><ele>79.0</ele><time>2026-04-11T14:55:18.064Z</time></trkpt><trkpt lat="45.7658684" lon="12.1300201"><ele>79.0</ele><time>2026-04-11T14:55:19.074Z</time></trkpt><trkpt lat="45.7659797" lon="12.1299446"><ele>79.0</ele><time>2026-04-11T14:55:20.069Z</time></trkpt><trkpt lat="45.7661078" lon="12.1298641"><ele>79.33333333333333</ele><time>2026-04-11T14:55:21.077Z</time></trkpt><trkpt lat="45.7662523" lon="12.1297715"><ele>79.66666666666667</ele><time>2026-04-11T14:55:22.07Z</time></trkpt><trkpt lat="45.7664053" lon="12.129674"><ele>80.0</ele><time>2026-04-11T14:55:23.072Z</time></trkpt><trkpt lat="45.7665639" lon="12.1295776"><ele>80.0</ele><time>2026-04-11T14:55:24.066Z</time></trkpt><trkpt lat="45.7667273" lon="12.1294738"><ele>80.0</ele><time>2026-04-11T14:55:25.073Z</time></trkpt><trkpt lat="45.7668836" lon="12.1293751"><ele>80.0</ele><time>2026-04-11T14:55:26.071Z</time></trkpt><trkpt lat="45.7670309" lon="12.1292848"><ele>80.33333333333334</ele><time>2026-04-11T14:55:27.076Z</time></trkpt><trkpt lat="45.7671763" lon="12.1291928"><ele>80.66666666666667</ele><time>2026-04-11T14:55:28.074Z</time></trkpt><trkpt lat="45.7673185" lon="12.1290975"><ele>81.0</ele><time>2026-04-11T14:55:29.069Z</time></trkpt><trkpt lat="45.7674564" lon="12.1289923"><ele>81.0</ele><time>2026-04-11T14:55:30.07Z</time></trkpt><trkpt lat="45.7675891" lon="12.1288715"><ele>81.0</ele><time>2026-04-11T14:55:31.077Z</time></trkpt><trkpt lat="45.7677208" lon="12.1287355"><ele>81.0</ele><time>2026-04-11T14:55:32.068Z</time></trkpt><trkpt lat="45.7678514" lon="12.1285883"><ele>81.0</ele><time>2026-04-11T14:55:33.076Z</time></trkpt><trkpt lat="45.7679798" lon="12.1284302"><ele>81.0</ele><time>2026-04-11T14:55:34.067Z</time></trkpt><trkpt lat="45.7681091" lon="12.1282677"><ele>81.0</ele><time>2026-04-11T14:55:35.076Z</time></trkpt><trkpt lat="45.7682405" lon="12.1281056"><ele>81.0</ele><time>2026-04-11T14:55:36.072Z</time></trkpt><trkpt lat="45.7683748" lon="12.1279423"><ele>81.0</ele><time>2026-04-11T14:55:37.067Z</time></trkpt><trkpt lat="45.768511" lon="12.127778"><ele>81.0</ele><time>2026-04-11T14:55:38.072Z</time></trkpt><trkpt lat="45.7686488" lon="12.127611"><ele>81.33333333333333</ele><time>2026-04-11T14:55:39.077Z</time></trkpt><trkpt lat="45.7687876" lon="12.1274409"><ele>81.66666666666666</ele><time>2026-04-11T14:55:40.069Z</time></trkpt><trkpt lat="45.7689265" lon="12.1272748"><ele>82.0</ele><time>2026-04-11T14:55:41.073Z</time></trkpt><trkpt lat="45.7690611" lon="12.1271093"><ele>82.0</ele><time>2026-04-11T14:55:42.076Z</time></trkpt><trkpt lat="45.7691901" lon="12.1269486"><ele>82.0</ele><time>2026-04-11T14:55:43.071Z</time></trkpt><trkpt lat="45.7693146" lon="12.1267962"><ele>82.0</ele><time>2026-04-11T14:55:44.066Z</time></trkpt><trkpt lat="45.7694394" lon="12.1266446"><ele>82.33333333333333</ele><time>2026-04-11T14:55:45.069Z</time></trkpt><trkpt lat="45.7695616" lon="12.1264968"><ele>82.66666666666667</ele><time>2026-04-11T14:55:46.069Z</time></trkpt><trkpt lat="45.7696845" lon="12.1263443"><ele>83.0</ele><time>2026-04-11T14:55:47.068Z</time></trkpt><trkpt lat="45.7698096" lon="12.1261909"><ele>83.0</ele><time>2026-04-11T14:55:48.073Z</time></trkpt><trkpt lat="45.7699363" lon="12.126034"><ele>83.0</ele><time>2026-04-11T14:55:49.068Z</time></trkpt><trkpt lat="45.7700661" lon="12.1258739"><ele>83.0</ele><time>2026-04-11T14:55:50.069Z</time></trkpt><trkpt lat="45.770198" lon="12.1257123"><ele>82.66666666666667</ele><time>2026-04-11T14:55:51.068Z</time></trkpt><trkpt lat="45.7703322" lon="12.1255479"><ele>82.33333333333333</ele><time>2026-04-11T14:55:52.071Z</time></trkpt><trkpt lat="45.7704676" lon="12.1253844"><ele>82.0</ele><time>2026-04-11T14:55:53.07Z</time></trkpt><trkpt lat="45.7706014" lon="12.1252241"><ele>82.0</ele><time>2026-04-11T14:55:54.066Z</time></trkpt><trkpt lat="45.7707295" lon="12.125069"><ele>82.0</ele><time>2026-04-11T14:55:55.076Z</time></trkpt><trkpt lat="45.7708494" lon="12.1249254"><ele>82.0</ele><time>2026-04-11T14:55:56.066Z</time></trkpt><trkpt lat="45.7709741" lon="12.1247901"><ele>82.66666666666666</ele><time>2026-04-11T14:55:57.071Z</time></trkpt><trkpt lat="45.7711068" lon="12.12467"><ele>83.33333333333333</ele><time>2026-04-11T14:55:58.068Z</time></trkpt><trkpt lat="45.7712469" lon="12.1245735"><ele>84.0</ele><time>2026-04-11T14:55:59.067Z</time></trkpt><trkpt lat="45.7713947" lon="12.1244856"><ele>84.0</ele><time>2026-04-11T14:56:00.066Z</time></trkpt><trkpt lat="45.7715438" lon="12.1244119"><ele>84.0</ele><time>2026-04-11T14:56:01.071Z</time></trkpt><trkpt lat="45.7716962" lon="12.1243445"><ele>84.0</ele><time>2026-04-11T14:56:02.068Z</time></trkpt><trkpt lat="45.7718372" lon="12.1242863"><ele>84.25</ele><time>2026-04-11T14:56:03.07Z</time></trkpt><trkpt lat="45.7719672" lon="12.1242427"><ele>84.5</ele><time>2026-04-11T14:56:04.069Z</time></trkpt><trkpt lat="45.7720937" lon="12.1242197"><ele>84.75</ele><time>2026-04-11T14:56:05.071Z</time></trkpt><trkpt lat="45.7722202" lon="12.1242083"><ele>85.0</ele><time>2026-04-11T14:56:06.066Z</time></trkpt><trkpt lat="45.7723506" lon="12.1242141"><ele>85.0</ele><time>2026-04-11T14:56:07.069Z</time></trkpt><trkpt lat="45.7724834" lon="12.1242407"><ele>85.0</ele><time>2026-04-11T14:56:08.062Z</time></trkpt><trkpt lat="45.7726198" lon="12.1242769"><ele>85.0</ele><time>2026-04-11T14:56:09.073Z</time></trkpt><trkpt lat="45.7727547" lon="12.124319"><ele>85.0</ele><time>2026-04-11T14:56:10.068Z</time></trkpt><trkpt lat="45.7728865" lon="12.1243603"><ele>85.25</ele><time>2026-04-11T14:56:11.066Z</time></trkpt><trkpt lat="45.7730178" lon="12.1244028"><ele>85.5</ele><time>2026-04-11T14:56:12.07Z</time></trkpt><trkpt lat="45.7731509" lon="12.1244453"><ele>85.75</ele><time>2026-04-11T14:56:13.083Z</time></trkpt><trkpt lat="45.773287" lon="12.1244885"><ele>86.0</ele><time>2026-04-11T14:56:14.066Z</time></trkpt><trkpt lat="45.773422" lon="12.1245325"><ele>86.0</ele><time>2026-04-11T14:56:15.072Z</time></trkpt><trkpt lat="45.7735538" lon="12.1245757"><ele>86.0</ele><time>2026-04-11T14:56:16.075Z</time></trkpt><trkpt lat="45.7736773" lon="12.1246178"><ele>86.0</ele><time>2026-04-11T14:56:17.064Z</time></trkpt><trkpt lat="45.7738038" lon="12.1246585"><ele>86.0</ele><time>2026-04-11T14:56:18.063Z</time></trkpt><trkpt lat="45.7739264" lon="12.1246969"><ele>86.0</ele><time>2026-04-11T14:56:19.07Z</time></trkpt><trkpt lat="45.7740482" lon="12.124737"><ele>86.0</ele><time>2026-04-11T14:56:20.064Z</time></trkpt><trkpt lat="45.7741609" lon="12.1247769"><ele>86.0</ele><time>2026-04-11T14:56:21.069Z</time></trkpt><trkpt lat="45.7742715" lon="12.124815"><ele>86.0</ele><time>2026-04-11T14:56:22.07Z</time></trkpt><trkpt lat="45.7743653" lon="12.1248443"><ele>86.0</ele><time>2026-04-11T14:56:23.072Z</time></trkpt><trkpt lat="45.7744528" lon="12.1248757"><ele>86.0</ele><time>2026-04-11T14:56:24.082Z</time></trkpt><trkpt lat="45.7745349" lon="12.1249027"><ele>86.0</ele><time>2026-04-11T14:56:25.072Z</time></trkpt><trkpt lat="45.7746279" lon="12.1249265"><ele>86.0</ele><time>2026-04-11T14:56:26.071Z</time></trkpt><trkpt lat="45.7747275" lon="12.1249584"><ele>86.0</ele><time>2026-04-11T14:56:27.073Z</time></trkpt><trkpt lat="45.774825" lon="12.1249888"><ele>86.0</ele><time>2026-04-11T14:56:28.067Z</time></trkpt><trkpt lat="45.7749252" lon="12.1250226"><ele>86.0</ele><time>2026-04-11T14:56:29.071Z</time></trkpt><trkpt lat="45.775028" lon="12.1250531"><ele>86.0</ele><time>2026-04-11T14:56:30.08Z</time></trkpt><trkpt lat="45.7751353" lon="12.1250898"><ele>86.0</ele><time>2026-04-11T14:56:31.07Z</time></trkpt><trkpt lat="45.7752453" lon="12.1251268"><ele>86.0</ele><time>2026-04-11T14:56:32.076Z</time></trkpt><trkpt lat="45.7753512" lon="12.1251616"><ele>86.0</ele><time>2026-04-11T14:56:33.074Z</time></trkpt><trkpt lat="45.7754599" lon="12.1251968"><ele>86.0</ele><time>2026-04-11T14:56:34.067Z</time></trkpt><trkpt lat="45.7755649" lon="12.1252327"><ele>86.0</ele><time>2026-04-11T14:56:35.072Z</time></trkpt><trkpt lat="45.7756699" lon="12.1252703"><ele>86.0</ele><time>2026-04-11T14:56:36.072Z</time></trkpt><trkpt lat="45.775776" lon="12.1253091"><ele>86.0</ele><time>2026-04-11T14:56:37.067Z</time></trkpt><trkpt lat="45.7758885" lon="12.125348"><ele>86.0</ele><time>2026-04-11T14:56:38.067Z</time></trkpt><trkpt lat="45.7760068" lon="12.1253847"><ele>86.0</ele><time>2026-04-11T14:56:39.07Z</time></trkpt><trkpt lat="45.7761298" lon="12.1254108"><ele>86.0</ele><time>2026-04-11T14:56:40.075Z</time></trkpt><trkpt lat="45.7762489" lon="12.1254189"><ele>86.0</ele><time>2026-04-11T14:56:41.069Z</time></trkpt><trkpt lat="45.7763579" lon="12.1254071"><ele>86.4</ele><time>2026-04-11T14:56:42.074Z</time></trkpt><trkpt lat="45.7764616" lon="12.1253704"><ele>86.8</ele><time>2026-04-11T14:56:43.07Z</time></trkpt><trkpt lat="45.7765579" lon="12.1253103"><ele>87.2</ele><time>2026-04-11T14:56:44.074Z</time></trkpt><trkpt lat="45.776653" lon="12.125232"><ele>87.60000000000001</ele><time>2026-04-11T14:56:45.069Z</time></trkpt><trkpt lat="45.7767384" lon="12.1251412"><ele>88.0</ele><time>2026-04-11T14:56:46.075Z</time></trkpt><trkpt lat="45.7768156" lon="12.1250504"><ele>88.33333333333333</ele><time>2026-04-11T14:56:47.071Z</time></trkpt><trkpt lat="45.7768846" lon="12.1249636"><ele>88.66666666666666</ele><time>2026-04-11T14:56:48.073Z</time></trkpt><trkpt lat="45.7769537" lon="12.1248701"><ele>89.0</ele><time>2026-04-11T14:56:49.066Z</time></trkpt><trkpt lat="45.7770162" lon="12.1247881"><ele>89.33333333333333</ele><time>2026-04-11T14:56:50.064Z</time></trkpt><trkpt lat="45.7770733" lon="12.1247119"><ele>89.66666666666667</ele><time>2026-04-11T14:56:51.072Z</time></trkpt><trkpt lat="45.7771252" lon="12.1246535"><ele>90.0</ele><time>2026-04-11T14:56:52.066Z</time></trkpt><trkpt lat="45.7772344" lon="12.124603"><ele>90.16666666666667</ele><time>2026-04-11T14:56:54.068Z</time></trkpt><trkpt lat="45.7773239" lon="12.1246328"><ele>90.33333333333333</ele><time>2026-04-11T14:56:56.066Z</time></trkpt><trkpt lat="45.7774139" lon="12.1246503"><ele>90.5</ele><time>2026-04-11T14:56:59.071Z</time></trkpt><trkpt lat="45.7774818" lon="12.1246565"><ele>90.66666666666666</ele><time>2026-04-11T14:57:06.067Z</time></trkpt><trkpt lat="45.7775665" lon="12.1245712"><ele>90.83333333333333</ele><time>2026-04-11T14:57:08.065Z</time></trkpt><trkpt lat="45.7775926" lon="12.1244871"><ele>91.0</ele><time>2026-04-11T14:57:09.072Z</time></trkpt><trkpt lat="45.7776118" lon="12.1243809"><ele>91.0</ele><time>2026-04-11T14:57:10.067Z</time></trkpt><trkpt lat="45.7776396" lon="12.1242671"><ele>91.0</ele><time>2026-04-11T14:57:11.079Z</time></trkpt><trkpt lat="45.7776783" lon="12.1241427"><ele>91.0</ele><time>2026-04-11T14:57:12.07Z</time></trkpt><trkpt lat="45.7777264" lon="12.1240086"><ele>91.0</ele><time>2026-04-11T14:57:13.067Z</time></trkpt><trkpt lat="45.777789" lon="12.1238734"><ele>91.0</ele><time>2026-04-11T14:57:14.071Z</time></trkpt><trkpt lat="45.7778606" lon="12.123732"><ele>91.25</ele><time>2026-04-11T14:57:15.073Z</time></trkpt><trkpt lat="45.7779399" lon="12.1235941"><ele>91.5</ele><time>2026-04-11T14:57:16.066Z</time></trkpt><trkpt lat="45.7780283" lon="12.1234574"><ele>91.75</ele><time>2026-04-11T14:57:17.07Z</time></trkpt><trkpt lat="45.7781148" lon="12.1233311"><ele>92.0</ele><time>2026-04-11T14:57:18.074Z</time></trkpt><trkpt lat="45.7781927" lon="12.1232143"><ele>92.0</ele><time>2026-04-11T14:57:19.073Z</time></trkpt><trkpt lat="45.7782658" lon="12.1230964"><ele>92.0</ele><time>2026-04-11T14:57:20.073Z</time></trkpt><trkpt lat="45.7783371" lon="12.1229837"><ele>92.0</ele><time>2026-04-11T14:57:21.07Z</time></trkpt><trkpt lat="45.7783938" lon="12.122877"><ele>92.0</ele><time>2026-04-11T14:57:22.068Z</time></trkpt><trkpt lat="45.7784434" lon="12.1227653"><ele>92.0</ele><time>2026-04-11T14:57:23.079Z</time></trkpt><trkpt lat="45.7784891" lon="12.1226458"><ele>92.0</ele><time>2026-04-11T14:57:24.076Z</time></trkpt><trkpt lat="45.7785394" lon="12.1225263"><ele>92.0</ele><time>2026-04-11T14:57:25.076Z</time></trkpt><trkpt lat="45.7786014" lon="12.1224146"><ele>92.0</ele><time>2026-04-11T14:57:26.077Z</time></trkpt><trkpt lat="45.7786772" lon="12.122312"><ele>92.0</ele><time>2026-04-11T14:57:27.078Z</time></trkpt><trkpt lat="45.7787659" lon="12.1222114"><ele>92.0</ele><time>2026-04-11T14:57:28.072Z</time></trkpt><trkpt lat="45.7788598" lon="12.1221098"><ele>93.0</ele><time>2026-04-11T14:57:29.079Z</time></trkpt><trkpt lat="45.7789522" lon="12.1220039"><ele>94.0</ele><time>2026-04-11T14:57:30.082Z</time></trkpt><trkpt lat="45.7790412" lon="12.1218887"><ele>95.0</ele><time>2026-04-11T14:57:31.075Z</time></trkpt><trkpt lat="45.7791339" lon="12.1217756"><ele>96.0</ele><time>2026-04-11T14:57:32.078Z</time></trkpt><trkpt lat="45.7792329" lon="12.1216627"><ele>96.0</ele><time>2026-04-11T14:57:33.081Z</time></trkpt><trkpt lat="45.7793325" lon="12.1215567"><ele>96.0</ele><time>2026-04-11T14:57:34.076Z</time></trkpt><trkpt lat="45.7794411" lon="12.12146"><ele>96.0</ele><time>2026-04-11T14:57:35.074Z</time></trkpt><trkpt lat="45.7795348" lon="12.1213745"><ele>96.0</ele><time>2026-04-11T14:57:36.07Z</time></trkpt><trkpt lat="45.7796254" lon="12.1212994"><ele>96.0</ele><time>2026-04-11T14:57:37.076Z</time></trkpt><trkpt lat="45.7797175" lon="12.1212485"><ele>96.0</ele><time>2026-04-11T14:57:38.072Z</time></trkpt><trkpt lat="45.7798145" lon="12.1212237"><ele>96.0</ele><time>2026-04-11T14:57:39.073Z</time></trkpt><trkpt lat="45.7799173" lon="12.1212309"><ele>96.0</ele><time>2026-04-11T14:57:40.067Z</time></trkpt><trkpt lat="45.7800219" lon="12.1212645"><ele>96.0</ele><time>2026-04-11T14:57:41.076Z</time></trkpt><trkpt lat="45.7801107" lon="12.1213144"><ele>96.0</ele><time>2026-04-11T14:57:42.066Z</time></trkpt><trkpt lat="45.7801904" lon="12.1213798"><ele>96.0</ele><time>2026-04-11T14:57:43.07Z</time></trkpt><trkpt lat="45.7802718" lon="12.1214726"><ele>96.0</ele><time>2026-04-11T14:57:44.074Z</time></trkpt><trkpt lat="45.7803518" lon="12.1215841"><ele>96.0</ele><time>2026-04-11T14:57:45.077Z</time></trkpt><trkpt lat="45.780438" lon="12.121703"><ele>96.0</ele><time>2026-04-11T14:57:46.078Z</time></trkpt><trkpt lat="45.7805313" lon="12.1218304"><ele>96.0</ele><time>2026-04-11T14:57:47.079Z</time></trkpt><trkpt lat="45.78063" lon="12.1219546"><ele>96.0</ele><time>2026-04-11T14:57:48.078Z</time></trkpt><trkpt lat="45.7807327" lon="12.1220627"><ele>96.0</ele><time>2026-04-11T14:57:49.066Z</time></trkpt><trkpt lat="45.7808377" lon="12.1221516"><ele>96.0</ele><time>2026-04-11T14:57:50.071Z</time></trkpt><trkpt lat="45.7809428" lon="12.1222208"><ele>96.5</ele><time>2026-04-11T14:57:51.073Z</time></trkpt><trkpt lat="45.7810513" lon="12.1222683"><ele>97.0</ele><time>2026-04-11T14:57:52.071Z</time></trkpt><trkpt lat="45.7811699" lon="12.1223043"><ele>97.5</ele><time>2026-04-11T14:57:53.07Z</time></trkpt><trkpt lat="45.7812946" lon="12.1223223"><ele>98.0</ele><time>2026-04-11T14:57:54.071Z</time></trkpt><trkpt lat="45.7814227" lon="12.1223268"><ele>98.0</ele><time>2026-04-11T14:57:55.074Z</time></trkpt><trkpt lat="45.7815572" lon="12.1223223"><ele>98.0</ele><time>2026-04-11T14:57:56.068Z</time></trkpt><trkpt lat="45.7816941" lon="12.1223211"><ele>98.0</ele><time>2026-04-11T14:57:57.072Z</time></trkpt><trkpt lat="45.7818282" lon="12.1223227"><ele>98.0</ele><time>2026-04-11T14:57:58.07Z</time></trkpt><trkpt lat="45.7819546" lon="12.122323"><ele>98.25</ele><time>2026-04-11T14:57:59.07Z</time></trkpt><trkpt lat="45.7820902" lon="12.1223365"><ele>98.5</ele><time>2026-04-11T14:58:00.067Z</time></trkpt><trkpt lat="45.7822268" lon="12.1223676"><ele>98.75</ele><time>2026-04-11T14:58:01.075Z</time></trkpt><trkpt lat="45.7823671" lon="12.1224124"><ele>99.0</ele><time>2026-04-11T14:58:02.069Z</time></trkpt><trkpt lat="45.7825069" lon="12.1224693"><ele>99.5</ele><time>2026-04-11T14:58:03.074Z</time></trkpt><trkpt lat="45.7826428" lon="12.1225394"><ele>100.0</ele><time>2026-04-11T14:58:04.072Z</time></trkpt><trkpt lat="45.7827762" lon="12.1226238"><ele>100.5</ele><time>2026-04-11T14:58:05.07Z</time></trkpt><trkpt lat="45.7829047" lon="12.1227108"><ele>101.0</ele><time>2026-04-11T14:58:06.068Z</time></trkpt><trkpt lat="45.78303" lon="12.122782"><ele>101.0</ele><time>2026-04-11T14:58:07.079Z</time></trkpt><trkpt lat="45.7831561" lon="12.1228244"><ele>101.0</ele><time>2026-04-11T14:58:08.078Z</time></trkpt><trkpt lat="45.7832874" lon="12.1228416"><ele>101.0</ele><time>2026-04-11T14:58:09.072Z</time></trkpt><trkpt lat="45.7834141" lon="12.1228537"><ele>101.0</ele><time>2026-04-11T14:58:10.08Z</time></trkpt><trkpt lat="45.7835338" lon="12.1228631"><ele>101.5</ele><time>2026-04-11T14:58:11.075Z</time></trkpt><trkpt lat="45.7836446" lon="12.1228648"><ele>102.0</ele><time>2026-04-11T14:58:12.07Z</time></trkpt><trkpt lat="45.7837638" lon="12.1228612"><ele>102.5</ele><time>2026-04-11T14:58:13.074Z</time></trkpt><trkpt lat="45.7838914" lon="12.1228541"><ele>103.0</ele><time>2026-04-11T14:58:14.076Z</time></trkpt><trkpt lat="45.7840223" lon="12.1228389"><ele>103.0</ele><time>2026-04-11T14:58:15.078Z</time></trkpt><trkpt lat="45.7841494" lon="12.1228181"><ele>103.0</ele><time>2026-04-11T14:58:16.072Z</time></trkpt><trkpt lat="45.7842717" lon="12.1227964"><ele>103.0</ele><time>2026-04-11T14:58:17.068Z</time></trkpt><trkpt lat="45.7843919" lon="12.1227777"><ele>103.0</ele><time>2026-04-11T14:58:18.069Z</time></trkpt><trkpt lat="45.7844923" lon="12.1227621"><ele>104.00000000000001</ele><time>2026-04-11T14:58:19.074Z</time></trkpt><trkpt lat="45.7845768" lon="12.1227519"><ele>105.0</ele><time>2026-04-11T14:58:20.071Z</time></trkpt><trkpt lat="45.7846476" lon="12.1227399"><ele>106.0</ele><time>2026-04-11T14:58:21.071Z</time></trkpt><trkpt lat="45.7847305" lon="12.1226863"><ele>107.0</ele><time>2026-04-11T14:58:23.071Z</time></trkpt><trkpt lat="45.784812" lon="12.1227093"><ele>108.00000000000001</ele><time>2026-04-11T15:07:22.076Z</time></trkpt><trkpt lat="45.7849164" lon="12.1227358"><ele>109.0</ele><time>2026-04-11T15:07:24.073Z</time></trkpt><trkpt lat="45.7849829" lon="12.1227303"><ele>109.00000000000001</ele><time>2026-04-11T15:07:25.076Z</time></trkpt><trkpt lat="45.7850552" lon="12.1227311"><ele>109.0</ele><time>2026-04-11T15:07:26.063Z</time></trkpt><trkpt lat="45.7851222" lon="12.1227584"><ele>109.0</ele><time>2026-04-11T15:07:27.067Z</time></trkpt><trkpt lat="45.7852067" lon="12.1228206"><ele>109.0</ele><time>2026-04-11T15:07:29.066Z</time></trkpt><trkpt lat="45.7852664" lon="12.1229264"><ele>109.00000000000001</ele><time>2026-04-11T15:07:31.073Z</time></trkpt><trkpt lat="45.785315" lon="12.1229994"><ele>109.0</ele><time>2026-04-11T15:07:32.07Z</time></trkpt><trkpt lat="45.7853804" lon="12.1230853"><ele>110.6</ele><time>2026-04-11T15:07:33.075Z</time></trkpt><trkpt lat="45.785452" lon="12.1231801"><ele>112.2</ele><time>2026-04-11T15:07:34.069Z</time></trkpt><trkpt lat="45.785526" lon="12.1232734"><ele>113.79999999999998</ele><time>2026-04-11T15:07:35.073Z</time></trkpt><trkpt lat="45.7856038" lon="12.1233611"><ele>115.39999999999999</ele><time>2026-04-11T15:07:36.073Z</time></trkpt><trkpt lat="45.7856893" lon="12.1234399"><ele>117.0</ele><time>2026-04-11T15:07:37.074Z</time></trkpt><trkpt lat="45.7857815" lon="12.123517"><ele>117.0</ele><time>2026-04-11T15:07:38.07Z</time></trkpt><trkpt lat="45.7858787" lon="12.123598"><ele>117.0</ele><time>2026-04-11T15:07:39.068Z</time></trkpt><trkpt lat="45.785982" lon="12.1236748"><ele>117.0</ele><time>2026-04-11T15:07:40.068Z</time></trkpt><trkpt lat="45.7860833" lon="12.1237523"><ele>117.0</ele><time>2026-04-11T15:07:41.066Z</time></trkpt><trkpt lat="45.7861845" lon="12.1238264"><ele>120.0</ele><time>2026-04-11T15:07:42.071Z</time></trkpt><trkpt lat="45.7862893" lon="12.1239012"><ele>123.0</ele><time>2026-04-11T15:07:43.066Z</time></trkpt><trkpt lat="45.7863987" lon="12.1239718"><ele>126.0</ele><time>2026-04-11T15:07:44.068Z</time></trkpt><trkpt lat="45.7865043" lon="12.1240425"><ele>129.0</ele><time>2026-04-11T15:07:45.077Z</time></trkpt><trkpt lat="45.7865969" lon="12.124108"><ele>129.0</ele><time>2026-04-11T15:07:46.069Z</time></trkpt><trkpt lat="45.7866694" lon="12.1241759"><ele>129.0</ele><time>2026-04-11T15:07:47.071Z</time></trkpt><trkpt lat="45.7867292" lon="12.1242537"><ele>129.0</ele><time>2026-04-11T15:07:48.073Z</time></trkpt><trkpt lat="45.7867905" lon="12.1243272"><ele>129.0</ele><time>2026-04-11T15:07:49.087Z</time></trkpt><trkpt lat="45.7868563" lon="12.1243815"><ele>129.0</ele><time>2026-04-11T15:07:50.068Z</time></trkpt><trkpt lat="45.7869232" lon="12.1244365"><ele>129.0</ele><time>2026-04-11T15:07:51.069Z</time></trkpt><trkpt lat="45.7869838" lon="12.124593"><ele>131.5</ele><time>2026-04-11T15:07:53.072Z</time></trkpt><trkpt lat="45.7869916" lon="12.1247026"><ele>134.0</ele><time>2026-04-11T15:07:54.067Z</time></trkpt><trkpt lat="45.7870436" lon="12.1248681"><ele>136.5</ele><time>2026-04-11T15:07:56.066Z</time></trkpt><trkpt lat="45.7870871" lon="12.1249584"><ele>139.0</ele><time>2026-04-11T15:07:57.065Z</time></trkpt><trkpt lat="45.787138" lon="12.1250459"><ele>141.5</ele><time>2026-04-11T15:07:58.065Z</time></trkpt><trkpt lat="45.7871922" lon="12.1251324"><ele>144.0</ele><time>2026-04-11T15:07:59.069Z</time></trkpt><trkpt lat="45.7872515" lon="12.1252157"><ele>144.0</ele><time>2026-04-11T15:08:00.067Z</time></trkpt><trkpt lat="45.7873125" lon="12.1253033"><ele>144.0</ele><time>2026-04-11T15:08:01.069Z</time></trkpt><trkpt lat="45.7873689" lon="12.1253895"><ele>144.0</ele><time>2026-04-11T15:08:02.068Z</time></trkpt><trkpt lat="45.787433" lon="12.1254791"><ele>144.0</ele><time>2026-04-11T15:08:03.063Z</time></trkpt><trkpt lat="45.7874789" lon="12.1255686"><ele>144.0</ele><time>2026-04-11T15:08:04.066Z</time></trkpt><trkpt lat="45.7875266" lon="12.1256513"><ele>144.0</ele><time>2026-04-11T15:08:05.061Z</time></trkpt><trkpt lat="45.7876032" lon="12.1257716"><ele>145.2</ele><time>2026-04-11T15:08:07.068Z</time></trkpt><trkpt lat="45.7876811" lon="12.1258424"><ele>146.4</ele><time>2026-04-11T15:08:09.068Z</time></trkpt><trkpt lat="45.7877699" lon="12.1258031"><ele>147.6</ele><time>2026-04-11T15:08:11.068Z</time></trkpt><trkpt lat="45.7878896" lon="12.1257477"><ele>148.8</ele><time>2026-04-11T15:08:13.075Z</time></trkpt><trkpt lat="45.7879579" lon="12.1257251"><ele>150.0</ele><time>2026-04-11T15:08:14.063Z</time></trkpt><trkpt lat="45.7880655" lon="12.1257172"><ele>150.0</ele><time>2026-04-11T15:08:16.068Z</time></trkpt><trkpt lat="45.7881326" lon="12.1257825"><ele>150.0</ele><time>2026-04-11T15:08:18.07Z</time></trkpt><trkpt lat="45.7881424" lon="12.1258864"><ele>150.0</ele><time>2026-04-11T15:08:20.07Z</time></trkpt><trkpt lat="45.7881064" lon="12.1259631"><ele>150.0</ele><time>2026-04-11T15:08:22.065Z</time></trkpt><trkpt lat="45.7880442" lon="12.1260653"><ele>150.0</ele><time>2026-04-11T15:08:24.072Z</time></trkpt><trkpt lat="45.7880095" lon="12.126205"><ele>150.0</ele><time>2026-04-11T15:08:26.066Z</time></trkpt><trkpt lat="45.7880281" lon="12.1263514"><ele>149.99999999999997</ele><time>2026-04-11T15:08:28.074Z</time></trkpt><trkpt lat="45.7880488" lon="12.126438"><ele>150.0</ele><time>2026-04-11T15:08:29.076Z</time></trkpt><trkpt lat="45.7880697" lon="12.1265318"><ele>150.0</ele><time>2026-04-11T15:08:30.078Z</time></trkpt><trkpt lat="45.7880883" lon="12.1266247"><ele>150.0</ele><time>2026-04-11T15:08:31.077Z</time></trkpt><trkpt lat="45.7881304" lon="12.1267315"><ele>150.0</ele><time>2026-04-11T15:08:33.067Z</time></trkpt><trkpt lat="45.7882013" lon="12.1267542"><ele>149.99999999999997</ele><time>2026-04-11T15:08:35.074Z</time></trkpt><trkpt lat="45.7882872" lon="12.1267101"><ele>150.0</ele><time>2026-04-11T15:08:37.071Z</time></trkpt><trkpt lat="45.7883748" lon="12.126608"><ele>150.0</ele><time>2026-04-11T15:08:39.064Z</time></trkpt><trkpt lat="45.788448" lon="12.1264616"><ele>150.0</ele><time>2026-04-11T15:08:41.067Z</time></trkpt><trkpt lat="45.7884848" lon="12.1263815"><ele>150.0</ele><time>2026-04-11T15:08:42.07Z</time></trkpt><trkpt lat="45.7885252" lon="12.1263025"><ele>150.0</ele><time>2026-04-11T15:08:43.071Z</time></trkpt><trkpt lat="45.7885706" lon="12.1262324"><ele>150.0</ele><time>2026-04-11T15:08:44.066Z</time></trkpt><trkpt lat="45.7886172" lon="12.1261681"><ele>150.0</ele><time>2026-04-11T15:08:45.069Z</time></trkpt><trkpt lat="45.7887028" lon="12.1260502"><ele>153.8</ele><time>2026-04-11T15:08:47.066Z</time></trkpt><trkpt lat="45.7887848" lon="12.1259288"><ele>157.6</ele><time>2026-04-11T15:08:49.072Z</time></trkpt><trkpt lat="45.7888317" lon="12.1258647"><ele>161.39999999999998</ele><time>2026-04-11T15:08:50.064Z</time></trkpt><trkpt lat="45.7888813" lon="12.1257707"><ele>165.2</ele><time>2026-04-11T15:08:51.07Z</time></trkpt><trkpt lat="45.7889219" lon="12.1256806"><ele>169.0</ele><time>2026-04-11T15:08:52.058Z</time></trkpt><trkpt lat="45.7889893" lon="12.1255407"><ele>169.5</ele><time>2026-04-11T15:08:54.068Z</time></trkpt><trkpt lat="45.7890721" lon="12.125447"><ele>170.0</ele><time>2026-04-11T15:08:56.063Z</time></trkpt><trkpt lat="45.7891779" lon="12.1254055"><ele>170.5</ele><time>2026-04-11T15:08:58.066Z</time></trkpt><trkpt lat="45.7892465" lon="12.1253974"><ele>171.0</ele><time>2026-04-11T15:08:59.068Z</time></trkpt><trkpt lat="45.7893251" lon="12.1253925"><ele>171.5</ele><time>2026-04-11T15:09:00.063Z</time></trkpt><trkpt lat="45.7894042" lon="12.1254022"><ele>172.0</ele><time>2026-04-11T15:09:01.069Z</time></trkpt><trkpt lat="45.7894745" lon="12.1253962"><ele>173.16666666666669</ele><time>2026-04-11T15:09:02.063Z</time></trkpt><trkpt lat="45.7895511" lon="12.1253918"><ele>174.33333333333334</ele><time>2026-04-11T15:09:03.068Z</time></trkpt><trkpt lat="45.7896241" lon="12.125387"><ele>175.5</ele><time>2026-04-11T15:09:04.074Z</time></trkpt><trkpt lat="45.789708" lon="12.1253822"><ele>176.66666666666666</ele><time>2026-04-11T15:09:05.066Z</time></trkpt><trkpt lat="45.7897906" lon="12.1253719"><ele>177.83333333333331</ele><time>2026-04-11T15:09:06.071Z</time></trkpt><trkpt lat="45.789859" lon="12.1253664"><ele>179.0</ele><time>2026-04-11T15:09:07.062Z</time></trkpt><trkpt lat="45.7899295" lon="12.1253705"><ele>179.0</ele><time>2026-04-11T15:09:08.076Z</time></trkpt><trkpt lat="45.7899974" lon="12.1253938"><ele>179.0</ele><time>2026-04-11T15:09:09.069Z</time></trkpt><trkpt lat="45.7900701" lon="12.1254307"><ele>179.0</ele><time>2026-04-11T15:09:10.067Z</time></trkpt><trkpt lat="45.790144" lon="12.1254836"><ele>179.0</ele><time>2026-04-11T15:09:11.065Z</time></trkpt><trkpt lat="45.7902248" lon="12.1255295"><ele>179.0</ele><time>2026-04-11T15:09:12.065Z</time></trkpt><trkpt lat="45.7903071" lon="12.1255848"><ele>179.0</ele><time>2026-04-11T15:09:13.065Z</time></trkpt><trkpt lat="45.7903926" lon="12.1256374"><ele>180.66666666666666</ele><time>2026-04-11T15:09:14.068Z</time></trkpt><trkpt lat="45.790463" lon="12.1256752"><ele>182.33333333333331</ele><time>2026-04-11T15:09:15.071Z</time></trkpt><trkpt lat="45.7905363" lon="12.1257138"><ele>184.0</ele><time>2026-04-11T15:09:16.062Z</time></trkpt><trkpt lat="45.7906042" lon="12.1257267"><ele>185.66666666666666</ele><time>2026-04-11T15:09:17.062Z</time></trkpt><trkpt lat="45.7906887" lon="12.1257308"><ele>187.33333333333334</ele><time>2026-04-11T15:09:18.068Z</time></trkpt><trkpt lat="45.7907837" lon="12.1257259"><ele>189.0</ele><time>2026-04-11T15:09:19.067Z</time></trkpt><trkpt lat="45.7908903" lon="12.1257105"><ele>192.75</ele><time>2026-04-11T15:09:20.071Z</time></trkpt><trkpt lat="45.7910277" lon="12.1256931"><ele>196.5</ele><time>2026-04-11T15:09:21.066Z</time></trkpt><trkpt lat="45.7911651" lon="12.1256779"><ele>200.25</ele><time>2026-04-11T15:09:22.062Z</time></trkpt><trkpt lat="45.7912933" lon="12.125658"><ele>204.0</ele><time>2026-04-11T15:09:23.067Z</time></trkpt><trkpt lat="45.791417" lon="12.1256288"><ele>204.0</ele><time>2026-04-11T15:09:24.066Z</time></trkpt><trkpt lat="45.7915275" lon="12.1255945"><ele>204.0</ele><time>2026-04-11T15:09:25.062Z</time></trkpt><trkpt lat="45.7916463" lon="12.1255604"><ele>204.0</ele><time>2026-04-11T15:09:26.064Z</time></trkpt><trkpt lat="45.7917592" lon="12.1255302"><ele>204.0</ele><time>2026-04-11T15:09:27.065Z</time></trkpt><trkpt lat="45.7918654" lon="12.1254873"><ele>205.66666666666666</ele><time>2026-04-11T15:09:28.068Z</time></trkpt><trkpt lat="45.7919444" lon="12.1254504"><ele>207.33333333333331</ele><time>2026-04-11T15:09:29.076Z</time></trkpt><trkpt lat="45.7920133" lon="12.1254065"><ele>209.0</ele><time>2026-04-11T15:09:30.071Z</time></trkpt><trkpt lat="45.7920938" lon="12.1253753"><ele>210.66666666666666</ele><time>2026-04-11T15:09:31.065Z</time></trkpt><trkpt lat="45.7921773" lon="12.1253561"><ele>212.33333333333331</ele><time>2026-04-11T15:09:32.075Z</time></trkpt><trkpt lat="45.7922586" lon="12.1253499"><ele>214.0</ele><time>2026-04-11T15:09:33.073Z</time></trkpt><trkpt lat="45.7923357" lon="12.1253731"><ele>213.99999999999997</ele><time>2026-04-11T15:09:34.064Z</time></trkpt><trkpt lat="45.7924202" lon="12.1254056"><ele>214.0</ele><time>2026-04-11T15:09:35.064Z</time></trkpt><trkpt lat="45.7925018" lon="12.1254558"><ele>214.0</ele><time>2026-04-11T15:09:36.07Z</time></trkpt><trkpt lat="45.792588" lon="12.1255075"><ele>214.0</ele><time>2026-04-11T15:09:37.067Z</time></trkpt><trkpt lat="45.7926637" lon="12.1255571"><ele>213.99999999999997</ele><time>2026-04-11T15:09:38.068Z</time></trkpt><trkpt lat="45.7927261" lon="12.1255763"><ele>214.0</ele><time>2026-04-11T15:09:39.067Z</time></trkpt><trkpt lat="45.7928327" lon="12.1255918"><ele>215.5</ele><time>2026-04-11T15:09:41.067Z</time></trkpt><trkpt lat="45.7929219" lon="12.1255574"><ele>217.0</ele><time>2026-04-11T15:09:43.073Z</time></trkpt><trkpt lat="45.7930524" lon="12.125403"><ele>218.5</ele><time>2026-04-11T15:09:45.065Z</time></trkpt><trkpt lat="45.7931362" lon="12.1253259"><ele>220.0</ele><time>2026-04-11T15:09:46.066Z</time></trkpt><trkpt lat="45.7932158" lon="12.1252404"><ele>220.0</ele><time>2026-04-11T15:09:47.061Z</time></trkpt><trkpt lat="45.7933079" lon="12.125167"><ele>220.0</ele><time>2026-04-11T15:09:48.068Z</time></trkpt><trkpt lat="45.7933976" lon="12.1250949"><ele>220.0</ele><time>2026-04-11T15:09:49.064Z</time></trkpt><trkpt lat="45.7934901" lon="12.1250134"><ele>220.0</ele><time>2026-04-11T15:09:50.07Z</time></trkpt><trkpt lat="45.7935608" lon="12.124948"><ele>220.0</ele><time>2026-04-11T15:09:51.067Z</time></trkpt><trkpt lat="45.7936433" lon="12.1248835"><ele>221.2</ele><time>2026-04-11T15:09:52.072Z</time></trkpt><trkpt lat="45.7937339" lon="12.124812"><ele>222.4</ele><time>2026-04-11T15:09:53.066Z</time></trkpt><trkpt lat="45.7938251" lon="12.1247428"><ele>223.60000000000002</ele><time>2026-04-11T15:09:54.066Z</time></trkpt><trkpt lat="45.7939135" lon="12.1246709"><ele>224.8</ele><time>2026-04-11T15:09:55.062Z</time></trkpt><trkpt lat="45.7940021" lon="12.1245807"><ele>226.0</ele><time>2026-04-11T15:09:56.064Z</time></trkpt><trkpt lat="45.7940826" lon="12.124501"><ele>225.99999999999997</ele><time>2026-04-11T15:09:57.074Z</time></trkpt><trkpt lat="45.7941631" lon="12.1244183"><ele>226.0</ele><time>2026-04-11T15:09:58.07Z</time></trkpt><trkpt lat="45.7942289" lon="12.1243641"><ele>226.0</ele><time>2026-04-11T15:09:59.082Z</time></trkpt><trkpt lat="45.7943078" lon="12.1243221"><ele>226.0</ele><time>2026-04-11T15:10:00.064Z</time></trkpt><trkpt lat="45.7943971" lon="12.1243016"><ele>225.99999999999997</ele><time>2026-04-11T15:10:01.062Z</time></trkpt><trkpt lat="45.7944917" lon="12.1242932"><ele>226.0</ele><time>2026-04-11T15:10:02.071Z</time></trkpt><trkpt lat="45.79459" lon="12.1243034"><ele>226.33333333333331</ele><time>2026-04-11T15:10:03.062Z</time></trkpt><trkpt lat="45.7946868" lon="12.1243075"><ele>226.66666666666666</ele><time>2026-04-11T15:10:04.063Z</time></trkpt><trkpt lat="45.7947592" lon="12.1243073"><ele>227.0</ele><time>2026-04-11T15:10:05.069Z</time></trkpt><trkpt lat="45.794832" lon="12.1243043"><ele>227.33333333333331</ele><time>2026-04-11T15:10:06.07Z</time></trkpt><trkpt lat="45.7948952" lon="12.1242786"><ele>227.66666666666666</ele><time>2026-04-11T15:10:07.063Z</time></trkpt><trkpt lat="45.7950032" lon="12.1241842"><ele>228.0</ele><time>2026-04-11T15:10:09.07Z</time></trkpt><trkpt lat="45.7950619" lon="12.1240872"><ele>229.2</ele><time>2026-04-11T15:10:10.069Z</time></trkpt><trkpt lat="45.7950984" lon="12.1239513"><ele>230.4</ele><time>2026-04-11T15:10:11.073Z</time></trkpt><trkpt lat="45.7951456" lon="12.1238468"><ele>231.59999999999997</ele><time>2026-04-11T15:10:12.067Z</time></trkpt><trkpt lat="45.7952028" lon="12.1237425"><ele>232.79999999999998</ele><time>2026-04-11T15:10:13.059Z</time></trkpt><trkpt lat="45.795266" lon="12.1236441"><ele>234.0</ele><time>2026-04-11T15:10:14.065Z</time></trkpt><trkpt lat="45.7953338" lon="12.1235533"><ele>234.0</ele><time>2026-04-11T15:10:15.069Z</time></trkpt><trkpt lat="45.7953822" lon="12.1234655"><ele>234.0</ele><time>2026-04-11T15:10:16.067Z</time></trkpt><trkpt lat="45.7954354" lon="12.1233553"><ele>234.0</ele><time>2026-04-11T15:10:17.068Z</time></trkpt><trkpt lat="45.7954798" lon="12.1232466"><ele>234.0</ele><time>2026-04-11T15:10:18.065Z</time></trkpt><trkpt lat="45.7955301" lon="12.1231487"><ele>234.0</ele><time>2026-04-11T15:10:19.072Z</time></trkpt><trkpt lat="45.7955838" lon="12.1230673"><ele>234.0</ele><time>2026-04-11T15:10:20.066Z</time></trkpt><trkpt lat="45.795649" lon="12.1229921"><ele>235.79999999999998</ele><time>2026-04-11T15:10:21.072Z</time></trkpt><trkpt lat="45.7957265" lon="12.122938"><ele>237.59999999999997</ele><time>2026-04-11T15:10:22.07Z</time></trkpt><trkpt lat="45.7958162" lon="12.1228913"><ele>239.4</ele><time>2026-04-11T15:10:23.066Z</time></trkpt><trkpt lat="45.7959226" lon="12.1228271"><ele>241.2</ele><time>2026-04-11T15:10:24.066Z</time></trkpt><trkpt lat="45.7960101" lon="12.1227653"><ele>243.0</ele><time>2026-04-11T15:10:25.07Z</time></trkpt><trkpt lat="45.7960925" lon="12.1227118"><ele>243.5</ele><time>2026-04-11T15:10:26.068Z</time></trkpt><trkpt lat="45.7961596" lon="12.1226648"><ele>244.0</ele><time>2026-04-11T15:10:27.064Z</time></trkpt><trkpt lat="45.7962237" lon="12.122631"><ele>244.5</ele><time>2026-04-11T15:10:28.07Z</time></trkpt><trkpt lat="45.79631" lon="12.1225978"><ele>245.0</ele><time>2026-04-11T15:10:30.071Z</time></trkpt><trkpt lat="45.7963744" lon="12.1226659"><ele>245.5</ele><time>2026-04-11T15:10:32.065Z</time></trkpt><trkpt lat="45.7963652" lon="12.1227663"><ele>246.0</ele><time>2026-04-11T15:10:34.061Z</time></trkpt><trkpt lat="45.7962979" lon="12.1228857"><ele>246.0</ele><time>2026-04-11T15:10:36.076Z</time></trkpt><trkpt lat="45.7962173" lon="12.1230182"><ele>246.0</ele><time>2026-04-11T15:10:38.069Z</time></trkpt><trkpt lat="45.7961814" lon="12.1231401"><ele>246.0</ele><time>2026-04-11T15:10:40.085Z</time></trkpt><trkpt lat="45.7962227" lon="12.1232133"><ele>246.0</ele><time>2026-04-11T15:10:43.071Z</time></trkpt><trkpt lat="45.7963028" lon="12.1231333"><ele>246.0</ele><time>2026-04-11T15:10:46.075Z</time></trkpt><trkpt lat="45.7963532" lon="12.1230714"><ele>246.0</ele><time>2026-04-11T15:10:47.063Z</time></trkpt><trkpt lat="45.796414" lon="12.1230387"><ele>246.0</ele><time>2026-04-11T15:10:48.067Z</time></trkpt><trkpt lat="45.7964818" lon="12.1230062"><ele>246.00000000000003</ele><time>2026-04-11T15:10:49.067Z</time></trkpt><trkpt lat="45.7966017" lon="12.1229424"><ele>246.00000000000003</ele><time>2026-04-11T15:10:51.066Z</time></trkpt><trkpt lat="45.7967218" lon="12.1228768"><ele>246.0</ele><time>2026-04-11T15:10:53.062Z</time></trkpt><trkpt lat="45.7968336" lon="12.122836"><ele>246.0</ele><time>2026-04-11T15:10:55.077Z</time></trkpt><trkpt lat="45.7969419" lon="12.1228274"><ele>247.33333333333334</ele><time>2026-04-11T15:10:57.08Z</time></trkpt><trkpt lat="45.7970081" lon="12.12283"><ele>248.66666666666669</ele><time>2026-04-11T15:10:58.074Z</time></trkpt><trkpt lat="45.797114" lon="12.122769"><ele>250.0</ele><time>2026-04-11T15:11:00.062Z</time></trkpt><trkpt lat="45.7971639" lon="12.1226937"><ele>251.33333333333334</ele><time>2026-04-11T15:11:01.068Z</time></trkpt><trkpt lat="45.7972108" lon="12.1226321"><ele>252.66666666666669</ele><time>2026-04-11T15:11:02.067Z</time></trkpt><trkpt lat="45.7972583" lon="12.1225631"><ele>254.0</ele><time>2026-04-11T15:11:03.074Z</time></trkpt><trkpt lat="45.797316" lon="12.1224077"><ele>255.00000000000003</ele><time>2026-04-11T15:11:04.061Z</time></trkpt><trkpt lat="45.7973663" lon="12.122299"><ele>256.0</ele><time>2026-04-11T15:11:05.064Z</time></trkpt><trkpt lat="45.7973978" lon="12.1222156"><ele>257.0</ele><time>2026-04-11T15:11:06.063Z</time></trkpt><trkpt lat="45.7974411" lon="12.1221196"><ele>258.0</ele><time>2026-04-11T15:11:07.067Z</time></trkpt><trkpt lat="45.7975513" lon="12.1220819"><ele>259.0</ele><time>2026-04-11T15:11:09.073Z</time></trkpt><trkpt lat="45.7976237" lon="12.122045"><ele>260.0</ele><time>2026-04-11T15:11:10.07Z</time></trkpt><trkpt lat="45.7976914" lon="12.1220009"><ele>262.6666666666667</ele><time>2026-04-11T15:11:11.069Z</time></trkpt><trkpt lat="45.7977496" lon="12.1219553"><ele>265.33333333333337</ele><time>2026-04-11T15:11:12.079Z</time></trkpt><trkpt lat="45.7978663" lon="12.121957"><ele>268.0</ele><time>2026-04-11T15:11:14.069Z</time></trkpt><trkpt lat="45.7979452" lon="12.1219646"><ele>270.6666666666667</ele><time>2026-04-11T15:11:15.064Z</time></trkpt><trkpt lat="45.7980138" lon="12.1219753"><ele>273.3333333333333</ele><time>2026-04-11T15:11:16.068Z</time></trkpt><trkpt lat="45.7980904" lon="12.1219796"><ele>276.0</ele><time>2026-04-11T15:11:17.061Z</time></trkpt><trkpt lat="45.7981605" lon="12.1220321"><ele>276.0</ele><time>2026-04-11T15:11:19.069Z</time></trkpt><trkpt lat="45.7982283" lon="12.1221249"><ele>276.0</ele><time>2026-04-11T15:11:21.064Z</time></trkpt><trkpt lat="45.7982841" lon="12.1222648"><ele>276.0</ele><time>2026-04-11T15:11:23.071Z</time></trkpt><trkpt lat="45.7983472" lon="12.1224253"><ele>276.0</ele><time>2026-04-11T15:11:25.065Z</time></trkpt><trkpt lat="45.7984083" lon="12.1225859"><ele>278.5</ele><time>2026-04-11T15:11:27.064Z</time></trkpt><trkpt lat="45.7984882" lon="12.122722"><ele>281.0</ele><time>2026-04-11T15:11:29.067Z</time></trkpt><trkpt lat="45.7985747" lon="12.1228419"><ele>283.5</ele><time>2026-04-11T15:11:31.062Z</time></trkpt><trkpt lat="45.7986587" lon="12.1229451"><ele>286.0</ele><time>2026-04-11T15:11:33.072Z</time></trkpt><trkpt lat="45.7987433" lon="12.1230444"><ele>286.0</ele><time>2026-04-11T15:11:35.067Z</time></trkpt><trkpt lat="45.7988296" lon="12.1231343"><ele>286.0</ele><time>2026-04-11T15:11:37.066Z</time></trkpt><trkpt lat="45.7988854" lon="12.1231827"><ele>286.0</ele><time>2026-04-11T15:11:38.064Z</time></trkpt><trkpt lat="45.7989869" lon="12.1232852"><ele>286.0</ele><time>2026-04-11T15:11:40.066Z</time></trkpt><trkpt lat="45.7990748" lon="12.1233379"><ele>286.0</ele><time>2026-04-11T15:11:42.062Z</time></trkpt><trkpt lat="45.7991962" lon="12.1234105"><ele>286.3333333333333</ele><time>2026-04-11T15:11:44.065Z</time></trkpt><trkpt lat="45.7992614" lon="12.1234573"><ele>286.66666666666663</ele><time>2026-04-11T15:11:45.066Z</time></trkpt><trkpt lat="45.7993233" lon="12.1235119"><ele>287.0</ele><time>2026-04-11T15:11:46.073Z</time></trkpt><trkpt lat="45.7993879" lon="12.1235662"><ele>287.3333333333333</ele><time>2026-04-11T15:11:47.075Z</time></trkpt><trkpt lat="45.799444" lon="12.1236213"><ele>287.6666666666667</ele><time>2026-04-11T15:11:48.068Z</time></trkpt><trkpt lat="45.7995461" lon="12.1237215"><ele>288.0</ele><time>2026-04-11T15:11:50.071Z</time></trkpt><trkpt lat="45.7996486" lon="12.1238262"><ele>288.0</ele><time>2026-04-11T15:11:52.062Z</time></trkpt><trkpt lat="45.7997465" lon="12.1239161"><ele>288.0</ele><time>2026-04-11T15:11:54.062Z</time></trkpt><trkpt lat="45.7998394" lon="12.123994"><ele>288.0</ele><time>2026-04-11T15:11:56.077Z</time></trkpt><trkpt lat="45.7999462" lon="12.1240506"><ele>288.0</ele><time>2026-04-11T15:11:58.063Z</time></trkpt><trkpt lat="45.8000441" lon="12.1241395"><ele>288.3333333333333</ele><time>2026-04-11T15:12:00.062Z</time></trkpt><trkpt lat="45.8001489" lon="12.1242365"><ele>288.6666666666667</ele><time>2026-04-11T15:12:02.072Z</time></trkpt><trkpt lat="45.8002139" lon="12.1242751"><ele>289.0</ele><time>2026-04-11T15:12:03.069Z</time></trkpt><trkpt lat="45.8002827" lon="12.124306"><ele>289.33333333333337</ele><time>2026-04-11T15:12:04.063Z</time></trkpt><trkpt lat="45.8003575" lon="12.1243198"><ele>289.6666666666667</ele><time>2026-04-11T15:12:05.068Z</time></trkpt><trkpt lat="45.8004269" lon="12.1243276"><ele>290.0</ele><time>2026-04-11T15:12:06.072Z</time></trkpt><trkpt lat="45.8004973" lon="12.1243238"><ele>290.8</ele><time>2026-04-11T15:12:07.064Z</time></trkpt><trkpt lat="45.8005891" lon="12.1243224"><ele>291.6</ele><time>2026-04-11T15:12:08.059Z</time></trkpt><trkpt lat="45.8006958" lon="12.1243162"><ele>292.4</ele><time>2026-04-11T15:12:09.067Z</time></trkpt><trkpt lat="45.8007973" lon="12.1243166"><ele>293.2</ele><time>2026-04-11T15:12:10.063Z</time></trkpt><trkpt lat="45.8009037" lon="12.1243255"><ele>294.0</ele><time>2026-04-11T15:12:11.066Z</time></trkpt><trkpt lat="45.8010106" lon="12.1243234"><ele>294.2</ele><time>2026-04-11T15:12:12.066Z</time></trkpt><trkpt lat="45.8011227" lon="12.1243184"><ele>294.4</ele><time>2026-04-11T15:12:13.077Z</time></trkpt><trkpt lat="45.8012247" lon="12.1243146"><ele>294.6</ele><time>2026-04-11T15:12:14.061Z</time></trkpt><trkpt lat="45.8013278" lon="12.124307"><ele>294.8</ele><time>2026-04-11T15:12:15.062Z</time></trkpt><trkpt lat="45.8014284" lon="12.1242983"><ele>295.0</ele><time>2026-04-11T15:12:16.067Z</time></trkpt><trkpt lat="45.8015238" lon="12.1242882"><ele>295.0</ele><time>2026-04-11T15:12:17.064Z</time></trkpt><trkpt lat="45.8016175" lon="12.1242846"><ele>295.0</ele><time>2026-04-11T15:12:18.07Z</time></trkpt><trkpt lat="45.8016946" lon="12.1242752"><ele>295.0</ele><time>2026-04-11T15:12:19.069Z</time></trkpt><trkpt lat="45.8017876" lon="12.124261"><ele>295.0</ele><time>2026-04-11T15:12:20.066Z</time></trkpt><trkpt lat="45.8018779" lon="12.1242516"><ele>295.0</ele><time>2026-04-11T15:12:21.062Z</time></trkpt><trkpt lat="45.8019477" lon="12.124246"><ele>295.0</ele><time>2026-04-11T15:12:22.069Z</time></trkpt><trkpt lat="45.8020198" lon="12.1242365"><ele>295.2</ele><time>2026-04-11T15:12:23.071Z</time></trkpt><trkpt lat="45.8021183" lon="12.1242337"><ele>295.4</ele><time>2026-04-11T15:12:25.061Z</time></trkpt><trkpt lat="45.802229" lon="12.1242271"><ele>295.6</ele><time>2026-04-11T15:12:27.061Z</time></trkpt><trkpt lat="45.8023482" lon="12.1242352"><ele>295.8</ele><time>2026-04-11T15:12:29.068Z</time></trkpt><trkpt lat="45.8024139" lon="12.1242416"><ele>296.0</ele><time>2026-04-11T15:12:30.063Z</time></trkpt><trkpt lat="45.8025389" lon="12.1242789"><ele>296.0</ele><time>2026-04-11T15:12:32.063Z</time></trkpt><trkpt lat="45.8026096" lon="12.1242944"><ele>296.0</ele><time>2026-04-11T15:12:33.06Z</time></trkpt><trkpt lat="45.8026849" lon="12.1243166"><ele>296.0</ele><time>2026-04-11T15:12:34.059Z</time></trkpt><trkpt lat="45.8027498" lon="12.1243189"><ele>296.0</ele><time>2026-04-11T15:12:35.067Z</time></trkpt><trkpt lat="45.8028174" lon="12.1243231"><ele>296.0</ele><time>2026-04-11T15:12:36.061Z</time></trkpt><trkpt lat="45.802884" lon="12.1243223"><ele>296.0</ele><time>2026-04-11T15:12:37.064Z</time></trkpt><trkpt lat="45.8029465" lon="12.1243046"><ele>296.0</ele><time>2026-04-11T15:12:38.075Z</time></trkpt><trkpt lat="45.8030586" lon="12.1242684"><ele>295.8</ele><time>2026-04-11T15:12:40.084Z</time></trkpt><trkpt lat="45.8031634" lon="12.124166"><ele>295.6</ele><time>2026-04-11T15:12:42.067Z</time></trkpt><trkpt lat="45.8032163" lon="12.1241054"><ele>295.4</ele><time>2026-04-11T15:12:43.062Z</time></trkpt><trkpt lat="45.8032862" lon="12.1239805"><ele>295.2</ele><time>2026-04-11T15:12:44.075Z</time></trkpt><trkpt lat="45.8033298" lon="12.1238839"><ele>295.0</ele><time>2026-04-11T15:12:45.068Z</time></trkpt><trkpt lat="45.8033815" lon="12.1237785"><ele>296.2</ele><time>2026-04-11T15:12:46.072Z</time></trkpt><trkpt lat="45.8034197" lon="12.1236759"><ele>297.4</ele><time>2026-04-11T15:12:47.064Z</time></trkpt><trkpt lat="45.8035143" lon="12.123572"><ele>298.6</ele><time>2026-04-11T15:12:49.067Z</time></trkpt><trkpt lat="45.8036271" lon="12.1235364"><ele>299.8</ele><time>2026-04-11T15:12:51.069Z</time></trkpt><trkpt lat="45.8037299" lon="12.1235771"><ele>301.0</ele><time>2026-04-11T15:12:53.075Z</time></trkpt><trkpt lat="45.8037904" lon="12.123713"><ele>301.16666666666663</ele><time>2026-04-11T15:12:55.07Z</time></trkpt><trkpt lat="45.8038017" lon="12.1238227"><ele>301.3333333333333</ele><time>2026-04-11T15:12:56.062Z</time></trkpt><trkpt lat="45.8038075" lon="12.1239495"><ele>301.5</ele><time>2026-04-11T15:12:57.072Z</time></trkpt><trkpt lat="45.8038194" lon="12.1240765"><ele>301.6666666666667</ele><time>2026-04-11T15:12:58.063Z</time></trkpt><trkpt lat="45.8038388" lon="12.1241878"><ele>301.83333333333337</ele><time>2026-04-11T15:12:59.072Z</time></trkpt><trkpt lat="45.8038653" lon="12.124286"><ele>302.0</ele><time>2026-04-11T15:13:00.06Z</time></trkpt><trkpt lat="45.8039265" lon="12.1244282"><ele>302.0</ele><time>2026-04-11T15:13:02.062Z</time></trkpt><trkpt lat="45.8040115" lon="12.1245167"><ele>302.0</ele><time>2026-04-11T15:13:04.07Z</time></trkpt><trkpt lat="45.8041327" lon="12.1245654"><ele>302.0</ele><time>2026-04-11T15:13:06.064Z</time></trkpt><trkpt lat="45.8042052" lon="12.1245787"><ele>302.0</ele><time>2026-04-11T15:13:07.065Z</time></trkpt><trkpt lat="45.8042779" lon="12.124591"><ele>302.0</ele><time>2026-04-11T15:13:08.065Z</time></trkpt><trkpt lat="45.8044017" lon="12.1246191"><ele>302.1666666666667</ele><time>2026-04-11T15:13:10.067Z</time></trkpt><trkpt lat="45.8044686" lon="12.1246157"><ele>302.33333333333337</ele><time>2026-04-11T15:13:11.063Z</time></trkpt><trkpt lat="45.8045597" lon="12.1246464"><ele>302.5</ele><time>2026-04-11T15:13:13.068Z</time></trkpt><trkpt lat="45.8046578" lon="12.124702"><ele>302.6666666666667</ele><time>2026-04-11T15:13:15.069Z</time></trkpt><trkpt lat="45.8047623" lon="12.1247694"><ele>302.8333333333333</ele><time>2026-04-11T15:13:17.064Z</time></trkpt><trkpt lat="45.8048216" lon="12.1248166"><ele>303.0</ele><time>2026-04-11T15:13:18.065Z</time></trkpt><trkpt lat="45.804877" lon="12.1248637"><ele>302.8333333333333</ele><time>2026-04-11T15:13:19.068Z</time></trkpt><trkpt lat="45.8049337" lon="12.1249115"><ele>302.6666666666667</ele><time>2026-04-11T15:13:20.063Z</time></trkpt><trkpt lat="45.8050338" lon="12.1250201"><ele>302.5</ele><time>2026-04-11T15:13:22.07Z</time></trkpt><trkpt lat="45.8050901" lon="12.1250895"><ele>302.33333333333337</ele><time>2026-04-11T15:13:23.071Z</time></trkpt><trkpt lat="45.8051387" lon="12.1251513"><ele>302.1666666666667</ele><time>2026-04-11T15:13:24.061Z</time></trkpt><trkpt lat="45.8051852" lon="12.125217"><ele>302.0</ele><time>2026-04-11T15:13:25.065Z</time></trkpt><trkpt lat="45.8052641" lon="12.1252949"><ele>303.8</ele><time>2026-04-11T15:13:27.062Z</time></trkpt><trkpt lat="45.8053492" lon="12.1253209"><ele>305.6</ele><time>2026-04-11T15:13:29.065Z</time></trkpt><trkpt lat="45.8054123" lon="12.125312"><ele>307.40000000000003</ele><time>2026-04-11T15:13:30.061Z</time></trkpt><trkpt lat="45.8055404" lon="12.1252733"><ele>309.2</ele><time>2026-04-11T15:13:32.064Z</time></trkpt><trkpt lat="45.8056203" lon="12.1252495"><ele>311.0</ele><time>2026-04-11T15:13:33.063Z</time></trkpt><trkpt lat="45.8057137" lon="12.1252042"><ele>311.0</ele><time>2026-04-11T15:13:34.06Z</time></trkpt><trkpt lat="45.8057932" lon="12.125168"><ele>311.0</ele><time>2026-04-11T15:13:35.067Z</time></trkpt><trkpt lat="45.8059153" lon="12.1251331"><ele>311.0</ele><time>2026-04-11T15:13:37.062Z</time></trkpt><trkpt lat="45.8059792" lon="12.1251113"><ele>311.0</ele><time>2026-04-11T15:13:38.07Z</time></trkpt><trkpt lat="45.806072" lon="12.1250835"><ele>311.0</ele><time>2026-04-11T15:13:39.062Z</time></trkpt><trkpt lat="45.8061523" lon="12.1250629"><ele>311.40000000000003</ele><time>2026-04-11T15:13:40.071Z</time></trkpt><trkpt lat="45.8062459" lon="12.1250605"><ele>311.8</ele><time>2026-04-11T15:13:41.061Z</time></trkpt><trkpt lat="45.8063384" lon="12.1250683"><ele>312.20000000000005</ele><time>2026-04-11T15:13:42.064Z</time></trkpt><trkpt lat="45.8064234" lon="12.1250695"><ele>312.6</ele><time>2026-04-11T15:13:43.065Z</time></trkpt><trkpt lat="45.8065052" lon="12.1250765"><ele>313.0</ele><time>2026-04-11T15:13:44.065Z</time></trkpt><trkpt lat="45.8066092" lon="12.1250932"><ele>313.0</ele><time>2026-04-11T15:13:46.062Z</time></trkpt><trkpt lat="45.8066773" lon="12.1251008"><ele>313.0</ele><time>2026-04-11T15:13:47.068Z</time></trkpt><trkpt lat="45.806759" lon="12.1251072"><ele>313.0</ele><time>2026-04-11T15:13:48.062Z</time></trkpt><trkpt lat="45.8068363" lon="12.1251249"><ele>313.0</ele><time>2026-04-11T15:13:49.068Z</time></trkpt><trkpt lat="45.8069228" lon="12.1251275"><ele>313.0</ele><time>2026-04-11T15:13:50.065Z</time></trkpt><trkpt lat="45.807013" lon="12.1251329"><ele>313.0</ele><time>2026-04-11T15:13:51.066Z</time></trkpt><trkpt lat="45.8071001" lon="12.1251427"><ele>312.5</ele><time>2026-04-11T15:13:52.063Z</time></trkpt><trkpt lat="45.8071729" lon="12.1251446"><ele>312.0</ele><time>2026-04-11T15:13:53.065Z</time></trkpt><trkpt lat="45.8072547" lon="12.1251426"><ele>311.5</ele><time>2026-04-11T15:13:54.066Z</time></trkpt><trkpt lat="45.8073433" lon="12.1251368"><ele>311.0</ele><time>2026-04-11T15:13:55.066Z</time></trkpt><trkpt lat="45.8074334" lon="12.1251275"><ele>310.5</ele><time>2026-04-11T15:13:56.06Z</time></trkpt><trkpt lat="45.8075269" lon="12.1251129"><ele>310.0</ele><time>2026-04-11T15:13:57.064Z</time></trkpt><trkpt lat="45.8076279" lon="12.1251023"><ele>310.4</ele><time>2026-04-11T15:13:58.077Z</time></trkpt><trkpt lat="45.8077212" lon="12.1250827"><ele>310.8</ele><time>2026-04-11T15:13:59.063Z</time></trkpt><trkpt lat="45.8078195" lon="12.1250571"><ele>311.2</ele><time>2026-04-11T15:14:00.061Z</time></trkpt><trkpt lat="45.8079183" lon="12.1250061"><ele>311.6</ele><time>2026-04-11T15:14:01.062Z</time></trkpt><trkpt lat="45.8080196" lon="12.1249592"><ele>312.0</ele><time>2026-04-11T15:14:02.065Z</time></trkpt><trkpt lat="45.8081189" lon="12.1249156"><ele>312.6666666666667</ele><time>2026-04-11T15:14:03.072Z</time></trkpt><trkpt lat="45.8082037" lon="12.1248819"><ele>313.3333333333333</ele><time>2026-04-11T15:14:04.063Z</time></trkpt><trkpt lat="45.8082822" lon="12.1248648"><ele>314.0</ele><time>2026-04-11T15:14:05.059Z</time></trkpt><trkpt lat="45.808375" lon="12.1248579"><ele>314.66666666666663</ele><time>2026-04-11T15:14:06.061Z</time></trkpt><trkpt lat="45.8084607" lon="12.1248613"><ele>315.3333333333333</ele><time>2026-04-11T15:14:07.066Z</time></trkpt><trkpt lat="45.8085455" lon="12.1248561"><ele>316.0</ele><time>2026-04-11T15:14:08.065Z</time></trkpt><trkpt lat="45.8086151" lon="12.1248285"><ele>316.5</ele><time>2026-04-11T15:14:09.066Z</time></trkpt><trkpt lat="45.808686" lon="12.1248141"><ele>317.0</ele><time>2026-04-11T15:14:10.066Z</time></trkpt><trkpt lat="45.8087762" lon="12.1247118"><ele>317.5</ele><time>2026-04-11T15:14:11.064Z</time></trkpt><trkpt lat="45.8088509" lon="12.1246602"><ele>318.0</ele><time>2026-04-11T15:14:12.067Z</time></trkpt><trkpt lat="45.8089304" lon="12.1246092"><ele>318.5</ele><time>2026-04-11T15:14:13.064Z</time></trkpt><trkpt lat="45.8090081" lon="12.1245996"><ele>319.0</ele><time>2026-04-11T15:14:14.073Z</time></trkpt><trkpt lat="45.8090713" lon="12.1245845"><ele>319.0</ele><time>2026-04-11T15:14:15.059Z</time></trkpt><trkpt lat="45.8091413" lon="12.1245724"><ele>319.0</ele><time>2026-04-11T15:14:16.066Z</time></trkpt><trkpt lat="45.8092711" lon="12.1245117"><ele>319.0</ele><time>2026-04-11T15:14:18.073Z</time></trkpt><trkpt lat="45.8093513" lon="12.1244712"><ele>319.0</ele><time>2026-04-11T15:14:19.074Z</time></trkpt><trkpt lat="45.8094277" lon="12.1244095"><ele>319.0</ele><time>2026-04-11T15:14:20.069Z</time></trkpt><trkpt lat="45.8095059" lon="12.1243949"><ele>318.8333333333333</ele><time>2026-04-11T15:14:21.063Z</time></trkpt><trkpt lat="45.8095685" lon="12.1243752"><ele>318.66666666666663</ele><time>2026-04-11T15:14:22.069Z</time></trkpt><trkpt lat="45.809692" lon="12.1244378"><ele>318.5</ele><time>2026-04-11T15:14:24.063Z</time></trkpt><trkpt lat="45.8097564" lon="12.1244555"><ele>318.3333333333333</ele><time>2026-04-11T15:14:25.067Z</time></trkpt><trkpt lat="45.8098135" lon="12.124515"><ele>318.1666666666667</ele><time>2026-04-11T15:14:26.066Z</time></trkpt><trkpt lat="45.8098572" lon="12.1245805"><ele>318.0</ele><time>2026-04-11T15:14:27.061Z</time></trkpt><trkpt lat="45.8099121" lon="12.1246347"><ele>318.0</ele><time>2026-04-11T15:14:28.061Z</time></trkpt><trkpt lat="45.8100084" lon="12.1247133"><ele>318.0</ele><time>2026-04-11T15:14:30.072Z</time></trkpt><trkpt lat="45.8101045" lon="12.1247578"><ele>318.0</ele><time>2026-04-11T15:14:32.074Z</time></trkpt><trkpt lat="45.8102248" lon="12.1248158"><ele>318.0</ele><time>2026-04-11T15:14:34.074Z</time></trkpt><trkpt lat="45.8102877" lon="12.1248817"><ele>318.0</ele><time>2026-04-11T15:14:35.071Z</time></trkpt><trkpt lat="45.8103717" lon="12.1249498"><ele>316.5</ele><time>2026-04-11T15:14:36.061Z</time></trkpt><trkpt lat="45.8104309" lon="12.1250005"><ele>315.0</ele><time>2026-04-11T15:14:37.07Z</time></trkpt><trkpt lat="45.8105076" lon="12.1250606"><ele>313.5</ele><time>2026-04-11T15:14:38.071Z</time></trkpt><trkpt lat="45.8105627" lon="12.1251269"><ele>312.0</ele><time>2026-04-11T15:14:39.074Z</time></trkpt><trkpt lat="45.8106446" lon="12.1252149"><ele>310.5</ele><time>2026-04-11T15:14:40.062Z</time></trkpt><trkpt lat="45.8107021" lon="12.1252937"><ele>309.0</ele><time>2026-04-11T15:14:41.06Z</time></trkpt><trkpt lat="45.8107689" lon="12.1253658"><ele>309.0</ele><time>2026-04-11T15:14:42.061Z</time></trkpt><trkpt lat="45.8108456" lon="12.1254686"><ele>309.0</ele><time>2026-04-11T15:14:43.062Z</time></trkpt><trkpt lat="45.8109153" lon="12.1255232"><ele>309.0</ele><time>2026-04-11T15:14:44.063Z</time></trkpt><trkpt lat="45.8109928" lon="12.1255956"><ele>309.0</ele><time>2026-04-11T15:14:45.072Z</time></trkpt><trkpt lat="45.811074" lon="12.1256579"><ele>309.0</ele><time>2026-04-11T15:14:46.067Z</time></trkpt><trkpt lat="45.8111794" lon="12.1257162"><ele>309.2</ele><time>2026-04-11T15:14:48.069Z</time></trkpt><trkpt lat="45.8113024" lon="12.1258067"><ele>309.4</ele><time>2026-04-11T15:14:50.061Z</time></trkpt><trkpt lat="45.8113052" lon="12.125953"><ele>309.6</ele><time>2026-04-11T15:14:52.065Z</time></trkpt><trkpt lat="45.8113578" lon="12.1260643"><ele>309.8</ele><time>2026-04-11T15:14:53.072Z</time></trkpt><trkpt lat="45.8113825" lon="12.1261746"><ele>310.0</ele><time>2026-04-11T15:14:54.066Z</time></trkpt><trkpt lat="45.8114024" lon="12.1262656"><ele>310.0</ele><time>2026-04-11T15:14:55.06Z</time></trkpt><trkpt lat="45.8114729" lon="12.1263763"><ele>310.0</ele><time>2026-04-11T15:14:57.072Z</time></trkpt><trkpt lat="45.8115906" lon="12.126422"><ele>310.0</ele><time>2026-04-11T15:14:59.063Z</time></trkpt><trkpt lat="45.8116712" lon="12.1262818"><ele>310.0</ele><time>2026-04-11T15:15:00.058Z</time></trkpt><trkpt lat="45.8117494" lon="12.1261777"><ele>310.0</ele><time>2026-04-11T15:15:02.072Z</time></trkpt><trkpt lat="45.811792" lon="12.1260894"><ele>310.0</ele><time>2026-04-11T15:15:03.069Z</time></trkpt><trkpt lat="45.8118375" lon="12.1259725"><ele>310.0</ele><time>2026-04-11T15:15:04.074Z</time></trkpt><trkpt lat="45.8118824" lon="12.125881"><ele>310.0</ele><time>2026-04-11T15:15:05.072Z</time></trkpt><trkpt lat="45.8119221" lon="12.1258085"><ele>310.0</ele><time>2026-04-11T15:15:06.069Z</time></trkpt><trkpt lat="45.8119799" lon="12.1257468"><ele>310.0</ele><time>2026-04-11T15:15:07.077Z</time></trkpt><trkpt lat="45.8120408" lon="12.1257067"><ele>310.0</ele><time>2026-04-11T15:15:08.065Z</time></trkpt><trkpt lat="45.8121089" lon="12.1256773"><ele>309.66666666666663</ele><time>2026-04-11T15:15:09.061Z</time></trkpt><trkpt lat="45.8121718" lon="12.1256697"><ele>309.3333333333333</ele><time>2026-04-11T15:15:10.066Z</time></trkpt><trkpt lat="45.8122373" lon="12.1256726"><ele>309.0</ele><time>2026-04-11T15:15:11.066Z</time></trkpt><trkpt lat="45.8123013" lon="12.125697"><ele>308.6666666666667</ele><time>2026-04-11T15:15:12.066Z</time></trkpt><trkpt lat="45.8123992" lon="12.1257785"><ele>308.33333333333337</ele><time>2026-04-11T15:15:14.066Z</time></trkpt><trkpt lat="45.8124664" lon="12.1259304"><ele>308.0</ele><time>2026-04-11T15:15:16.062Z</time></trkpt><trkpt lat="45.8124861" lon="12.1260413"><ele>306.8</ele><time>2026-04-11T15:15:17.066Z</time></trkpt><trkpt lat="45.8125072" lon="12.1261747"><ele>305.6</ele><time>2026-04-11T15:15:18.063Z</time></trkpt><trkpt lat="45.8125263" lon="12.1263115"><ele>304.4</ele><time>2026-04-11T15:15:19.062Z</time></trkpt><trkpt lat="45.8125497" lon="12.1264082"><ele>303.2</ele><time>2026-04-11T15:15:20.064Z</time></trkpt><trkpt lat="45.8126179" lon="12.1265222"><ele>302.0</ele><time>2026-04-11T15:15:22.071Z</time></trkpt><trkpt lat="45.8127135" lon="12.1265688"><ele>301.83333333333337</ele><time>2026-04-11T15:15:24.071Z</time></trkpt><trkpt lat="45.8127809" lon="12.1265807"><ele>301.6666666666667</ele><time>2026-04-11T15:15:25.066Z</time></trkpt><trkpt lat="45.8128786" lon="12.126556"><ele>301.5</ele><time>2026-04-11T15:15:26.068Z</time></trkpt><trkpt lat="45.8129691" lon="12.1265578"><ele>301.3333333333333</ele><time>2026-04-11T15:15:27.081Z</time></trkpt><trkpt lat="45.8130337" lon="12.1265751"><ele>301.16666666666663</ele><time>2026-04-11T15:15:28.061Z</time></trkpt><trkpt lat="45.8131342" lon="12.1266432"><ele>301.0</ele><time>2026-04-11T15:15:30.066Z</time></trkpt><trkpt lat="45.8131826" lon="12.1267124"><ele>301.0</ele><time>2026-04-11T15:15:31.07Z</time></trkpt><trkpt lat="45.813234" lon="12.1267995"><ele>301.0</ele><time>2026-04-11T15:15:32.069Z</time></trkpt><trkpt lat="45.8132792" lon="12.126878"><ele>301.0</ele><time>2026-04-11T15:15:33.075Z</time></trkpt><trkpt lat="45.8133536" lon="12.1269564"><ele>301.0</ele><time>2026-04-11T15:15:35.06Z</time></trkpt><trkpt lat="45.8134177" lon="12.1270005"><ele>301.0</ele><time>2026-04-11T15:15:40.067Z</time></trkpt><trkpt lat="45.8134847" lon="12.1270177"><ele>301.0</ele><time>2026-04-11T15:15:42.059Z</time></trkpt><trkpt lat="45.8134276" lon="12.1269593"><ele>301.0</ele><time>2026-04-11T15:15:47.061Z</time></trkpt><trkpt lat="45.8133593" lon="12.1269589"><ele>301.0</ele><time>2026-04-11T15:15:49.067Z</time></trkpt><trkpt lat="45.8132804" lon="12.1268518"><ele>301.0</ele><time>2026-04-11T15:15:51.069Z</time></trkpt><trkpt lat="45.8132299" lon="12.1267812"><ele>301.0</ele><time>2026-04-11T15:15:52.065Z</time></trkpt><trkpt lat="45.8131818" lon="12.1267156"><ele>301.0</ele><time>2026-04-11T15:15:53.068Z</time></trkpt><trkpt lat="45.8131319" lon="12.1266526"><ele>301.0</ele><time>2026-04-11T15:15:54.073Z</time></trkpt><trkpt lat="45.8130296" lon="12.1265679"><ele>301.0</ele><time>2026-04-11T15:15:56.07Z</time></trkpt><trkpt lat="45.8129016" lon="12.1265558"><ele>301.0</ele><time>2026-04-11T15:15:58.072Z</time></trkpt><trkpt lat="45.8128217" lon="12.1265629"><ele>301.0</ele><time>2026-04-11T15:15:59.077Z</time></trkpt><trkpt lat="45.812722" lon="12.1265677"><ele>301.0</ele><time>2026-04-11T15:16:01.069Z</time></trkpt><trkpt lat="45.8126322" lon="12.1265308"><ele>301.0</ele><time>2026-04-11T15:16:03.07Z</time></trkpt><trkpt lat="45.8125689" lon="12.1263981"><ele>301.14285714285717</ele><time>2026-04-11T15:16:05.066Z</time></trkpt><trkpt lat="45.8125539" lon="12.1262999"><ele>301.2857142857143</ele><time>2026-04-11T15:16:06.066Z</time></trkpt><trkpt lat="45.8125322" lon="12.126177"><ele>301.42857142857144</ele><time>2026-04-11T15:16:07.067Z</time></trkpt><trkpt lat="45.8125077" lon="12.1260572"><ele>301.57142857142856</ele><time>2026-04-11T15:16:08.069Z</time></trkpt><trkpt lat="45.8124827" lon="12.1259569"><ele>301.7142857142857</ele><time>2026-04-11T15:16:09.072Z</time></trkpt><trkpt lat="45.8124548" lon="12.1258746"><ele>301.8571428571429</ele><time>2026-04-11T15:16:10.066Z</time></trkpt><trkpt lat="45.8124142" lon="12.1258005"><ele>302.0</ele><time>2026-04-11T15:16:11.072Z</time></trkpt><trkpt lat="45.8123183" lon="12.1257043"><ele>302.00000000000006</ele><time>2026-04-11T15:16:13.061Z</time></trkpt><trkpt lat="45.812256" lon="12.1256753"><ele>302.0</ele><time>2026-04-11T15:16:14.071Z</time></trkpt><trkpt lat="45.8121866" lon="12.1256647"><ele>302.0</ele><time>2026-04-11T15:16:15.073Z</time></trkpt><trkpt lat="45.8121161" lon="12.1256742"><ele>302.0</ele><time>2026-04-11T15:16:16.064Z</time></trkpt><trkpt lat="45.8120507" lon="12.1257021"><ele>302.0</ele><time>2026-04-11T15:16:17.074Z</time></trkpt><trkpt lat="45.8119869" lon="12.1257433"><ele>302.00000000000006</ele><time>2026-04-11T15:16:18.074Z</time></trkpt><trkpt lat="45.8119287" lon="12.1258002"><ele>302.0</ele><time>2026-04-11T15:16:19.065Z</time></trkpt><trkpt lat="45.8118813" lon="12.125873"><ele>302.0</ele><time>2026-04-11T15:16:20.064Z</time></trkpt><trkpt lat="45.8118348" lon="12.125965"><ele>302.0</ele><time>2026-04-11T15:16:21.075Z</time></trkpt><trkpt lat="45.8117918" lon="12.1260645"><ele>302.0</ele><time>2026-04-11T15:16:22.062Z</time></trkpt><trkpt lat="45.811749" lon="12.1261674"><ele>302.0</ele><time>2026-04-11T15:16:23.072Z</time></trkpt><trkpt lat="45.8116968" lon="12.126271"><ele>302.0</ele><time>2026-04-11T15:16:25.067Z</time></trkpt><trkpt lat="45.811621" lon="12.1263231"><ele>302.0</ele><time>2026-04-11T15:16:27.066Z</time></trkpt><trkpt lat="45.8115209" lon="12.1263272"><ele>303.33333333333337</ele><time>2026-04-11T15:16:29.066Z</time></trkpt><trkpt lat="45.8114339" lon="12.1262722"><ele>304.6666666666667</ele><time>2026-04-11T15:16:31.067Z</time></trkpt><trkpt lat="45.8113757" lon="12.1261431"><ele>306.0</ele><time>2026-04-11T15:16:33.066Z</time></trkpt><trkpt lat="45.8113493" lon="12.1260481"><ele>307.3333333333333</ele><time>2026-04-11T15:16:34.071Z</time></trkpt><trkpt lat="45.8113173" lon="12.1259481"><ele>308.66666666666663</ele><time>2026-04-11T15:16:35.071Z</time></trkpt><trkpt lat="45.8112907" lon="12.1258648"><ele>310.0</ele><time>2026-04-11T15:16:36.058Z</time></trkpt><trkpt lat="45.8112132" lon="12.1257405"><ele>309.8333333333333</ele><time>2026-04-11T15:16:38.065Z</time></trkpt><trkpt lat="45.8111284" lon="12.1256631"><ele>309.66666666666663</ele><time>2026-04-11T15:16:40.062Z</time></trkpt><trkpt lat="45.8110371" lon="12.125621"><ele>309.5</ele><time>2026-04-11T15:16:42.064Z</time></trkpt><trkpt lat="45.810969" lon="12.1255573"><ele>309.3333333333333</ele><time>2026-04-11T15:16:45.066Z</time></trkpt><trkpt lat="45.810883" lon="12.1255076"><ele>309.1666666666667</ele><time>2026-04-11T15:16:47.068Z</time></trkpt><trkpt lat="45.8108259" lon="12.1254693"><ele>309.0</ele><time>2026-04-11T15:16:49.06Z</time></trkpt><trkpt lat="45.8107544" lon="12.1253505"><ele>309.0</ele><time>2026-04-11T15:17:08.063Z</time></trkpt><trkpt lat="45.8106796" lon="12.1252608"><ele>309.0</ele><time>2026-04-11T15:17:09.074Z</time></trkpt><trkpt lat="45.8106112" lon="12.1251796"><ele>309.0</ele><time>2026-04-11T15:17:10.077Z</time></trkpt><trkpt lat="45.8105427" lon="12.1250913"><ele>309.0</ele><time>2026-04-11T15:17:11.061Z</time></trkpt><trkpt lat="45.8104798" lon="12.1250148"><ele>309.0</ele><time>2026-04-11T15:17:12.063Z</time></trkpt><trkpt lat="45.8103864" lon="12.1249571"><ele>310.1666666666667</ele><time>2026-04-11T15:17:13.063Z</time></trkpt><trkpt lat="45.8103027" lon="12.1248846"><ele>311.3333333333333</ele><time>2026-04-11T15:17:14.065Z</time></trkpt><trkpt lat="45.8102447" lon="12.1248349"><ele>312.5</ele><time>2026-04-11T15:17:15.061Z</time></trkpt><trkpt lat="45.8101806" lon="12.1247997"><ele>313.66666666666663</ele><time>2026-04-11T15:17:16.067Z</time></trkpt><trkpt lat="45.8100926" lon="12.1247544"><ele>314.8333333333333</ele><time>2026-04-11T15:17:18.078Z</time></trkpt><trkpt lat="45.8100297" lon="12.1247022"><ele>316.0</ele><time>2026-04-11T15:17:20.069Z</time></trkpt><trkpt lat="45.809951" lon="12.1246534"><ele>316.40000000000003</ele><time>2026-04-11T15:17:22.063Z</time></trkpt><trkpt lat="45.809874" lon="12.1245944"><ele>316.8</ele><time>2026-04-11T15:17:24.07Z</time></trkpt><trkpt lat="45.8097838" lon="12.1244989"><ele>317.20000000000005</ele><time>2026-04-11T15:17:26.065Z</time></trkpt><trkpt lat="45.8096869" lon="12.1244085"><ele>317.6</ele><time>2026-04-11T15:17:28.064Z</time></trkpt><trkpt lat="45.809575" lon="12.1243925"><ele>318.0</ele><time>2026-04-11T15:17:30.072Z</time></trkpt><trkpt lat="45.8095111" lon="12.1243981"><ele>318.0</ele><time>2026-04-11T15:17:31.061Z</time></trkpt><trkpt lat="45.8094205" lon="12.1244584"><ele>318.0</ele><time>2026-04-11T15:17:33.074Z</time></trkpt><trkpt lat="45.8093317" lon="12.1245029"><ele>318.0</ele><time>2026-04-11T15:17:35.064Z</time></trkpt><trkpt lat="45.8092323" lon="12.1245181"><ele>318.0</ele><time>2026-04-11T15:17:37.078Z</time></trkpt><trkpt lat="45.8091687" lon="12.1245341"><ele>318.0</ele><time>2026-04-11T15:17:38.072Z</time></trkpt><trkpt lat="45.8091021" lon="12.1245511"><ele>318.0</ele><time>2026-04-11T15:17:39.06Z</time></trkpt><trkpt lat="45.8090289" lon="12.124591"><ele>318.2</ele><time>2026-04-11T15:17:40.071Z</time></trkpt><trkpt lat="45.808957" lon="12.1246133"><ele>318.4</ele><time>2026-04-11T15:17:41.078Z</time></trkpt><trkpt lat="45.8088705" lon="12.1246364"><ele>318.59999999999997</ele><time>2026-04-11T15:17:42.065Z</time></trkpt><trkpt lat="45.8087701" lon="12.1247153"><ele>318.8</ele><time>2026-04-11T15:17:44.063Z</time></trkpt><trkpt lat="45.8087052" lon="12.1247675"><ele>319.0</ele><time>2026-04-11T15:17:46.06Z</time></trkpt><trkpt lat="45.8085979" lon="12.1248479"><ele>318.5</ele><time>2026-04-11T15:18:11.066Z</time></trkpt><trkpt lat="45.8084806" lon="12.1248745"><ele>318.0</ele><time>2026-04-11T15:18:13.071Z</time></trkpt><trkpt lat="45.808406" lon="12.1248578"><ele>317.5</ele><time>2026-04-11T15:18:14.07Z</time></trkpt><trkpt lat="45.8083242" lon="12.1248447"><ele>317.0</ele><time>2026-04-11T15:18:15.065Z</time></trkpt><trkpt lat="45.8082433" lon="12.1248502"><ele>316.5</ele><time>2026-04-11T15:18:16.061Z</time></trkpt><trkpt lat="45.8081578" lon="12.1248913"><ele>316.0</ele><time>2026-04-11T15:18:17.063Z</time></trkpt><trkpt lat="45.8080807" lon="12.1249274"><ele>315.3333333333333</ele><time>2026-04-11T15:18:18.067Z</time></trkpt><trkpt lat="45.8080113" lon="12.1249687"><ele>314.66666666666663</ele><time>2026-04-11T15:18:19.082Z</time></trkpt><trkpt lat="45.8079066" lon="12.1250183"><ele>314.0</ele><time>2026-04-11T15:18:21.066Z</time></trkpt><trkpt lat="45.8078132" lon="12.1250575"><ele>313.3333333333333</ele><time>2026-04-11T15:18:23.071Z</time></trkpt><trkpt lat="45.8077453" lon="12.1250712"><ele>312.6666666666667</ele><time>2026-04-11T15:18:25.062Z</time></trkpt><trkpt lat="45.8076589" lon="12.1250937"><ele>312.0</ele><time>2026-04-11T15:18:38.073Z</time></trkpt><trkpt lat="45.8075535" lon="12.1250799"><ele>311.6666666666667</ele><time>2026-04-11T15:18:40.076Z</time></trkpt><trkpt lat="45.807487" lon="12.1250963"><ele>311.3333333333333</ele><time>2026-04-11T15:18:41.067Z</time></trkpt><trkpt lat="45.8073551" lon="12.1251186"><ele>311.0</ele><time>2026-04-11T15:18:43.068Z</time></trkpt><trkpt lat="45.8072867" lon="12.1251248"><ele>310.66666666666663</ele><time>2026-04-11T15:18:44.071Z</time></trkpt><trkpt lat="45.8072077" lon="12.1251203"><ele>310.3333333333333</ele><time>2026-04-11T15:18:45.07Z</time></trkpt><trkpt lat="45.8071184" lon="12.1251194"><ele>310.0</ele><time>2026-04-11T15:18:46.067Z</time></trkpt><trkpt lat="45.8070251" lon="12.1251145"><ele>310.0</ele><time>2026-04-11T15:18:47.069Z</time></trkpt><trkpt lat="45.8069351" lon="12.1251031"><ele>310.0</ele><time>2026-04-11T15:18:48.069Z</time></trkpt><trkpt lat="45.8068407" lon="12.12509"><ele>310.0</ele><time>2026-04-11T15:18:49.062Z</time></trkpt><trkpt lat="45.8067414" lon="12.1250779"><ele>310.0</ele><time>2026-04-11T15:18:50.064Z</time></trkpt><trkpt lat="45.8066465" lon="12.1250667"><ele>310.0</ele><time>2026-04-11T15:18:51.064Z</time></trkpt><trkpt lat="45.8065267" lon="12.1250623"><ele>310.16666666666663</ele><time>2026-04-11T15:18:52.07Z</time></trkpt><trkpt lat="45.8064273" lon="12.1250498"><ele>310.3333333333333</ele><time>2026-04-11T15:18:53.065Z</time></trkpt><trkpt lat="45.8063446" lon="12.1250495"><ele>310.5</ele><time>2026-04-11T15:18:54.081Z</time></trkpt><trkpt lat="45.8062579" lon="12.1250511"><ele>310.6666666666667</ele><time>2026-04-11T15:18:55.062Z</time></trkpt><trkpt lat="45.8061733" lon="12.125054"><ele>310.83333333333337</ele><time>2026-04-11T15:18:56.067Z</time></trkpt><trkpt lat="45.8060904" lon="12.125066"><ele>311.0</ele><time>2026-04-11T15:18:57.068Z</time></trkpt><trkpt lat="45.8059914" lon="12.1251029"><ele>311.0</ele><time>2026-04-11T15:18:58.057Z</time></trkpt><trkpt lat="45.8059019" lon="12.1251309"><ele>311.0</ele><time>2026-04-11T15:18:59.069Z</time></trkpt><trkpt lat="45.8058216" lon="12.1251541"><ele>311.0</ele><time>2026-04-11T15:19:00.066Z</time></trkpt><trkpt lat="45.8057322" lon="12.1251933"><ele>311.0</ele><time>2026-04-11T15:19:01.07Z</time></trkpt><trkpt lat="45.8056581" lon="12.1252306"><ele>311.0</ele><time>2026-04-11T15:19:02.074Z</time></trkpt><trkpt lat="45.8055944" lon="12.1252474"><ele>311.0</ele><time>2026-04-11T15:19:03.065Z</time></trkpt><trkpt lat="45.805528" lon="12.1252708"><ele>311.0</ele><time>2026-04-11T15:19:04.066Z</time></trkpt><trkpt lat="45.8054463" lon="12.1253"><ele>311.0</ele><time>2026-04-11T15:19:06.063Z</time></trkpt><trkpt lat="45.8053851" lon="12.1253232"><ele>311.0</ele><time>2026-04-11T15:19:08.065Z</time></trkpt><trkpt lat="45.8052882" lon="12.1253145"><ele>311.0</ele><time>2026-04-11T15:19:10.064Z</time></trkpt><trkpt lat="45.8051862" lon="12.1252421"><ele>311.0</ele><time>2026-04-11T15:19:12.07Z</time></trkpt><trkpt lat="45.8050993" lon="12.1251139"><ele>309.6666666666667</ele><time>2026-04-11T15:19:14.062Z</time></trkpt><trkpt lat="45.8050471" lon="12.1250437"><ele>308.33333333333337</ele><time>2026-04-11T15:19:15.063Z</time></trkpt><trkpt lat="45.8049977" lon="12.1249724"><ele>307.0</ele><time>2026-04-11T15:19:16.063Z</time></trkpt><trkpt lat="45.8049415" lon="12.1249037"><ele>305.6666666666667</ele><time>2026-04-11T15:19:17.072Z</time></trkpt><trkpt lat="45.8048554" lon="12.1248464"><ele>304.3333333333333</ele><time>2026-04-11T15:19:18.062Z</time></trkpt><trkpt lat="45.8047907" lon="12.1247914"><ele>303.0</ele><time>2026-04-11T15:19:19.066Z</time></trkpt><trkpt lat="45.804729" lon="12.1247505"><ele>303.0</ele><time>2026-04-11T15:19:20.067Z</time></trkpt><trkpt lat="45.8046584" lon="12.1247137"><ele>303.0</ele><time>2026-04-11T15:19:21.064Z</time></trkpt><trkpt lat="45.8045749" lon="12.1246685"><ele>303.0</ele><time>2026-04-11T15:19:22.07Z</time></trkpt><trkpt lat="45.8044899" lon="12.124635"><ele>303.0</ele><time>2026-04-11T15:19:23.059Z</time></trkpt><trkpt lat="45.8044093" lon="12.1246147"><ele>303.0</ele><time>2026-04-11T15:19:24.066Z</time></trkpt><trkpt lat="45.8043249" lon="12.1246044"><ele>303.0</ele><time>2026-04-11T15:19:25.072Z</time></trkpt><trkpt lat="45.8042478" lon="12.1245931"><ele>302.8</ele><time>2026-04-11T15:19:26.068Z</time></trkpt><trkpt lat="45.8041822" lon="12.1245794"><ele>302.6</ele><time>2026-04-11T15:19:27.071Z</time></trkpt><trkpt lat="45.8040748" lon="12.1245473"><ele>302.4</ele><time>2026-04-11T15:19:29.067Z</time></trkpt><trkpt lat="45.8039749" lon="12.1244817"><ele>302.2</ele><time>2026-04-11T15:19:31.065Z</time></trkpt><trkpt lat="45.8039087" lon="12.1243625"><ele>302.0</ele><time>2026-04-11T15:19:33.062Z</time></trkpt><trkpt lat="45.8038835" lon="12.1242794"><ele>302.0</ele><time>2026-04-11T15:19:34.079Z</time></trkpt><trkpt lat="45.8038634" lon="12.1241721"><ele>302.0</ele><time>2026-04-11T15:19:35.076Z</time></trkpt><trkpt lat="45.8038449" lon="12.1240632"><ele>302.0</ele><time>2026-04-11T15:19:36.071Z</time></trkpt><trkpt lat="45.8038311" lon="12.1239479"><ele>302.0</ele><time>2026-04-11T15:19:37.068Z</time></trkpt><trkpt lat="45.8038197" lon="12.1238347"><ele>302.0</ele><time>2026-04-11T15:19:38.063Z</time></trkpt><trkpt lat="45.803791" lon="12.1236784"><ele>302.0</ele><time>2026-04-11T15:19:40.064Z</time></trkpt><trkpt lat="45.8037281" lon="12.1235702"><ele>301.8</ele><time>2026-04-11T15:19:42.068Z</time></trkpt><trkpt lat="45.8036204" lon="12.1235169"><ele>301.6</ele><time>2026-04-11T15:19:44.07Z</time></trkpt><trkpt lat="45.8035153" lon="12.1235376"><ele>301.40000000000003</ele><time>2026-04-11T15:19:46.074Z</time></trkpt><trkpt lat="45.8034518" lon="12.1236175"><ele>301.2</ele><time>2026-04-11T15:19:47.075Z</time></trkpt><trkpt lat="45.8034053" lon="12.1236874"><ele>301.0</ele><time>2026-04-11T15:19:48.07Z</time></trkpt><trkpt lat="45.8033513" lon="12.1237878"><ele>301.0</ele><time>2026-04-11T15:19:49.075Z</time></trkpt><trkpt lat="45.8033012" lon="12.1238954"><ele>301.0</ele><time>2026-04-11T15:19:50.079Z</time></trkpt><trkpt lat="45.8032555" lon="12.1239951"><ele>301.0</ele><time>2026-04-11T15:19:51.066Z</time></trkpt><trkpt lat="45.8032102" lon="12.1240822"><ele>301.0</ele><time>2026-04-11T15:19:52.065Z</time></trkpt><trkpt lat="45.8031708" lon="12.1241539"><ele>301.0</ele><time>2026-04-11T15:19:53.063Z</time></trkpt><trkpt lat="45.8030929" lon="12.1242487"><ele>301.0</ele><time>2026-04-11T15:19:55.063Z</time></trkpt><trkpt lat="45.8029942" lon="12.1243133"><ele>300.16666666666663</ele><time>2026-04-11T15:19:57.069Z</time></trkpt><trkpt lat="45.8028723" lon="12.1243358"><ele>299.3333333333333</ele><time>2026-04-11T15:19:59.066Z</time></trkpt><trkpt lat="45.8028044" lon="12.1243278"><ele>298.5</ele><time>2026-04-11T15:20:00.058Z</time></trkpt><trkpt lat="45.8027287" lon="12.1243165"><ele>297.6666666666667</ele><time>2026-04-11T15:20:01.061Z</time></trkpt><trkpt lat="45.8026544" lon="12.1243019"><ele>296.83333333333337</ele><time>2026-04-11T15:20:02.072Z</time></trkpt><trkpt lat="45.8025755" lon="12.124281"><ele>296.0</ele><time>2026-04-11T15:20:03.068Z</time></trkpt><trkpt lat="45.8024873" lon="12.1242543"><ele>296.0</ele><time>2026-04-11T15:20:04.062Z</time></trkpt><trkpt lat="45.8024001" lon="12.124234"><ele>296.0</ele><time>2026-04-11T15:20:05.056Z</time></trkpt><trkpt lat="45.8023091" lon="12.1242304"><ele>296.0</ele><time>2026-04-11T15:20:06.064Z</time></trkpt><trkpt lat="45.8022097" lon="12.1242216"><ele>296.0</ele><time>2026-04-11T15:20:07.065Z</time></trkpt><trkpt lat="45.8021069" lon="12.1242293"><ele>296.0</ele><time>2026-04-11T15:20:08.06Z</time></trkpt><trkpt lat="45.802002" lon="12.1242401"><ele>296.0</ele><time>2026-04-11T15:20:09.072Z</time></trkpt><trkpt lat="45.8018939" lon="12.1242484"><ele>296.0</ele><time>2026-04-11T15:20:10.063Z</time></trkpt><trkpt lat="45.8017886" lon="12.1242632"><ele>296.0</ele><time>2026-04-11T15:20:11.061Z</time></trkpt><trkpt lat="45.8016911" lon="12.1242687"><ele>296.0</ele><time>2026-04-11T15:20:12.059Z</time></trkpt><trkpt lat="45.8016018" lon="12.1242822"><ele>296.0</ele><time>2026-04-11T15:20:13.074Z</time></trkpt><trkpt lat="45.8015374" lon="12.1242826"><ele>295.8</ele><time>2026-04-11T15:20:14.061Z</time></trkpt><trkpt lat="45.8014359" lon="12.1242824"><ele>295.6</ele><time>2026-04-11T15:20:15.065Z</time></trkpt><trkpt lat="45.8013186" lon="12.124296"><ele>295.4</ele><time>2026-04-11T15:20:16.063Z</time></trkpt><trkpt lat="45.8012223" lon="12.1242957"><ele>295.2</ele><time>2026-04-11T15:20:17.07Z</time></trkpt><trkpt lat="45.8011342" lon="12.1243055"><ele>295.0</ele><time>2026-04-11T15:20:18.07Z</time></trkpt><trkpt lat="45.8010389" lon="12.1243096"><ele>294.8333333333333</ele><time>2026-04-11T15:20:19.074Z</time></trkpt><trkpt lat="45.8009473" lon="12.124309"><ele>294.66666666666663</ele><time>2026-04-11T15:20:20.069Z</time></trkpt><trkpt lat="45.8008662" lon="12.1243071"><ele>294.5</ele><time>2026-04-11T15:20:21.081Z</time></trkpt><trkpt lat="45.8007889" lon="12.12431"><ele>294.3333333333333</ele><time>2026-04-11T15:20:22.073Z</time></trkpt><trkpt lat="45.8007159" lon="12.1243167"><ele>294.1666666666667</ele><time>2026-04-11T15:20:23.061Z</time></trkpt><trkpt lat="45.8005924" lon="12.1243205"><ele>294.0</ele><time>2026-04-11T15:20:25.07Z</time></trkpt><trkpt lat="45.8005172" lon="12.1243229"><ele>294.0</ele><time>2026-04-11T15:20:26.065Z</time></trkpt><trkpt lat="45.8004508" lon="12.1243231"><ele>294.0</ele><time>2026-04-11T15:20:27.072Z</time></trkpt><trkpt lat="45.8003278" lon="12.1243225"><ele>294.0</ele><time>2026-04-11T15:20:29.073Z</time></trkpt><trkpt lat="45.800264" lon="12.1243057"><ele>294.0</ele><time>2026-04-11T15:20:30.07Z</time></trkpt><trkpt lat="45.8001994" lon="12.1242613"><ele>294.0</ele><time>2026-04-11T15:20:31.065Z</time></trkpt><trkpt lat="45.8001319" lon="12.1242151"><ele>294.0</ele><time>2026-04-11T15:20:32.06Z</time></trkpt><trkpt lat="45.80006" lon="12.124167"><ele>293.3333333333333</ele><time>2026-04-11T15:20:33.065Z</time></trkpt><trkpt lat="45.7999837" lon="12.1241111"><ele>292.6666666666667</ele><time>2026-04-11T15:20:34.064Z</time></trkpt><trkpt lat="45.799917" lon="12.1240754"><ele>292.0</ele><time>2026-04-11T15:20:35.066Z</time></trkpt><trkpt lat="45.7998522" lon="12.1239975"><ele>291.33333333333337</ele><time>2026-04-11T15:20:36.072Z</time></trkpt><trkpt lat="45.799778" lon="12.123933"><ele>290.6666666666667</ele><time>2026-04-11T15:20:37.068Z</time></trkpt><trkpt lat="45.7997064" lon="12.1238763"><ele>290.0</ele><time>2026-04-11T15:20:38.069Z</time></trkpt><trkpt lat="45.7996349" lon="12.1238212"><ele>289.6666666666667</ele><time>2026-04-11T15:20:39.065Z</time></trkpt><trkpt lat="45.7995782" lon="12.123766"><ele>289.33333333333337</ele><time>2026-04-11T15:20:40.066Z</time></trkpt><trkpt lat="45.7994961" lon="12.123685"><ele>289.0</ele><time>2026-04-11T15:20:42.071Z</time></trkpt><trkpt lat="45.7994282" lon="12.1236838"><ele>288.6666666666667</ele><time>2026-04-11T15:20:53.064Z</time></trkpt><trkpt lat="45.799406" lon="12.1237784"><ele>288.3333333333333</ele><time>2026-04-11T15:20:56.075Z</time></trkpt><trkpt lat="45.7993379" lon="12.1238897"><ele>288.0</ele><time>2026-04-11T15:20:58.061Z</time></trkpt><trkpt lat="45.7992564" lon="12.1239737"><ele>286.5</ele><time>2026-04-11T15:21:00.061Z</time></trkpt><trkpt lat="45.7991499" lon="12.1240356"><ele>285.0</ele><time>2026-04-11T15:21:02.062Z</time></trkpt><trkpt lat="45.7990127" lon="12.1241471"><ele>283.5</ele><time>2026-04-11T15:21:04.073Z</time></trkpt><trkpt lat="45.798915" lon="12.1242109"><ele>282.0</ele><time>2026-04-11T15:21:06.064Z</time></trkpt><trkpt lat="45.79885" lon="12.1242598"><ele>282.0</ele><time>2026-04-11T15:21:07.065Z</time></trkpt><trkpt lat="45.7987787" lon="12.1242927"><ele>282.0</ele><time>2026-04-11T15:21:08.059Z</time></trkpt><trkpt lat="45.7987081" lon="12.1243219"><ele>282.0</ele><time>2026-04-11T15:21:09.06Z</time></trkpt><trkpt lat="45.7986332" lon="12.1243473"><ele>282.0</ele><time>2026-04-11T15:21:10.068Z</time></trkpt><trkpt lat="45.7985669" lon="12.1243765"><ele>282.0</ele><time>2026-04-11T15:21:11.068Z</time></trkpt><trkpt lat="45.7985042" lon="12.124405"><ele>282.0</ele><time>2026-04-11T15:21:12.075Z</time></trkpt><trkpt lat="45.7984102" lon="12.1245037"><ele>279.4</ele><time>2026-04-11T15:21:14.064Z</time></trkpt><trkpt lat="45.7983634" lon="12.1245687"><ele>276.79999999999995</ele><time>2026-04-11T15:21:15.058Z</time></trkpt><trkpt lat="45.7982764" lon="12.124706"><ele>274.2</ele><time>2026-04-11T15:21:17.059Z</time></trkpt><trkpt lat="45.7982346" lon="12.1247822"><ele>271.59999999999997</ele><time>2026-04-11T15:21:18.061Z</time></trkpt><trkpt lat="45.7982021" lon="12.124866"><ele>269.0</ele><time>2026-04-11T15:21:19.063Z</time></trkpt><trkpt lat="45.7981818" lon="12.1250445"><ele>269.0</ele><time>2026-04-11T15:21:21.065Z</time></trkpt><trkpt lat="45.7981504" lon="12.1251933"><ele>269.0</ele><time>2026-04-11T15:21:23.058Z</time></trkpt><trkpt lat="45.7981089" lon="12.1252718"><ele>269.0</ele><time>2026-04-11T15:21:24.063Z</time></trkpt><trkpt lat="45.7980433" lon="12.1254163"><ele>269.0</ele><time>2026-04-11T15:21:26.061Z</time></trkpt><trkpt lat="45.7979594" lon="12.1255811"><ele>269.0</ele><time>2026-04-11T15:21:28.066Z</time></trkpt><trkpt lat="45.7979207" lon="12.1256768"><ele>268.57142857142856</ele><time>2026-04-11T15:21:29.066Z</time></trkpt><trkpt lat="45.7978807" lon="12.1257715"><ele>268.14285714285717</ele><time>2026-04-11T15:21:30.056Z</time></trkpt><trkpt lat="45.7978538" lon="12.1258695"><ele>267.7142857142857</ele><time>2026-04-11T15:21:31.061Z</time></trkpt><trkpt lat="45.797817" lon="12.1259698"><ele>267.2857142857143</ele><time>2026-04-11T15:21:32.06Z</time></trkpt><trkpt lat="45.7977789" lon="12.1260651"><ele>266.8571428571429</ele><time>2026-04-11T15:21:33.06Z</time></trkpt><trkpt lat="45.7977411" lon="12.1261428"><ele>266.42857142857144</ele><time>2026-04-11T15:21:34.063Z</time></trkpt><trkpt lat="45.7976927" lon="12.1262223"><ele>266.0</ele><time>2026-04-11T15:21:35.059Z</time></trkpt><trkpt lat="45.7976529" lon="12.126293"><ele>263.2</ele><time>2026-04-11T15:21:36.064Z</time></trkpt><trkpt lat="45.7975561" lon="12.1263967"><ele>260.40000000000003</ele><time>2026-04-11T15:21:38.065Z</time></trkpt><trkpt lat="45.7974986" lon="12.1264397"><ele>257.6</ele><time>2026-04-11T15:21:39.061Z</time></trkpt><trkpt lat="45.7973882" lon="12.1265458"><ele>254.8</ele><time>2026-04-11T15:21:41.061Z</time></trkpt><trkpt lat="45.7973325" lon="12.1266075"><ele>252.0</ele><time>2026-04-11T15:21:42.064Z</time></trkpt><trkpt lat="45.79726" lon="12.1267213"><ele>252.0</ele><time>2026-04-11T15:21:44.062Z</time></trkpt><trkpt lat="45.7972158" lon="12.1268215"><ele>252.0</ele><time>2026-04-11T15:21:45.056Z</time></trkpt><trkpt lat="45.7971821" lon="12.1269067"><ele>252.0</ele><time>2026-04-11T15:21:46.061Z</time></trkpt><trkpt lat="45.7971319" lon="12.1270402"><ele>252.0</ele><time>2026-04-11T15:21:48.06Z</time></trkpt><trkpt lat="45.7970544" lon="12.1271559"><ele>252.0</ele><time>2026-04-11T15:21:50.062Z</time></trkpt><trkpt lat="45.797004" lon="12.1272105"><ele>252.0</ele><time>2026-04-11T15:21:51.062Z</time></trkpt><trkpt lat="45.7969345" lon="12.1272505"><ele>252.0</ele><time>2026-04-11T15:21:52.062Z</time></trkpt><trkpt lat="45.7968726" lon="12.1272952"><ele>252.0</ele><time>2026-04-11T15:21:53.06Z</time></trkpt><trkpt lat="45.7968073" lon="12.1273473"><ele>252.0</ele><time>2026-04-11T15:21:54.058Z</time></trkpt><trkpt lat="45.7967506" lon="12.1274005"><ele>252.0</ele><time>2026-04-11T15:21:55.071Z</time></trkpt><trkpt lat="45.7966853" lon="12.1274789"><ele>252.0</ele><time>2026-04-11T15:21:56.059Z</time></trkpt><trkpt lat="45.7966156" lon="12.1275766"><ele>252.0</ele><time>2026-04-11T15:21:57.06Z</time></trkpt><trkpt lat="45.7965534" lon="12.1276638"><ele>248.2</ele><time>2026-04-11T15:21:58.064Z</time></trkpt><trkpt lat="45.7965095" lon="12.1277379"><ele>244.39999999999998</ele><time>2026-04-11T15:21:59.06Z</time></trkpt><trkpt lat="45.7964156" lon="12.1278608"><ele>240.60000000000002</ele><time>2026-04-11T15:22:01.066Z</time></trkpt><trkpt lat="45.7963246" lon="12.127913"><ele>236.8</ele><time>2026-04-11T15:22:03.067Z</time></trkpt><trkpt lat="45.7962161" lon="12.1280033"><ele>233.0</ele><time>2026-04-11T15:22:05.057Z</time></trkpt><trkpt lat="45.7961615" lon="12.1280649"><ele>233.00000000000003</ele><time>2026-04-11T15:22:06.066Z</time></trkpt><trkpt lat="45.796072" lon="12.1281943"><ele>233.0</ele><time>2026-04-11T15:22:08.06Z</time></trkpt><trkpt lat="45.796029" lon="12.1282685"><ele>233.0</ele><time>2026-04-11T15:22:09.064Z</time></trkpt><trkpt lat="45.7959823" lon="12.1283459"><ele>233.0</ele><time>2026-04-11T15:22:10.062Z</time></trkpt><trkpt lat="45.795931" lon="12.1284227"><ele>233.00000000000003</ele><time>2026-04-11T15:22:11.064Z</time></trkpt><trkpt lat="45.7958807" lon="12.1284973"><ele>233.0</ele><time>2026-04-11T15:22:12.057Z</time></trkpt><trkpt lat="45.795826" lon="12.1285628"><ele>230.4</ele><time>2026-04-11T15:22:13.07Z</time></trkpt><trkpt lat="45.795782" lon="12.1286412"><ele>227.8</ele><time>2026-04-11T15:22:14.068Z</time></trkpt><trkpt lat="45.7957482" lon="12.1287246"><ele>225.2</ele><time>2026-04-11T15:22:15.064Z</time></trkpt><trkpt lat="45.7957123" lon="12.1289074"><ele>222.6</ele><time>2026-04-11T15:22:17.062Z</time></trkpt><trkpt lat="45.7956892" lon="12.1290572"><ele>220.0</ele><time>2026-04-11T15:22:19.061Z</time></trkpt><trkpt lat="45.7956475" lon="12.1291632"><ele>220.0</ele><time>2026-04-11T15:22:21.06Z</time></trkpt><trkpt lat="45.7955687" lon="12.1292139"><ele>220.0</ele><time>2026-04-11T15:22:23.067Z</time></trkpt><trkpt lat="45.7954557" lon="12.1292358"><ele>220.0</ele><time>2026-04-11T15:22:25.075Z</time></trkpt><trkpt lat="45.7953542" lon="12.1293126"><ele>220.0</ele><time>2026-04-11T15:22:27.062Z</time></trkpt><trkpt lat="45.7952783" lon="12.1293944"><ele>220.0</ele><time>2026-04-11T15:22:29.059Z</time></trkpt><trkpt lat="45.7952152" lon="12.1294785"><ele>216.16666666666666</ele><time>2026-04-11T15:22:31.064Z</time></trkpt><trkpt lat="45.7951145" lon="12.1295867"><ele>212.33333333333331</ele><time>2026-04-11T15:22:33.071Z</time></trkpt><trkpt lat="45.7950538" lon="12.12965"><ele>208.5</ele><time>2026-04-11T15:22:34.061Z</time></trkpt><trkpt lat="45.7950031" lon="12.1297074"><ele>204.66666666666669</ele><time>2026-04-11T15:22:35.069Z</time></trkpt><trkpt lat="45.7949366" lon="12.1297728"><ele>200.83333333333334</ele><time>2026-04-11T15:22:36.062Z</time></trkpt><trkpt lat="45.7948862" lon="12.1298285"><ele>197.0</ele><time>2026-04-11T15:22:37.062Z</time></trkpt><trkpt lat="45.7948349" lon="12.1298818"><ele>198.0</ele><time>2026-04-11T15:22:38.062Z</time></trkpt><trkpt lat="45.7947368" lon="12.1300112"><ele>199.0</ele><time>2026-04-11T15:22:40.063Z</time></trkpt><trkpt lat="45.7946652" lon="12.1301604"><ele>200.0</ele><time>2026-04-11T15:22:42.064Z</time></trkpt><trkpt lat="45.7946458" lon="12.1302577"><ele>201.0</ele><time>2026-04-11T15:22:43.064Z</time></trkpt><trkpt lat="45.794616" lon="12.130435"><ele>201.0</ele><time>2026-04-11T15:22:45.061Z</time></trkpt><trkpt lat="45.7946069" lon="12.1305485"><ele>201.0</ele><time>2026-04-11T15:22:46.076Z</time></trkpt><trkpt lat="45.7946203" lon="12.1306501"><ele>201.0</ele><time>2026-04-11T15:22:47.069Z</time></trkpt><trkpt lat="45.7946282" lon="12.1307537"><ele>201.0</ele><time>2026-04-11T15:22:48.059Z</time></trkpt><trkpt lat="45.7946279" lon="12.130914"><ele>201.0</ele><time>2026-04-11T15:22:50.059Z</time></trkpt><trkpt lat="45.7946277" lon="12.1310341"><ele>201.0</ele><time>2026-04-11T15:22:52.06Z</time></trkpt><trkpt lat="45.7946269" lon="12.1311471"><ele>200.66666666666666</ele><time>2026-04-11T15:22:54.066Z</time></trkpt><trkpt lat="45.7946252" lon="12.131249"><ele>200.33333333333331</ele><time>2026-04-11T15:23:13.057Z</time></trkpt><trkpt lat="45.7945727" lon="12.131341"><ele>200.0</ele><time>2026-04-11T15:23:16.061Z</time></trkpt><trkpt lat="45.7945196" lon="12.1314432"><ele>199.66666666666666</ele><time>2026-04-11T15:23:18.061Z</time></trkpt><trkpt lat="45.7944385" lon="12.131598"><ele>199.33333333333331</ele><time>2026-04-11T15:23:20.062Z</time></trkpt><trkpt lat="45.7943941" lon="12.1316688"><ele>199.0</ele><time>2026-04-11T15:23:21.058Z</time></trkpt><trkpt lat="45.7943146" lon="12.1318013"><ele>196.66666666666666</ele><time>2026-04-11T15:23:23.057Z</time></trkpt><trkpt lat="45.7942603" lon="12.1318721"><ele>194.33333333333331</ele><time>2026-04-11T15:23:24.066Z</time></trkpt><trkpt lat="45.7941979" lon="12.1319336"><ele>192.0</ele><time>2026-04-11T15:23:25.063Z</time></trkpt><trkpt lat="45.7941417" lon="12.1319816"><ele>189.66666666666666</ele><time>2026-04-11T15:23:26.063Z</time></trkpt><trkpt lat="45.7940779" lon="12.1320247"><ele>187.33333333333331</ele><time>2026-04-11T15:23:27.062Z</time></trkpt><trkpt lat="45.7939753" lon="12.1320826"><ele>185.0</ele><time>2026-04-11T15:23:29.063Z</time></trkpt><trkpt lat="45.7938744" lon="12.1321616"><ele>185.0</ele><time>2026-04-11T15:23:31.062Z</time></trkpt><trkpt lat="45.7937869" lon="12.1322283"><ele>185.0</ele><time>2026-04-11T15:23:33.065Z</time></trkpt><trkpt lat="45.7937059" lon="12.1323052"><ele>185.0</ele><time>2026-04-11T15:23:35.059Z</time></trkpt><trkpt lat="45.7936038" lon="12.1324225"><ele>185.0</ele><time>2026-04-11T15:23:37.069Z</time></trkpt><trkpt lat="45.7935446" lon="12.1324863"><ele>185.0</ele><time>2026-04-11T15:23:38.067Z</time></trkpt><trkpt lat="45.7934869" lon="12.1325428"><ele>182.6</ele><time>2026-04-11T15:23:39.066Z</time></trkpt><trkpt lat="45.7933969" lon="12.132636"><ele>180.2</ele><time>2026-04-11T15:23:41.076Z</time></trkpt><trkpt lat="45.7933106" lon="12.1326934"><ele>177.8</ele><time>2026-04-11T15:23:43.062Z</time></trkpt><trkpt lat="45.7931913" lon="12.1327372"><ele>175.4</ele><time>2026-04-11T15:23:45.064Z</time></trkpt><trkpt lat="45.7931244" lon="12.1327489"><ele>173.0</ele><time>2026-04-11T15:23:46.07Z</time></trkpt><trkpt lat="45.7930523" lon="12.1327705"><ele>173.0</ele><time>2026-04-11T15:23:47.067Z</time></trkpt><trkpt lat="45.7929753" lon="12.1327754"><ele>173.0</ele><time>2026-04-11T15:23:48.062Z</time></trkpt><trkpt lat="45.7928877" lon="12.1327874"><ele>173.0</ele><time>2026-04-11T15:23:49.062Z</time></trkpt><trkpt lat="45.7928" lon="12.1328023"><ele>173.0</ele><time>2026-04-11T15:23:50.068Z</time></trkpt><trkpt lat="45.7927177" lon="12.1328105"><ele>173.0</ele><time>2026-04-11T15:23:51.066Z</time></trkpt><trkpt lat="45.7926379" lon="12.1328111"><ele>173.0</ele><time>2026-04-11T15:23:52.071Z</time></trkpt><trkpt lat="45.7925639" lon="12.1328255"><ele>170.83333333333331</ele><time>2026-04-11T15:23:53.062Z</time></trkpt><trkpt lat="45.7924903" lon="12.132827"><ele>168.66666666666666</ele><time>2026-04-11T15:23:54.067Z</time></trkpt><trkpt lat="45.792418" lon="12.1328297"><ele>166.5</ele><time>2026-04-11T15:23:55.063Z</time></trkpt><trkpt lat="45.7923403" lon="12.1328306"><ele>164.33333333333334</ele><time>2026-04-11T15:23:56.067Z</time></trkpt><trkpt lat="45.7922303" lon="12.1328551"><ele>162.16666666666669</ele><time>2026-04-11T15:23:58.074Z</time></trkpt><trkpt lat="45.7921442" lon="12.1329547"><ele>160.0</ele><time>2026-04-11T15:24:00.065Z</time></trkpt><trkpt lat="45.7920873" lon="12.1330369"><ele>160.0</ele><time>2026-04-11T15:24:01.059Z</time></trkpt><trkpt lat="45.7920296" lon="12.1331123"><ele>160.0</ele><time>2026-04-11T15:24:02.071Z</time></trkpt><trkpt lat="45.791964" lon="12.1331943"><ele>160.0</ele><time>2026-04-11T15:24:03.066Z</time></trkpt><trkpt lat="45.7918958" lon="12.1332729"><ele>160.0</ele><time>2026-04-11T15:24:04.063Z</time></trkpt><trkpt lat="45.7918261" lon="12.1333561"><ele>160.0</ele><time>2026-04-11T15:24:05.062Z</time></trkpt><trkpt lat="45.7917656" lon="12.1334232"><ele>160.0</ele><time>2026-04-11T15:24:06.073Z</time></trkpt><trkpt lat="45.7916602" lon="12.1335071"><ele>159.0</ele><time>2026-04-11T15:24:08.071Z</time></trkpt><trkpt lat="45.7915457" lon="12.1335366"><ele>158.0</ele><time>2026-04-11T15:24:10.062Z</time></trkpt><trkpt lat="45.7914807" lon="12.1335373"><ele>157.0</ele><time>2026-04-11T15:24:11.066Z</time></trkpt><trkpt lat="45.7914014" lon="12.1335373"><ele>156.0</ele><time>2026-04-11T15:24:12.065Z</time></trkpt><trkpt lat="45.7913181" lon="12.1335455"><ele>155.0</ele><time>2026-04-11T15:24:13.074Z</time></trkpt><trkpt lat="45.7912285" lon="12.1335626"><ele>154.0</ele><time>2026-04-11T15:24:14.059Z</time></trkpt><trkpt lat="45.7911426" lon="12.1335821"><ele>154.0</ele><time>2026-04-11T15:24:15.058Z</time></trkpt><trkpt lat="45.7910637" lon="12.133602"><ele>154.0</ele><time>2026-04-11T15:24:16.067Z</time></trkpt><trkpt lat="45.7909871" lon="12.1336186"><ele>154.0</ele><time>2026-04-11T15:24:17.064Z</time></trkpt><trkpt lat="45.7909136" lon="12.1336279"><ele>154.0</ele><time>2026-04-11T15:24:18.055Z</time></trkpt><trkpt lat="45.7908425" lon="12.133635"><ele>154.0</ele><time>2026-04-11T15:24:19.062Z</time></trkpt><trkpt lat="45.7907791" lon="12.1336298"><ele>154.0</ele><time>2026-04-11T15:24:20.056Z</time></trkpt><trkpt lat="45.7907138" lon="12.1336156"><ele>154.0</ele><time>2026-04-11T15:24:21.068Z</time></trkpt><trkpt lat="45.7906086" lon="12.1335663"><ele>153.0</ele><time>2026-04-11T15:24:23.073Z</time></trkpt><trkpt lat="45.7905042" lon="12.1334936"><ele>152.0</ele><time>2026-04-11T15:24:25.067Z</time></trkpt><trkpt lat="45.790441" lon="12.1334643"><ele>151.0</ele><time>2026-04-11T15:24:26.065Z</time></trkpt><trkpt lat="45.7903263" lon="12.1333933"><ele>150.0</ele><time>2026-04-11T15:24:28.076Z</time></trkpt><trkpt lat="45.7902723" lon="12.1333464"><ele>149.0</ele><time>2026-04-11T15:24:29.066Z</time></trkpt><trkpt lat="45.7902134" lon="12.1333038"><ele>148.0</ele><time>2026-04-11T15:24:30.059Z</time></trkpt><trkpt lat="45.7901127" lon="12.133277"><ele>144.75</ele><time>2026-04-11T15:24:32.069Z</time></trkpt><trkpt lat="45.790011" lon="12.1333317"><ele>141.5</ele><time>2026-04-11T15:24:34.071Z</time></trkpt><trkpt lat="45.7899111" lon="12.1334058"><ele>138.25</ele><time>2026-04-11T15:24:36.066Z</time></trkpt><trkpt lat="45.7898017" lon="12.1334691"><ele>135.0</ele><time>2026-04-11T15:24:38.065Z</time></trkpt><trkpt lat="45.7896878" lon="12.1334995"><ele>135.0</ele><time>2026-04-11T15:24:40.069Z</time></trkpt><trkpt lat="45.7895751" lon="12.1334942"><ele>135.0</ele><time>2026-04-11T15:24:42.074Z</time></trkpt><trkpt lat="45.7894782" lon="12.1334393"><ele>135.0</ele><time>2026-04-11T15:24:44.069Z</time></trkpt><trkpt lat="45.7893941" lon="12.1333255"><ele>135.0</ele><time>2026-04-11T15:24:46.073Z</time></trkpt><trkpt lat="45.7893547" lon="12.1332286"><ele>135.0</ele><time>2026-04-11T15:24:47.071Z</time></trkpt><trkpt lat="45.7893105" lon="12.1331419"><ele>132.4</ele><time>2026-04-11T15:24:48.063Z</time></trkpt><trkpt lat="45.7892657" lon="12.1330652"><ele>129.8</ele><time>2026-04-11T15:24:49.063Z</time></trkpt><trkpt lat="45.7892124" lon="12.13298"><ele>127.19999999999999</ele><time>2026-04-11T15:24:50.071Z</time></trkpt><trkpt lat="45.7891606" lon="12.1329027"><ele>124.6</ele><time>2026-04-11T15:24:51.079Z</time></trkpt><trkpt lat="45.789082" lon="12.1327852"><ele>122.0</ele><time>2026-04-11T15:24:53.074Z</time></trkpt><trkpt lat="45.7889664" lon="12.132728"><ele>121.99999999999999</ele><time>2026-04-11T15:24:55.067Z</time></trkpt><trkpt lat="45.788903" lon="12.1327321"><ele>122.0</ele><time>2026-04-11T15:24:56.067Z</time></trkpt><trkpt lat="45.7888312" lon="12.1327526"><ele>122.0</ele><time>2026-04-11T15:24:57.071Z</time></trkpt><trkpt lat="45.7887618" lon="12.1327928"><ele>122.0</ele><time>2026-04-11T15:24:58.064Z</time></trkpt><trkpt lat="45.7886747" lon="12.132853"><ele>121.99999999999999</ele><time>2026-04-11T15:24:59.068Z</time></trkpt><trkpt lat="45.7886039" lon="12.132907"><ele>122.0</ele><time>2026-04-11T15:25:00.058Z</time></trkpt><trkpt lat="45.7885398" lon="12.1329655"><ele>120.33333333333333</ele><time>2026-04-11T15:25:01.063Z</time></trkpt><trkpt lat="45.7884786" lon="12.1330276"><ele>118.66666666666666</ele><time>2026-04-11T15:25:02.066Z</time></trkpt><trkpt lat="45.7884132" lon="12.1331096"><ele>117.0</ele><time>2026-04-11T15:25:03.06Z</time></trkpt><trkpt lat="45.7883431" lon="12.1332188"><ele>115.33333333333334</ele><time>2026-04-11T15:25:04.067Z</time></trkpt><trkpt lat="45.7882804" lon="12.133314"><ele>113.66666666666667</ele><time>2026-04-11T15:25:05.059Z</time></trkpt><trkpt lat="45.788221" lon="12.1333888"><ele>112.0</ele><time>2026-04-11T15:25:06.08Z</time></trkpt><trkpt lat="45.7881629" lon="12.1334358"><ele>111.33333333333334</ele><time>2026-04-11T15:25:07.066Z</time></trkpt><trkpt lat="45.7880918" lon="12.1334759"><ele>110.66666666666667</ele><time>2026-04-11T15:25:08.064Z</time></trkpt><trkpt lat="45.7880137" lon="12.1335026"><ele>110.0</ele><time>2026-04-11T15:25:09.065Z</time></trkpt><trkpt lat="45.7879363" lon="12.1335067"><ele>109.33333333333334</ele><time>2026-04-11T15:25:10.063Z</time></trkpt><trkpt lat="45.7878533" lon="12.1335088"><ele>108.66666666666667</ele><time>2026-04-11T15:25:11.069Z</time></trkpt><trkpt lat="45.7877783" lon="12.1335089"><ele>108.0</ele><time>2026-04-11T15:25:12.062Z</time></trkpt><trkpt lat="45.7877115" lon="12.1335016"><ele>107.33333333333333</ele><time>2026-04-11T15:25:13.079Z</time></trkpt><trkpt lat="45.7876457" lon="12.133493"><ele>106.66666666666666</ele><time>2026-04-11T15:25:14.067Z</time></trkpt><trkpt lat="45.7875792" lon="12.1334925"><ele>106.0</ele><time>2026-04-11T15:25:15.068Z</time></trkpt><trkpt lat="45.787457" lon="12.1335345"><ele>105.33333333333333</ele><time>2026-04-11T15:25:17.069Z</time></trkpt><trkpt lat="45.7873898" lon="12.1335801"><ele>104.66666666666666</ele><time>2026-04-11T15:25:18.082Z</time></trkpt><trkpt lat="45.7873279" lon="12.1336377"><ele>104.0</ele><time>2026-04-11T15:25:19.067Z</time></trkpt><trkpt lat="45.7872702" lon="12.1337105"><ele>103.99999999999999</ele><time>2026-04-11T15:25:20.065Z</time></trkpt><trkpt lat="45.7872124" lon="12.1337871"><ele>104.0</ele><time>2026-04-11T15:25:21.068Z</time></trkpt><trkpt lat="45.7871577" lon="12.1338665"><ele>104.0</ele><time>2026-04-11T15:25:22.061Z</time></trkpt><trkpt lat="45.7871048" lon="12.133942"><ele>104.0</ele><time>2026-04-11T15:25:23.062Z</time></trkpt><trkpt lat="45.7870598" lon="12.134009"><ele>103.99999999999999</ele><time>2026-04-11T15:25:24.061Z</time></trkpt><trkpt lat="45.7869933" lon="12.1340972"><ele>104.0</ele><time>2026-04-11T15:25:26.064Z</time></trkpt><trkpt lat="45.7869496" lon="12.1341635"><ele>102.0</ele><time>2026-04-11T15:25:29.06Z</time></trkpt></trkseg></trk></gpx>